<?xml version="1.0" encoding="UTF-8" standalone="no" ?>
<gpx xmlns="http://www.topografix.com/GPX/1/1" xmlns:xsi="http://www.w3.org/2001/XMLSchema-instance" xsi:schemaLocation="http://www.topografix.com/GPX/1/1 http://www.topografix.com/GPX/1/1/gpx.xsd" version="1.1" creator="VisuGPX - https://www.visugpx.com">
  <metadata>
    <name>Le Piton de la Fournaise</name>
    <desc><![CDATA[Ascension du Piton de la Fournaise sur l'île de la Réunion]]></desc>
  </metadata>
  <trk>
    <name><![CDATA[2018-04-17 16:16:04]]></name>
    <trkseg>
      <trkpt lat="-21.2251" lon="55.68552">
        <ele>2360.17</ele>
        <time>2018-04-17T07:21:14Z</time>
      </trkpt>
      <trkpt lat="-21.2249" lon="55.68566">
        <ele>2360.17</ele>
        <time>2018-04-17T07:21:34Z</time>
      </trkpt>
      <trkpt lat="-21.22477" lon="55.68582">
        <ele>2360.17</ele>
        <time>2018-04-17T07:21:50Z</time>
      </trkpt>
      <trkpt lat="-21.22468" lon="55.68592">
        <ele>2359.69</ele>
        <time>2018-04-17T07:22:01Z</time>
      </trkpt>
      <trkpt lat="-21.22455" lon="55.68604">
        <ele>2358.25</ele>
        <time>2018-04-17T07:22:15Z</time>
      </trkpt>
      <trkpt lat="-21.2244" lon="55.68615">
        <ele>2358.25</ele>
        <time>2018-04-17T07:22:29Z</time>
      </trkpt>
      <trkpt lat="-21.22437" lon="55.68624">
        <ele>2359.69</ele>
        <time>2018-04-17T07:22:40Z</time>
      </trkpt>
      <trkpt lat="-21.22439" lon="55.68628">
        <ele>2362.1</ele>
        <time>2018-04-17T07:22:54Z</time>
      </trkpt>
      <trkpt lat="-21.22438" lon="55.68627">
        <ele>2362.58</ele>
        <time>2018-04-17T07:23:08Z</time>
      </trkpt>
      <trkpt lat="-21.22439" lon="55.68628">
        <ele>2362.58</ele>
        <time>2018-04-17T07:23:33Z</time>
      </trkpt>
      <trkpt lat="-21.22438" lon="55.68627">
        <ele>2364.5</ele>
        <time>2018-04-17T07:24:04Z</time>
      </trkpt>
      <trkpt lat="-21.22438" lon="55.68626">
        <ele>2364.98</ele>
        <time>2018-04-17T07:24:27Z</time>
      </trkpt>
      <trkpt lat="-21.22435" lon="55.68622">
        <ele>2364.02</ele>
        <time>2018-04-17T07:24:38Z</time>
      </trkpt>
      <trkpt lat="-21.22433" lon="55.6862">
        <ele>2363.06</ele>
        <time>2018-04-17T07:24:42Z</time>
      </trkpt>
      <trkpt lat="-21.2243" lon="55.68621">
        <ele>2362.58</ele>
        <time>2018-04-17T07:24:44Z</time>
      </trkpt>
      <trkpt lat="-21.22419" lon="55.6862">
        <ele>2360.65</ele>
        <time>2018-04-17T07:24:56Z</time>
      </trkpt>
      <trkpt lat="-21.22409" lon="55.68624">
        <ele>2359.21</ele>
        <time>2018-04-17T07:25:06Z</time>
      </trkpt>
      <trkpt lat="-21.22402" lon="55.68629">
        <ele>2358.73</ele>
        <time>2018-04-17T07:25:13Z</time>
      </trkpt>
      <trkpt lat="-21.22393" lon="55.68636">
        <ele>2357.29</ele>
        <time>2018-04-17T07:25:24Z</time>
      </trkpt>
      <trkpt lat="-21.22386" lon="55.68642">
        <ele>2356.81</ele>
        <time>2018-04-17T07:25:34Z</time>
      </trkpt>
      <trkpt lat="-21.22384" lon="55.68645">
        <ele>2356.81</ele>
        <time>2018-04-17T07:25:38Z</time>
      </trkpt>
      <trkpt lat="-21.2238" lon="55.68648">
        <ele>2355.37</ele>
        <time>2018-04-17T07:25:45Z</time>
      </trkpt>
      <trkpt lat="-21.22375" lon="55.68658">
        <ele>2355.37</ele>
        <time>2018-04-17T07:25:58Z</time>
      </trkpt>
      <trkpt lat="-21.22369" lon="55.68669">
        <ele>2354.41</ele>
        <time>2018-04-17T07:26:12Z</time>
      </trkpt>
      <trkpt lat="-21.22363" lon="55.68678">
        <ele>2353.93</ele>
        <time>2018-04-17T07:26:23Z</time>
      </trkpt>
      <trkpt lat="-21.22357" lon="55.68683">
        <ele>2352.96</ele>
        <time>2018-04-17T07:26:34Z</time>
      </trkpt>
      <trkpt lat="-21.2235" lon="55.6869">
        <ele>2352.48</ele>
        <time>2018-04-17T07:26:45Z</time>
      </trkpt>
      <trkpt lat="-21.22347" lon="55.68693">
        <ele>2352</ele>
        <time>2018-04-17T07:26:49Z</time>
      </trkpt>
      <trkpt lat="-21.22339" lon="55.68699">
        <ele>2351.52</ele>
        <time>2018-04-17T07:26:57Z</time>
      </trkpt>
      <trkpt lat="-21.2233" lon="55.6871">
        <ele>2350.56</ele>
        <time>2018-04-17T07:27:11Z</time>
      </trkpt>
      <trkpt lat="-21.22325" lon="55.68715">
        <ele>2350.08</ele>
        <time>2018-04-17T07:27:17Z</time>
      </trkpt>
      <trkpt lat="-21.22318" lon="55.68723">
        <ele>2348.16</ele>
        <time>2018-04-17T07:27:29Z</time>
      </trkpt>
      <trkpt lat="-21.22304" lon="55.68733">
        <ele>2349.12</ele>
        <time>2018-04-17T07:27:43Z</time>
      </trkpt>
      <trkpt lat="-21.22293" lon="55.68745">
        <ele>2349.6</ele>
        <time>2018-04-17T07:27:56Z</time>
      </trkpt>
      <trkpt lat="-21.2228" lon="55.68758">
        <ele>2348.16</ele>
        <time>2018-04-17T07:28:10Z</time>
      </trkpt>
      <trkpt lat="-21.22273" lon="55.68767">
        <ele>2347.68</ele>
        <time>2018-04-17T07:28:19Z</time>
      </trkpt>
      <trkpt lat="-21.22268" lon="55.68777">
        <ele>2344.79</ele>
        <time>2018-04-17T07:28:31Z</time>
      </trkpt>
      <trkpt lat="-21.22264" lon="55.68785">
        <ele>2342.87</ele>
        <time>2018-04-17T07:28:42Z</time>
      </trkpt>
      <trkpt lat="-21.22261" lon="55.6879">
        <ele>2340.95</ele>
        <time>2018-04-17T07:28:57Z</time>
      </trkpt>
      <trkpt lat="-21.22261" lon="55.688">
        <ele>2340.47</ele>
        <time>2018-04-17T07:29:06Z</time>
      </trkpt>
      <trkpt lat="-21.22261" lon="55.68801">
        <ele>2340.47</ele>
        <time>2018-04-17T07:29:07Z</time>
      </trkpt>
      <trkpt lat="-21.2226" lon="55.68803">
        <ele>2339.99</ele>
        <time>2018-04-17T07:29:09Z</time>
      </trkpt>
      <trkpt lat="-21.22258" lon="55.68815">
        <ele>2340.95</ele>
        <time>2018-04-17T07:29:21Z</time>
      </trkpt>
      <trkpt lat="-21.22257" lon="55.68821">
        <ele>2339.99</ele>
        <time>2018-04-17T07:29:29Z</time>
      </trkpt>
      <trkpt lat="-21.22254" lon="55.68825">
        <ele>2338.06</ele>
        <time>2018-04-17T07:29:36Z</time>
      </trkpt>
      <trkpt lat="-21.22252" lon="55.68834">
        <ele>2336.62</ele>
        <time>2018-04-17T07:29:42Z</time>
      </trkpt>
      <trkpt lat="-21.22251" lon="55.68837">
        <ele>2336.14</ele>
        <time>2018-04-17T07:29:44Z</time>
      </trkpt>
      <trkpt lat="-21.22242" lon="55.68842">
        <ele>2333.74</ele>
        <time>2018-04-17T07:29:58Z</time>
      </trkpt>
      <trkpt lat="-21.22235" lon="55.68851">
        <ele>2332.3</ele>
        <time>2018-04-17T07:30:11Z</time>
      </trkpt>
      <trkpt lat="-21.22228" lon="55.68856">
        <ele>2330.37</ele>
        <time>2018-04-17T07:30:22Z</time>
      </trkpt>
      <trkpt lat="-21.22232" lon="55.68871">
        <ele>2327.97</ele>
        <time>2018-04-17T07:30:37Z</time>
      </trkpt>
      <trkpt lat="-21.22232" lon="55.68875">
        <ele>2327.49</ele>
        <time>2018-04-17T07:30:41Z</time>
      </trkpt>
      <trkpt lat="-21.22232" lon="55.68889">
        <ele>2327.01</ele>
        <time>2018-04-17T07:30:58Z</time>
      </trkpt>
      <trkpt lat="-21.22232" lon="55.6889">
        <ele>2327.97</ele>
        <time>2018-04-17T07:31:03Z</time>
      </trkpt>
      <trkpt lat="-21.22231" lon="55.68899">
        <ele>2325.57</ele>
        <time>2018-04-17T07:31:13Z</time>
      </trkpt>
      <trkpt lat="-21.2223" lon="55.68917">
        <ele>2320.76</ele>
        <time>2018-04-17T07:31:33Z</time>
      </trkpt>
      <trkpt lat="-21.22233" lon="55.6892">
        <ele>2319.8</ele>
        <time>2018-04-17T07:31:53Z</time>
      </trkpt>
      <trkpt lat="-21.22235" lon="55.6892">
        <ele>2323.16</ele>
        <time>2018-04-17T07:32:10Z</time>
      </trkpt>
      <trkpt lat="-21.22248" lon="55.6892">
        <ele>2323.64</ele>
        <time>2018-04-17T07:32:26Z</time>
      </trkpt>
      <trkpt lat="-21.22251" lon="55.68922">
        <ele>2321.72</ele>
        <time>2018-04-17T07:32:44Z</time>
      </trkpt>
      <trkpt lat="-21.22242" lon="55.68922">
        <ele>2322.2</ele>
        <time>2018-04-17T07:33:00Z</time>
      </trkpt>
      <trkpt lat="-21.22236" lon="55.68929">
        <ele>2321.72</ele>
        <time>2018-04-17T07:33:14Z</time>
      </trkpt>
      <trkpt lat="-21.22236" lon="55.6894">
        <ele>2315.95</ele>
        <time>2018-04-17T07:33:25Z</time>
      </trkpt>
      <trkpt lat="-21.22238" lon="55.68938">
        <ele>2303.46</ele>
        <time>2018-04-17T07:33:37Z</time>
      </trkpt>
      <trkpt lat="-21.22238" lon="55.68933">
        <ele>2295.77</ele>
        <time>2018-04-17T07:33:49Z</time>
      </trkpt>
      <trkpt lat="-21.2224" lon="55.68932">
        <ele>2294.8</ele>
        <time>2018-04-17T07:33:54Z</time>
      </trkpt>
      <trkpt lat="-21.22251" lon="55.68932">
        <ele>2292.4</ele>
        <time>2018-04-17T07:34:07Z</time>
      </trkpt>
      <trkpt lat="-21.22263" lon="55.68931">
        <ele>2288.56</ele>
        <time>2018-04-17T07:34:21Z</time>
      </trkpt>
      <trkpt lat="-21.22261" lon="55.68933">
        <ele>2285.19</ele>
        <time>2018-04-17T07:34:33Z</time>
      </trkpt>
      <trkpt lat="-21.22252" lon="55.68933">
        <ele>2282.79</ele>
        <time>2018-04-17T07:34:47Z</time>
      </trkpt>
      <trkpt lat="-21.22248" lon="55.68946">
        <ele>2282.31</ele>
        <time>2018-04-17T07:35:01Z</time>
      </trkpt>
      <trkpt lat="-21.22251" lon="55.68964">
        <ele>2287.11</ele>
        <time>2018-04-17T07:35:15Z</time>
      </trkpt>
      <trkpt lat="-21.22249" lon="55.68968">
        <ele>2284.71</ele>
        <time>2018-04-17T07:35:27Z</time>
      </trkpt>
      <trkpt lat="-21.22245" lon="55.68973">
        <ele>2282.79</ele>
        <time>2018-04-17T07:35:38Z</time>
      </trkpt>
      <trkpt lat="-21.22237" lon="55.68983">
        <ele>2279.42</ele>
        <time>2018-04-17T07:35:53Z</time>
      </trkpt>
      <trkpt lat="-21.22236" lon="55.68988">
        <ele>2274.62</ele>
        <time>2018-04-17T07:36:06Z</time>
      </trkpt>
      <trkpt lat="-21.22234" lon="55.68984">
        <ele>2267.89</ele>
        <time>2018-04-17T07:36:19Z</time>
      </trkpt>
      <trkpt lat="-21.22236" lon="55.68979">
        <ele>2261.64</ele>
        <time>2018-04-17T07:36:32Z</time>
      </trkpt>
      <trkpt lat="-21.22247" lon="55.68978">
        <ele>2262.6</ele>
        <time>2018-04-17T07:36:48Z</time>
      </trkpt>
      <trkpt lat="-21.22245" lon="55.68981">
        <ele>2264.04</ele>
        <time>2018-04-17T07:37:06Z</time>
      </trkpt>
      <trkpt lat="-21.22246" lon="55.68981">
        <ele>2260.68</ele>
        <time>2018-04-17T07:37:19Z</time>
      </trkpt>
      <trkpt lat="-21.22249" lon="55.68982">
        <ele>2258.27</ele>
        <time>2018-04-17T07:37:31Z</time>
      </trkpt>
      <trkpt lat="-21.22249" lon="55.68984">
        <ele>2254.91</ele>
        <time>2018-04-17T07:37:42Z</time>
      </trkpt>
      <trkpt lat="-21.22247" lon="55.68987">
        <ele>2255.87</ele>
        <time>2018-04-17T07:37:56Z</time>
      </trkpt>
      <trkpt lat="-21.22246" lon="55.68987">
        <ele>2255.39</ele>
        <time>2018-04-17T07:37:58Z</time>
      </trkpt>
      <trkpt lat="-21.22239" lon="55.69">
        <ele>2255.39</ele>
        <time>2018-04-17T07:38:12Z</time>
      </trkpt>
      <trkpt lat="-21.22235" lon="55.69009">
        <ele>2252.51</ele>
        <time>2018-04-17T07:38:24Z</time>
      </trkpt>
      <trkpt lat="-21.22234" lon="55.69019">
        <ele>2250.58</ele>
        <time>2018-04-17T07:38:37Z</time>
      </trkpt>
      <trkpt lat="-21.2223" lon="55.69031">
        <ele>2250.58</ele>
        <time>2018-04-17T07:38:50Z</time>
      </trkpt>
      <trkpt lat="-21.22228" lon="55.69036">
        <ele>2249.14</ele>
        <time>2018-04-17T07:39:01Z</time>
      </trkpt>
      <trkpt lat="-21.22225" lon="55.69046">
        <ele>2249.14</ele>
        <time>2018-04-17T07:39:14Z</time>
      </trkpt>
      <trkpt lat="-21.22217" lon="55.69054">
        <ele>2249.14</ele>
        <time>2018-04-17T07:39:28Z</time>
      </trkpt>
      <trkpt lat="-21.22209" lon="55.69065">
        <ele>2247.7</ele>
        <time>2018-04-17T07:39:42Z</time>
      </trkpt>
      <trkpt lat="-21.22202" lon="55.69077">
        <ele>2246.26</ele>
        <time>2018-04-17T07:39:56Z</time>
      </trkpt>
      <trkpt lat="-21.22197" lon="55.69086">
        <ele>2244.33</ele>
        <time>2018-04-17T07:40:10Z</time>
      </trkpt>
      <trkpt lat="-21.22194" lon="55.6909">
        <ele>2240.49</ele>
        <time>2018-04-17T07:40:21Z</time>
      </trkpt>
      <trkpt lat="-21.2219" lon="55.69097">
        <ele>2238.57</ele>
        <time>2018-04-17T07:40:33Z</time>
      </trkpt>
      <trkpt lat="-21.22194" lon="55.69096">
        <ele>2237.13</ele>
        <time>2018-04-17T07:40:46Z</time>
      </trkpt>
      <trkpt lat="-21.22192" lon="55.691">
        <ele>2231.84</ele>
        <time>2018-04-17T07:41:00Z</time>
      </trkpt>
      <trkpt lat="-21.22191" lon="55.6911">
        <ele>2232.32</ele>
        <time>2018-04-17T07:41:11Z</time>
      </trkpt>
      <trkpt lat="-21.22195" lon="55.69118">
        <ele>2231.36</ele>
        <time>2018-04-17T07:41:23Z</time>
      </trkpt>
      <trkpt lat="-21.22193" lon="55.69127">
        <ele>2231.84</ele>
        <time>2018-04-17T07:41:36Z</time>
      </trkpt>
      <trkpt lat="-21.22189" lon="55.69134">
        <ele>2229.92</ele>
        <time>2018-04-17T07:41:47Z</time>
      </trkpt>
      <trkpt lat="-21.22186" lon="55.69142">
        <ele>2228.47</ele>
        <time>2018-04-17T07:41:58Z</time>
      </trkpt>
      <trkpt lat="-21.22185" lon="55.69152">
        <ele>2225.59</ele>
        <time>2018-04-17T07:42:10Z</time>
      </trkpt>
      <trkpt lat="-21.22187" lon="55.6916">
        <ele>2226.07</ele>
        <time>2018-04-17T07:42:21Z</time>
      </trkpt>
      <trkpt lat="-21.22191" lon="55.69168">
        <ele>2225.11</ele>
        <time>2018-04-17T07:42:32Z</time>
      </trkpt>
      <trkpt lat="-21.22191" lon="55.69175">
        <ele>2224.15</ele>
        <time>2018-04-17T07:42:44Z</time>
      </trkpt>
      <trkpt lat="-21.22191" lon="55.69171">
        <ele>2222.22</ele>
        <time>2018-04-17T07:42:57Z</time>
      </trkpt>
      <trkpt lat="-21.22192" lon="55.69178">
        <ele>2218.86</ele>
        <time>2018-04-17T07:43:11Z</time>
      </trkpt>
      <trkpt lat="-21.22191" lon="55.69182">
        <ele>2212.61</ele>
        <time>2018-04-17T07:43:23Z</time>
      </trkpt>
      <trkpt lat="-21.22193" lon="55.6918">
        <ele>2204.92</ele>
        <time>2018-04-17T07:43:37Z</time>
      </trkpt>
      <trkpt lat="-21.22198" lon="55.69185">
        <ele>2206.84</ele>
        <time>2018-04-17T07:43:48Z</time>
      </trkpt>
      <trkpt lat="-21.22195" lon="55.69186">
        <ele>2204.44</ele>
        <time>2018-04-17T07:44:12Z</time>
      </trkpt>
      <trkpt lat="-21.22198" lon="55.69186">
        <ele>2210.21</ele>
        <time>2018-04-17T07:44:24Z</time>
      </trkpt>
      <trkpt lat="-21.22202" lon="55.69188">
        <ele>2211.65</ele>
        <time>2018-04-17T07:44:31Z</time>
      </trkpt>
      <trkpt lat="-21.22198" lon="55.69189">
        <ele>2211.65</ele>
        <time>2018-04-17T07:44:38Z</time>
      </trkpt>
      <trkpt lat="-21.22192" lon="55.69198">
        <ele>2211.17</ele>
        <time>2018-04-17T07:44:50Z</time>
      </trkpt>
      <trkpt lat="-21.22188" lon="55.69203">
        <ele>2210.21</ele>
        <time>2018-04-17T07:45:02Z</time>
      </trkpt>
      <trkpt lat="-21.22181" lon="55.69208">
        <ele>2209.73</ele>
        <time>2018-04-17T07:45:22Z</time>
      </trkpt>
      <trkpt lat="-21.22182" lon="55.69205">
        <ele>2210.21</ele>
        <time>2018-04-17T07:45:47Z</time>
      </trkpt>
      <trkpt lat="-21.22192" lon="55.69201">
        <ele>2210.69</ele>
        <time>2018-04-17T07:45:59Z</time>
      </trkpt>
      <trkpt lat="-21.22193" lon="55.69201">
        <ele>2211.17</ele>
        <time>2018-04-17T07:46:01Z</time>
      </trkpt>
      <trkpt lat="-21.222" lon="55.69194">
        <ele>2208.77</ele>
        <time>2018-04-17T07:46:12Z</time>
      </trkpt>
      <trkpt lat="-21.22206" lon="55.69199">
        <ele>2212.13</ele>
        <time>2018-04-17T07:46:23Z</time>
      </trkpt>
      <trkpt lat="-21.22207" lon="55.69198">
        <ele>2214.53</ele>
        <time>2018-04-17T07:46:48Z</time>
      </trkpt>
      <trkpt lat="-21.22208" lon="55.69195">
        <ele>2216.46</ele>
        <time>2018-04-17T07:47:00Z</time>
      </trkpt>
      <trkpt lat="-21.22215" lon="55.69191">
        <ele>2216.94</ele>
        <time>2018-04-17T07:47:09Z</time>
      </trkpt>
      <trkpt lat="-21.22221" lon="55.69185">
        <ele>2215.5</ele>
        <time>2018-04-17T07:47:22Z</time>
      </trkpt>
      <trkpt lat="-21.2222" lon="55.69183">
        <ele>2214.53</ele>
        <time>2018-04-17T07:47:32Z</time>
      </trkpt>
      <trkpt lat="-21.22225" lon="55.69184">
        <ele>2214.53</ele>
        <time>2018-04-17T07:47:37Z</time>
      </trkpt>
      <trkpt lat="-21.22235" lon="55.69193">
        <ele>2213.57</ele>
        <time>2018-04-17T07:47:49Z</time>
      </trkpt>
      <trkpt lat="-21.22241" lon="55.69196">
        <ele>2211.65</ele>
        <time>2018-04-17T07:48:03Z</time>
      </trkpt>
      <trkpt lat="-21.22242" lon="55.69196">
        <ele>2211.65</ele>
        <time>2018-04-17T07:48:06Z</time>
      </trkpt>
      <trkpt lat="-21.22254" lon="55.69197">
        <ele>2212.61</ele>
        <time>2018-04-17T07:48:18Z</time>
      </trkpt>
      <trkpt lat="-21.22255" lon="55.69198">
        <ele>2212.61</ele>
        <time>2018-04-17T07:48:19Z</time>
      </trkpt>
      <trkpt lat="-21.22266" lon="55.69203">
        <ele>2210.69</ele>
        <time>2018-04-17T07:48:32Z</time>
      </trkpt>
      <trkpt lat="-21.22273" lon="55.69205">
        <ele>2210.21</ele>
        <time>2018-04-17T07:48:45Z</time>
      </trkpt>
      <trkpt lat="-21.22283" lon="55.69207">
        <ele>2210.21</ele>
        <time>2018-04-17T07:48:58Z</time>
      </trkpt>
      <trkpt lat="-21.22298" lon="55.6921">
        <ele>2212.13</ele>
        <time>2018-04-17T07:49:12Z</time>
      </trkpt>
      <trkpt lat="-21.22304" lon="55.69211">
        <ele>2212.61</ele>
        <time>2018-04-17T07:49:17Z</time>
      </trkpt>
      <trkpt lat="-21.22312" lon="55.6921">
        <ele>2212.61</ele>
        <time>2018-04-17T07:49:27Z</time>
      </trkpt>
      <trkpt lat="-21.22313" lon="55.69211">
        <ele>2212.13</ele>
        <time>2018-04-17T07:49:29Z</time>
      </trkpt>
      <trkpt lat="-21.22319" lon="55.69208">
        <ele>2211.65</ele>
        <time>2018-04-17T07:49:38Z</time>
      </trkpt>
      <trkpt lat="-21.22329" lon="55.692">
        <ele>2212.13</ele>
        <time>2018-04-17T07:49:52Z</time>
      </trkpt>
      <trkpt lat="-21.22338" lon="55.69196">
        <ele>2214.53</ele>
        <time>2018-04-17T07:50:10Z</time>
      </trkpt>
      <trkpt lat="-21.22342" lon="55.69197">
        <ele>2215.01</ele>
        <time>2018-04-17T07:50:15Z</time>
      </trkpt>
      <trkpt lat="-21.22346" lon="55.69202">
        <ele>2215.01</ele>
        <time>2018-04-17T07:50:21Z</time>
      </trkpt>
      <trkpt lat="-21.22349" lon="55.69205">
        <ele>2215.5</ele>
        <time>2018-04-17T07:50:25Z</time>
      </trkpt>
      <trkpt lat="-21.22357" lon="55.69202">
        <ele>2215.01</ele>
        <time>2018-04-17T07:50:39Z</time>
      </trkpt>
      <trkpt lat="-21.22363" lon="55.69203">
        <ele>2215.01</ele>
        <time>2018-04-17T07:50:52Z</time>
      </trkpt>
      <trkpt lat="-21.22364" lon="55.69207">
        <ele>2215.5</ele>
        <time>2018-04-17T07:50:56Z</time>
      </trkpt>
      <trkpt lat="-21.22376" lon="55.69215">
        <ele>2217.9</ele>
        <time>2018-04-17T07:51:13Z</time>
      </trkpt>
      <trkpt lat="-21.22383" lon="55.69214">
        <ele>2218.38</ele>
        <time>2018-04-17T07:51:30Z</time>
      </trkpt>
      <trkpt lat="-21.22387" lon="55.6921">
        <ele>2219.34</ele>
        <time>2018-04-17T07:51:44Z</time>
      </trkpt>
      <trkpt lat="-21.22392" lon="55.69203">
        <ele>2219.34</ele>
        <time>2018-04-17T07:51:58Z</time>
      </trkpt>
      <trkpt lat="-21.22398" lon="55.69206">
        <ele>2220.3</ele>
        <time>2018-04-17T07:52:12Z</time>
      </trkpt>
      <trkpt lat="-21.22399" lon="55.69206">
        <ele>2218.86</ele>
        <time>2018-04-17T07:52:39Z</time>
      </trkpt>
      <trkpt lat="-21.22413" lon="55.69215">
        <ele>2217.9</ele>
        <time>2018-04-17T07:52:53Z</time>
      </trkpt>
      <trkpt lat="-21.22419" lon="55.69225">
        <ele>2215.5</ele>
        <time>2018-04-17T07:53:05Z</time>
      </trkpt>
      <trkpt lat="-21.22422" lon="55.69225">
        <ele>2215.5</ele>
        <time>2018-04-17T07:53:08Z</time>
      </trkpt>
      <trkpt lat="-21.22426" lon="55.69232">
        <ele>2214.53</ele>
        <time>2018-04-17T07:53:19Z</time>
      </trkpt>
      <trkpt lat="-21.22432" lon="55.69246">
        <ele>2211.17</ele>
        <time>2018-04-17T07:53:33Z</time>
      </trkpt>
      <trkpt lat="-21.22438" lon="55.69258">
        <ele>2210.21</ele>
        <time>2018-04-17T07:53:46Z</time>
      </trkpt>
      <trkpt lat="-21.22445" lon="55.69262">
        <ele>2210.21</ele>
        <time>2018-04-17T07:53:59Z</time>
      </trkpt>
      <trkpt lat="-21.22451" lon="55.69266">
        <ele>2211.17</ele>
        <time>2018-04-17T07:54:08Z</time>
      </trkpt>
      <trkpt lat="-21.22452" lon="55.69268">
        <ele>2211.65</ele>
        <time>2018-04-17T07:54:10Z</time>
      </trkpt>
      <trkpt lat="-21.22462" lon="55.69277">
        <ele>2213.57</ele>
        <time>2018-04-17T07:54:23Z</time>
      </trkpt>
      <trkpt lat="-21.22471" lon="55.69285">
        <ele>2213.09</ele>
        <time>2018-04-17T07:54:37Z</time>
      </trkpt>
      <trkpt lat="-21.22482" lon="55.69291">
        <ele>2213.57</ele>
        <time>2018-04-17T07:54:51Z</time>
      </trkpt>
      <trkpt lat="-21.22491" lon="55.69301">
        <ele>2214.05</ele>
        <time>2018-04-17T07:55:04Z</time>
      </trkpt>
      <trkpt lat="-21.22493" lon="55.69303">
        <ele>2214.05</ele>
        <time>2018-04-17T07:55:06Z</time>
      </trkpt>
      <trkpt lat="-21.22494" lon="55.69305">
        <ele>2214.53</ele>
        <time>2018-04-17T07:55:09Z</time>
      </trkpt>
      <trkpt lat="-21.22498" lon="55.69307">
        <ele>2214.53</ele>
        <time>2018-04-17T07:55:14Z</time>
      </trkpt>
      <trkpt lat="-21.22505" lon="55.69309">
        <ele>2216.94</ele>
        <time>2018-04-17T07:55:22Z</time>
      </trkpt>
      <trkpt lat="-21.2251" lon="55.6931">
        <ele>2216.94</ele>
        <time>2018-04-17T07:55:33Z</time>
      </trkpt>
      <trkpt lat="-21.22516" lon="55.69313">
        <ele>2216.46</ele>
        <time>2018-04-17T07:55:41Z</time>
      </trkpt>
      <trkpt lat="-21.2252" lon="55.69315">
        <ele>2215.98</ele>
        <time>2018-04-17T07:55:46Z</time>
      </trkpt>
      <trkpt lat="-21.22523" lon="55.69316">
        <ele>2215.98</ele>
        <time>2018-04-17T07:55:50Z</time>
      </trkpt>
      <trkpt lat="-21.22529" lon="55.69317">
        <ele>2216.94</ele>
        <time>2018-04-17T07:55:57Z</time>
      </trkpt>
      <trkpt lat="-21.22531" lon="55.69316">
        <ele>2216.94</ele>
        <time>2018-04-17T07:55:59Z</time>
      </trkpt>
      <trkpt lat="-21.22538" lon="55.69318">
        <ele>2216.46</ele>
        <time>2018-04-17T07:56:06Z</time>
      </trkpt>
      <trkpt lat="-21.22544" lon="55.69319">
        <ele>2216.94</ele>
        <time>2018-04-17T07:56:13Z</time>
      </trkpt>
      <trkpt lat="-21.22554" lon="55.69322">
        <ele>2217.42</ele>
        <time>2018-04-17T07:56:29Z</time>
      </trkpt>
      <trkpt lat="-21.22554" lon="55.69323">
        <ele>2217.42</ele>
        <time>2018-04-17T07:56:34Z</time>
      </trkpt>
      <trkpt lat="-21.22553" lon="55.69324">
        <ele>2216.46</ele>
        <time>2018-04-17T07:56:38Z</time>
      </trkpt>
      <trkpt lat="-21.2256" lon="55.69323">
        <ele>2216.46</ele>
        <time>2018-04-17T07:56:47Z</time>
      </trkpt>
      <trkpt lat="-21.22573" lon="55.69329">
        <ele>2215.5</ele>
        <time>2018-04-17T07:57:01Z</time>
      </trkpt>
      <trkpt lat="-21.22584" lon="55.69335">
        <ele>2215.98</ele>
        <time>2018-04-17T07:57:13Z</time>
      </trkpt>
      <trkpt lat="-21.22589" lon="55.69338">
        <ele>2216.94</ele>
        <time>2018-04-17T07:57:24Z</time>
      </trkpt>
      <trkpt lat="-21.22601" lon="55.69344">
        <ele>2218.86</ele>
        <time>2018-04-17T07:57:36Z</time>
      </trkpt>
      <trkpt lat="-21.2261" lon="55.69351">
        <ele>2218.86</ele>
        <time>2018-04-17T07:57:47Z</time>
      </trkpt>
      <trkpt lat="-21.22612" lon="55.69351">
        <ele>2218.86</ele>
        <time>2018-04-17T07:57:50Z</time>
      </trkpt>
      <trkpt lat="-21.22615" lon="55.69352">
        <ele>2218.86</ele>
        <time>2018-04-17T07:57:53Z</time>
      </trkpt>
      <trkpt lat="-21.22624" lon="55.69358">
        <ele>2218.38</ele>
        <time>2018-04-17T07:58:06Z</time>
      </trkpt>
      <trkpt lat="-21.22629" lon="55.69359">
        <ele>2218.38</ele>
        <time>2018-04-17T07:58:11Z</time>
      </trkpt>
      <trkpt lat="-21.2264" lon="55.69364">
        <ele>2218.38</ele>
        <time>2018-04-17T07:58:23Z</time>
      </trkpt>
      <trkpt lat="-21.22644" lon="55.69366">
        <ele>2217.9</ele>
        <time>2018-04-17T07:58:28Z</time>
      </trkpt>
      <trkpt lat="-21.22648" lon="55.69371">
        <ele>2217.42</ele>
        <time>2018-04-17T07:58:35Z</time>
      </trkpt>
      <trkpt lat="-21.22658" lon="55.69377">
        <ele>2218.38</ele>
        <time>2018-04-17T07:58:47Z</time>
      </trkpt>
      <trkpt lat="-21.22667" lon="55.69381">
        <ele>2217.42</ele>
        <time>2018-04-17T07:59:01Z</time>
      </trkpt>
      <trkpt lat="-21.22679" lon="55.69388">
        <ele>2219.34</ele>
        <time>2018-04-17T07:59:14Z</time>
      </trkpt>
      <trkpt lat="-21.2269" lon="55.69396">
        <ele>2219.82</ele>
        <time>2018-04-17T07:59:28Z</time>
      </trkpt>
      <trkpt lat="-21.22695" lon="55.69399">
        <ele>2219.82</ele>
        <time>2018-04-17T07:59:34Z</time>
      </trkpt>
      <trkpt lat="-21.22698" lon="55.69399">
        <ele>2220.3</ele>
        <time>2018-04-17T07:59:37Z</time>
      </trkpt>
      <trkpt lat="-21.227" lon="55.69399">
        <ele>2220.3</ele>
        <time>2018-04-17T07:59:40Z</time>
      </trkpt>
      <trkpt lat="-21.2271" lon="55.69407">
        <ele>2220.78</ele>
        <time>2018-04-17T07:59:52Z</time>
      </trkpt>
      <trkpt lat="-21.22717" lon="55.69415">
        <ele>2220.78</ele>
        <time>2018-04-17T08:00:02Z</time>
      </trkpt>
      <trkpt lat="-21.22718" lon="55.69416">
        <ele>2220.78</ele>
        <time>2018-04-17T08:00:04Z</time>
      </trkpt>
      <trkpt lat="-21.22728" lon="55.69424">
        <ele>2219.82</ele>
        <time>2018-04-17T08:00:18Z</time>
      </trkpt>
      <trkpt lat="-21.22735" lon="55.69429">
        <ele>2219.34</ele>
        <time>2018-04-17T08:00:29Z</time>
      </trkpt>
      <trkpt lat="-21.22745" lon="55.6944">
        <ele>2220.78</ele>
        <time>2018-04-17T08:00:45Z</time>
      </trkpt>
      <trkpt lat="-21.22746" lon="55.69442">
        <ele>2220.78</ele>
        <time>2018-04-17T08:00:48Z</time>
      </trkpt>
      <trkpt lat="-21.22755" lon="55.69449">
        <ele>2220.78</ele>
        <time>2018-04-17T08:01:00Z</time>
      </trkpt>
      <trkpt lat="-21.22764" lon="55.69456">
        <ele>2221.26</ele>
        <time>2018-04-17T08:01:12Z</time>
      </trkpt>
      <trkpt lat="-21.22765" lon="55.69456">
        <ele>2221.26</ele>
        <time>2018-04-17T08:01:13Z</time>
      </trkpt>
      <trkpt lat="-21.22774" lon="55.69462">
        <ele>2221.74</ele>
        <time>2018-04-17T08:01:25Z</time>
      </trkpt>
      <trkpt lat="-21.22782" lon="55.6947">
        <ele>2222.71</ele>
        <time>2018-04-17T08:01:38Z</time>
      </trkpt>
      <trkpt lat="-21.22791" lon="55.69479">
        <ele>2222.71</ele>
        <time>2018-04-17T08:01:51Z</time>
      </trkpt>
      <trkpt lat="-21.228" lon="55.69487">
        <ele>2223.67</ele>
        <time>2018-04-17T08:02:05Z</time>
      </trkpt>
      <trkpt lat="-21.22813" lon="55.69495">
        <ele>2223.67</ele>
        <time>2018-04-17T08:02:19Z</time>
      </trkpt>
      <trkpt lat="-21.22815" lon="55.69497">
        <ele>2223.67</ele>
        <time>2018-04-17T08:02:22Z</time>
      </trkpt>
      <trkpt lat="-21.22825" lon="55.69506">
        <ele>2225.11</ele>
        <time>2018-04-17T08:02:36Z</time>
      </trkpt>
      <trkpt lat="-21.22827" lon="55.69508">
        <ele>2225.11</ele>
        <time>2018-04-17T08:02:39Z</time>
      </trkpt>
      <trkpt lat="-21.22837" lon="55.69517">
        <ele>2226.55</ele>
        <time>2018-04-17T08:02:52Z</time>
      </trkpt>
      <trkpt lat="-21.22842" lon="55.6952">
        <ele>2226.55</ele>
        <time>2018-04-17T08:02:58Z</time>
      </trkpt>
      <trkpt lat="-21.22846" lon="55.69523">
        <ele>2226.55</ele>
        <time>2018-04-17T08:03:03Z</time>
      </trkpt>
      <trkpt lat="-21.22856" lon="55.69531">
        <ele>2227.03</ele>
        <time>2018-04-17T08:03:16Z</time>
      </trkpt>
      <trkpt lat="-21.2286" lon="55.69533">
        <ele>2227.03</ele>
        <time>2018-04-17T08:03:22Z</time>
      </trkpt>
      <trkpt lat="-21.22871" lon="55.69543">
        <ele>2226.55</ele>
        <time>2018-04-17T08:03:36Z</time>
      </trkpt>
      <trkpt lat="-21.22881" lon="55.69549">
        <ele>2226.55</ele>
        <time>2018-04-17T08:03:48Z</time>
      </trkpt>
      <trkpt lat="-21.22891" lon="55.69556">
        <ele>2227.03</ele>
        <time>2018-04-17T08:04:00Z</time>
      </trkpt>
      <trkpt lat="-21.22893" lon="55.69555">
        <ele>2228.95</ele>
        <time>2018-04-17T08:04:15Z</time>
      </trkpt>
      <trkpt lat="-21.22896" lon="55.69557">
        <ele>2228.95</ele>
        <time>2018-04-17T08:04:31Z</time>
      </trkpt>
      <trkpt lat="-21.229" lon="55.6956">
        <ele>2228.95</ele>
        <time>2018-04-17T08:04:38Z</time>
      </trkpt>
      <trkpt lat="-21.22909" lon="55.69567">
        <ele>2228.95</ele>
        <time>2018-04-17T08:04:50Z</time>
      </trkpt>
      <trkpt lat="-21.2292" lon="55.69574">
        <ele>2229.43</ele>
        <time>2018-04-17T08:05:03Z</time>
      </trkpt>
      <trkpt lat="-21.22922" lon="55.69574">
        <ele>2229.43</ele>
        <time>2018-04-17T08:05:05Z</time>
      </trkpt>
      <trkpt lat="-21.22925" lon="55.69575">
        <ele>2229.92</ele>
        <time>2018-04-17T08:05:09Z</time>
      </trkpt>
      <trkpt lat="-21.22931" lon="55.69581">
        <ele>2229.92</ele>
        <time>2018-04-17T08:05:23Z</time>
      </trkpt>
      <trkpt lat="-21.22932" lon="55.69583">
        <ele>2229.43</ele>
        <time>2018-04-17T08:05:26Z</time>
      </trkpt>
      <trkpt lat="-21.22934" lon="55.69587">
        <ele>2228.47</ele>
        <time>2018-04-17T08:05:30Z</time>
      </trkpt>
      <trkpt lat="-21.22939" lon="55.69591">
        <ele>2228.47</ele>
        <time>2018-04-17T08:05:43Z</time>
      </trkpt>
      <trkpt lat="-21.22944" lon="55.69594">
        <ele>2228.47</ele>
        <time>2018-04-17T08:05:57Z</time>
      </trkpt>
      <trkpt lat="-21.22949" lon="55.69599">
        <ele>2228.95</ele>
        <time>2018-04-17T08:06:09Z</time>
      </trkpt>
      <trkpt lat="-21.22949" lon="55.696">
        <ele>2229.43</ele>
        <time>2018-04-17T08:06:10Z</time>
      </trkpt>
      <trkpt lat="-21.22955" lon="55.69608">
        <ele>2229.92</ele>
        <time>2018-04-17T08:06:21Z</time>
      </trkpt>
      <trkpt lat="-21.22956" lon="55.69608">
        <ele>2229.92</ele>
        <time>2018-04-17T08:06:22Z</time>
      </trkpt>
      <trkpt lat="-21.22963" lon="55.69616">
        <ele>2230.88</ele>
        <time>2018-04-17T08:06:35Z</time>
      </trkpt>
      <trkpt lat="-21.22969" lon="55.6962">
        <ele>2231.84</ele>
        <time>2018-04-17T08:06:46Z</time>
      </trkpt>
      <trkpt lat="-21.22971" lon="55.69621">
        <ele>2232.32</ele>
        <time>2018-04-17T08:06:48Z</time>
      </trkpt>
      <trkpt lat="-21.22979" lon="55.6963">
        <ele>2232.8</ele>
        <time>2018-04-17T08:07:01Z</time>
      </trkpt>
      <trkpt lat="-21.22982" lon="55.69632">
        <ele>2233.28</ele>
        <time>2018-04-17T08:07:07Z</time>
      </trkpt>
      <trkpt lat="-21.22986" lon="55.69638">
        <ele>2233.76</ele>
        <time>2018-04-17T08:07:17Z</time>
      </trkpt>
      <trkpt lat="-21.22995" lon="55.69646">
        <ele>2233.28</ele>
        <time>2018-04-17T08:07:30Z</time>
      </trkpt>
      <trkpt lat="-21.23" lon="55.6965">
        <ele>2234.24</ele>
        <time>2018-04-17T08:07:43Z</time>
      </trkpt>
      <trkpt lat="-21.23006" lon="55.69653">
        <ele>2236.64</ele>
        <time>2018-04-17T08:07:52Z</time>
      </trkpt>
      <trkpt lat="-21.23011" lon="55.69659">
        <ele>2236.64</ele>
        <time>2018-04-17T08:08:01Z</time>
      </trkpt>
      <trkpt lat="-21.23015" lon="55.69661">
        <ele>2234.72</ele>
        <time>2018-04-17T08:08:18Z</time>
      </trkpt>
      <trkpt lat="-21.2302" lon="55.69663">
        <ele>2234.24</ele>
        <time>2018-04-17T08:08:25Z</time>
      </trkpt>
      <trkpt lat="-21.23026" lon="55.69669">
        <ele>2235.68</ele>
        <time>2018-04-17T08:08:35Z</time>
      </trkpt>
      <trkpt lat="-21.23033" lon="55.69678">
        <ele>2235.68</ele>
        <time>2018-04-17T08:08:49Z</time>
      </trkpt>
      <trkpt lat="-21.23041" lon="55.69682">
        <ele>2236.16</ele>
        <time>2018-04-17T08:09:01Z</time>
      </trkpt>
      <trkpt lat="-21.23048" lon="55.69689">
        <ele>2236.16</ele>
        <time>2018-04-17T08:09:12Z</time>
      </trkpt>
      <trkpt lat="-21.23051" lon="55.69692">
        <ele>2235.68</ele>
        <time>2018-04-17T08:09:17Z</time>
      </trkpt>
      <trkpt lat="-21.23057" lon="55.697">
        <ele>2237.13</ele>
        <time>2018-04-17T08:09:29Z</time>
      </trkpt>
      <trkpt lat="-21.2306" lon="55.69703">
        <ele>2237.13</ele>
        <time>2018-04-17T08:09:35Z</time>
      </trkpt>
      <trkpt lat="-21.23061" lon="55.69706">
        <ele>2236.64</ele>
        <time>2018-04-17T08:09:39Z</time>
      </trkpt>
      <trkpt lat="-21.23062" lon="55.69714">
        <ele>2236.16</ele>
        <time>2018-04-17T08:09:48Z</time>
      </trkpt>
      <trkpt lat="-21.23069" lon="55.69721">
        <ele>2236.16</ele>
        <time>2018-04-17T08:10:01Z</time>
      </trkpt>
      <trkpt lat="-21.23076" lon="55.69727">
        <ele>2236.64</ele>
        <time>2018-04-17T08:10:15Z</time>
      </trkpt>
      <trkpt lat="-21.23077" lon="55.69728">
        <ele>2236.64</ele>
        <time>2018-04-17T08:10:16Z</time>
      </trkpt>
      <trkpt lat="-21.23085" lon="55.69731">
        <ele>2237.13</ele>
        <time>2018-04-17T08:10:27Z</time>
      </trkpt>
      <trkpt lat="-21.23097" lon="55.69735">
        <ele>2237.13</ele>
        <time>2018-04-17T08:10:40Z</time>
      </trkpt>
      <trkpt lat="-21.23109" lon="55.69736">
        <ele>2237.61</ele>
        <time>2018-04-17T08:10:53Z</time>
      </trkpt>
      <trkpt lat="-21.23112" lon="55.69736">
        <ele>2237.61</ele>
        <time>2018-04-17T08:10:55Z</time>
      </trkpt>
      <trkpt lat="-21.23118" lon="55.69741">
        <ele>2238.09</ele>
        <time>2018-04-17T08:11:04Z</time>
      </trkpt>
      <trkpt lat="-21.23126" lon="55.69745">
        <ele>2237.13</ele>
        <time>2018-04-17T08:11:16Z</time>
      </trkpt>
      <trkpt lat="-21.23133" lon="55.69748">
        <ele>2237.13</ele>
        <time>2018-04-17T08:11:25Z</time>
      </trkpt>
      <trkpt lat="-21.23134" lon="55.69749">
        <ele>2237.61</ele>
        <time>2018-04-17T08:11:26Z</time>
      </trkpt>
      <trkpt lat="-21.23139" lon="55.69754">
        <ele>2238.57</ele>
        <time>2018-04-17T08:11:38Z</time>
      </trkpt>
      <trkpt lat="-21.23145" lon="55.69757">
        <ele>2239.05</ele>
        <time>2018-04-17T08:11:49Z</time>
      </trkpt>
      <trkpt lat="-21.23148" lon="55.69757">
        <ele>2239.53</ele>
        <time>2018-04-17T08:11:56Z</time>
      </trkpt>
      <trkpt lat="-21.23151" lon="55.69759">
        <ele>2239.53</ele>
        <time>2018-04-17T08:12:00Z</time>
      </trkpt>
      <trkpt lat="-21.23155" lon="55.69761">
        <ele>2240.49</ele>
        <time>2018-04-17T08:12:06Z</time>
      </trkpt>
      <trkpt lat="-21.23164" lon="55.69763">
        <ele>2241.93</ele>
        <time>2018-04-17T08:12:19Z</time>
      </trkpt>
      <trkpt lat="-21.23171" lon="55.69765">
        <ele>2242.89</ele>
        <time>2018-04-17T08:12:30Z</time>
      </trkpt>
      <trkpt lat="-21.23175" lon="55.6977">
        <ele>2244.82</ele>
        <time>2018-04-17T08:12:42Z</time>
      </trkpt>
      <trkpt lat="-21.23181" lon="55.69774">
        <ele>2244.82</ele>
        <time>2018-04-17T08:12:54Z</time>
      </trkpt>
      <trkpt lat="-21.23184" lon="55.69777">
        <ele>2244.82</ele>
        <time>2018-04-17T08:13:02Z</time>
      </trkpt>
      <trkpt lat="-21.23185" lon="55.69778">
        <ele>2245.3</ele>
        <time>2018-04-17T08:13:04Z</time>
      </trkpt>
      <trkpt lat="-21.23192" lon="55.69788">
        <ele>2246.26</ele>
        <time>2018-04-17T08:13:19Z</time>
      </trkpt>
      <trkpt lat="-21.23193" lon="55.69789">
        <ele>2246.26</ele>
        <time>2018-04-17T08:13:21Z</time>
      </trkpt>
      <trkpt lat="-21.23196" lon="55.6979">
        <ele>2246.74</ele>
        <time>2018-04-17T08:13:25Z</time>
      </trkpt>
      <trkpt lat="-21.23198" lon="55.69791">
        <ele>2246.74</ele>
        <time>2018-04-17T08:13:28Z</time>
      </trkpt>
      <trkpt lat="-21.23208" lon="55.69792">
        <ele>2248.18</ele>
        <time>2018-04-17T08:13:42Z</time>
      </trkpt>
      <trkpt lat="-21.2321" lon="55.69792">
        <ele>2247.7</ele>
        <time>2018-04-17T08:14:02Z</time>
      </trkpt>
      <trkpt lat="-21.23217" lon="55.69798">
        <ele>2248.18</ele>
        <time>2018-04-17T08:14:13Z</time>
      </trkpt>
      <trkpt lat="-21.23221" lon="55.69803">
        <ele>2248.18</ele>
        <time>2018-04-17T08:14:25Z</time>
      </trkpt>
      <trkpt lat="-21.23222" lon="55.69804">
        <ele>2246.74</ele>
        <time>2018-04-17T08:14:49Z</time>
      </trkpt>
      <trkpt lat="-21.23223" lon="55.69807">
        <ele>2246.26</ele>
        <time>2018-04-17T08:15:07Z</time>
      </trkpt>
      <trkpt lat="-21.23224" lon="55.69806">
        <ele>2248.18</ele>
        <time>2018-04-17T08:15:28Z</time>
      </trkpt>
      <trkpt lat="-21.23228" lon="55.69807">
        <ele>2248.66</ele>
        <time>2018-04-17T08:15:33Z</time>
      </trkpt>
      <trkpt lat="-21.23236" lon="55.69806">
        <ele>2247.7</ele>
        <time>2018-04-17T08:15:41Z</time>
      </trkpt>
      <trkpt lat="-21.23239" lon="55.69807">
        <ele>2247.22</ele>
        <time>2018-04-17T08:15:45Z</time>
      </trkpt>
      <trkpt lat="-21.23247" lon="55.69811">
        <ele>2249.62</ele>
        <time>2018-04-17T08:15:57Z</time>
      </trkpt>
      <trkpt lat="-21.23249" lon="55.69812">
        <ele>2249.62</ele>
        <time>2018-04-17T08:15:59Z</time>
      </trkpt>
      <trkpt lat="-21.23254" lon="55.6982">
        <ele>2249.62</ele>
        <time>2018-04-17T08:16:09Z</time>
      </trkpt>
      <trkpt lat="-21.23264" lon="55.69824">
        <ele>2248.18</ele>
        <time>2018-04-17T08:16:22Z</time>
      </trkpt>
      <trkpt lat="-21.2327" lon="55.69826">
        <ele>2250.1</ele>
        <time>2018-04-17T08:16:34Z</time>
      </trkpt>
      <trkpt lat="-21.23274" lon="55.6983">
        <ele>2251.54</ele>
        <time>2018-04-17T08:16:43Z</time>
      </trkpt>
      <trkpt lat="-21.23279" lon="55.69835">
        <ele>2252.51</ele>
        <time>2018-04-17T08:16:55Z</time>
      </trkpt>
      <trkpt lat="-21.23287" lon="55.69841">
        <ele>2252.99</ele>
        <time>2018-04-17T08:17:07Z</time>
      </trkpt>
      <trkpt lat="-21.23288" lon="55.69843">
        <ele>2252.99</ele>
        <time>2018-04-17T08:17:10Z</time>
      </trkpt>
      <trkpt lat="-21.23289" lon="55.6985">
        <ele>2253.47</ele>
        <time>2018-04-17T08:17:22Z</time>
      </trkpt>
      <trkpt lat="-21.23289" lon="55.69855">
        <ele>2254.43</ele>
        <time>2018-04-17T08:17:36Z</time>
      </trkpt>
      <trkpt lat="-21.23292" lon="55.69857">
        <ele>2253.95</ele>
        <time>2018-04-17T08:17:41Z</time>
      </trkpt>
      <trkpt lat="-21.23298" lon="55.69861">
        <ele>2253.95</ele>
        <time>2018-04-17T08:17:55Z</time>
      </trkpt>
      <trkpt lat="-21.233" lon="55.69861">
        <ele>2253.95</ele>
        <time>2018-04-17T08:18:01Z</time>
      </trkpt>
      <trkpt lat="-21.23307" lon="55.69863">
        <ele>2255.39</ele>
        <time>2018-04-17T08:18:12Z</time>
      </trkpt>
      <trkpt lat="-21.23314" lon="55.69869">
        <ele>2256.83</ele>
        <time>2018-04-17T08:18:24Z</time>
      </trkpt>
      <trkpt lat="-21.23318" lon="55.69875">
        <ele>2258.27</ele>
        <time>2018-04-17T08:18:36Z</time>
      </trkpt>
      <trkpt lat="-21.23323" lon="55.69879">
        <ele>2258.75</ele>
        <time>2018-04-17T08:18:52Z</time>
      </trkpt>
      <trkpt lat="-21.23327" lon="55.69885">
        <ele>2258.75</ele>
        <time>2018-04-17T08:19:05Z</time>
      </trkpt>
      <trkpt lat="-21.23332" lon="55.69887">
        <ele>2259.24</ele>
        <time>2018-04-17T08:19:17Z</time>
      </trkpt>
      <trkpt lat="-21.23335" lon="55.69889">
        <ele>2259.72</ele>
        <time>2018-04-17T08:19:33Z</time>
      </trkpt>
      <trkpt lat="-21.23334" lon="55.69889">
        <ele>2260.2</ele>
        <time>2018-04-17T08:19:56Z</time>
      </trkpt>
      <trkpt lat="-21.23334" lon="55.69889">
        <ele>2261.16</ele>
        <time>2018-04-17T08:20:17Z</time>
      </trkpt>
      <trkpt lat="-21.2334" lon="55.6989">
        <ele>2265</ele>
        <time>2018-04-17T08:20:34Z</time>
      </trkpt>
      <trkpt lat="-21.23342" lon="55.69897">
        <ele>2265</ele>
        <time>2018-04-17T08:20:41Z</time>
      </trkpt>
      <trkpt lat="-21.23347" lon="55.69905">
        <ele>2264.52</ele>
        <time>2018-04-17T08:20:54Z</time>
      </trkpt>
      <trkpt lat="-21.23349" lon="55.69908">
        <ele>2264.52</ele>
        <time>2018-04-17T08:21:12Z</time>
      </trkpt>
      <trkpt lat="-21.23352" lon="55.69914">
        <ele>2263.56</ele>
        <time>2018-04-17T08:21:25Z</time>
      </trkpt>
      <trkpt lat="-21.23354" lon="55.69916">
        <ele>2263.08</ele>
        <time>2018-04-17T08:21:32Z</time>
      </trkpt>
      <trkpt lat="-21.23363" lon="55.69919">
        <ele>2261.16</ele>
        <time>2018-04-17T08:21:45Z</time>
      </trkpt>
      <trkpt lat="-21.23365" lon="55.69918">
        <ele>2260.2</ele>
        <time>2018-04-17T08:21:49Z</time>
      </trkpt>
      <trkpt lat="-21.23369" lon="55.69915">
        <ele>2260.2</ele>
        <time>2018-04-17T08:21:54Z</time>
      </trkpt>
      <trkpt lat="-21.23373" lon="55.69923">
        <ele>2261.64</ele>
        <time>2018-04-17T08:22:07Z</time>
      </trkpt>
      <trkpt lat="-21.23374" lon="55.69919">
        <ele>2262.6</ele>
        <time>2018-04-17T08:22:30Z</time>
      </trkpt>
      <trkpt lat="-21.23377" lon="55.69922">
        <ele>2263.56</ele>
        <time>2018-04-17T08:22:44Z</time>
      </trkpt>
      <trkpt lat="-21.23374" lon="55.6992">
        <ele>2263.08</ele>
        <time>2018-04-17T08:23:01Z</time>
      </trkpt>
      <trkpt lat="-21.23369" lon="55.69916">
        <ele>2262.12</ele>
        <time>2018-04-17T08:23:26Z</time>
      </trkpt>
      <trkpt lat="-21.23366" lon="55.69917">
        <ele>2262.12</ele>
        <time>2018-04-17T08:23:30Z</time>
      </trkpt>
      <trkpt lat="-21.23359" lon="55.69921">
        <ele>2261.16</ele>
        <time>2018-04-17T08:23:40Z</time>
      </trkpt>
      <trkpt lat="-21.23355" lon="55.69925">
        <ele>2262.6</ele>
        <time>2018-04-17T08:23:51Z</time>
      </trkpt>
      <trkpt lat="-21.23358" lon="55.69925">
        <ele>2263.56</ele>
        <time>2018-04-17T08:24:00Z</time>
      </trkpt>
      <trkpt lat="-21.23361" lon="55.69933">
        <ele>2264.04</ele>
        <time>2018-04-17T08:24:11Z</time>
      </trkpt>
      <trkpt lat="-21.23364" lon="55.69943">
        <ele>2265.48</ele>
        <time>2018-04-17T08:24:23Z</time>
      </trkpt>
      <trkpt lat="-21.23364" lon="55.69946">
        <ele>2266.45</ele>
        <time>2018-04-17T08:24:41Z</time>
      </trkpt>
      <trkpt lat="-21.23367" lon="55.69954">
        <ele>2266.93</ele>
        <time>2018-04-17T08:24:52Z</time>
      </trkpt>
      <trkpt lat="-21.23371" lon="55.69964">
        <ele>2268.37</ele>
        <time>2018-04-17T08:25:05Z</time>
      </trkpt>
      <trkpt lat="-21.23375" lon="55.69974">
        <ele>2269.33</ele>
        <time>2018-04-17T08:25:17Z</time>
      </trkpt>
      <trkpt lat="-21.23377" lon="55.6998">
        <ele>2270.29</ele>
        <time>2018-04-17T08:25:24Z</time>
      </trkpt>
      <trkpt lat="-21.23381" lon="55.69987">
        <ele>2271.25</ele>
        <time>2018-04-17T08:25:33Z</time>
      </trkpt>
      <trkpt lat="-21.23382" lon="55.69992">
        <ele>2272.21</ele>
        <time>2018-04-17T08:25:38Z</time>
      </trkpt>
      <trkpt lat="-21.23387" lon="55.7">
        <ele>2273.66</ele>
        <time>2018-04-17T08:25:52Z</time>
      </trkpt>
      <trkpt lat="-21.2339" lon="55.70006">
        <ele>2274.14</ele>
        <time>2018-04-17T08:26:03Z</time>
      </trkpt>
      <trkpt lat="-21.23394" lon="55.70015">
        <ele>2273.17</ele>
        <time>2018-04-17T08:26:16Z</time>
      </trkpt>
      <trkpt lat="-21.23395" lon="55.70016">
        <ele>2273.66</ele>
        <time>2018-04-17T08:26:17Z</time>
      </trkpt>
      <trkpt lat="-21.23395" lon="55.70019">
        <ele>2273.66</ele>
        <time>2018-04-17T08:26:20Z</time>
      </trkpt>
      <trkpt lat="-21.23398" lon="55.70032">
        <ele>2274.62</ele>
        <time>2018-04-17T08:26:35Z</time>
      </trkpt>
      <trkpt lat="-21.23402" lon="55.70039">
        <ele>2276.54</ele>
        <time>2018-04-17T08:26:47Z</time>
      </trkpt>
      <trkpt lat="-21.23405" lon="55.70046">
        <ele>2277.5</ele>
        <time>2018-04-17T08:27:01Z</time>
      </trkpt>
      <trkpt lat="-21.2341" lon="55.70055">
        <ele>2281.83</ele>
        <time>2018-04-17T08:27:16Z</time>
      </trkpt>
      <trkpt lat="-21.23411" lon="55.70059">
        <ele>2281.83</ele>
        <time>2018-04-17T08:27:23Z</time>
      </trkpt>
      <trkpt lat="-21.23412" lon="55.7007">
        <ele>2282.79</ele>
        <time>2018-04-17T08:27:38Z</time>
      </trkpt>
      <trkpt lat="-21.23413" lon="55.70076">
        <ele>2283.75</ele>
        <time>2018-04-17T08:27:48Z</time>
      </trkpt>
      <trkpt lat="-21.2341" lon="55.70082">
        <ele>2285.67</ele>
        <time>2018-04-17T08:28:01Z</time>
      </trkpt>
      <trkpt lat="-21.2341" lon="55.70082">
        <ele>2285.67</ele>
        <time>2018-04-17T08:28:02Z</time>
      </trkpt>
      <trkpt lat="-21.23409" lon="55.70088">
        <ele>2287.11</ele>
        <time>2018-04-17T08:28:15Z</time>
      </trkpt>
      <trkpt lat="-21.23409" lon="55.70095">
        <ele>2288.08</ele>
        <time>2018-04-17T08:28:28Z</time>
      </trkpt>
      <trkpt lat="-21.23409" lon="55.701">
        <ele>2288.08</ele>
        <time>2018-04-17T08:28:42Z</time>
      </trkpt>
      <trkpt lat="-21.2341" lon="55.70106">
        <ele>2288.56</ele>
        <time>2018-04-17T08:28:59Z</time>
      </trkpt>
      <trkpt lat="-21.23413" lon="55.70116">
        <ele>2289.52</ele>
        <time>2018-04-17T08:29:13Z</time>
      </trkpt>
      <trkpt lat="-21.23413" lon="55.70117">
        <ele>2290.48</ele>
        <time>2018-04-17T08:29:30Z</time>
      </trkpt>
      <trkpt lat="-21.23415" lon="55.70126">
        <ele>2292.4</ele>
        <time>2018-04-17T08:29:46Z</time>
      </trkpt>
      <trkpt lat="-21.23415" lon="55.70134">
        <ele>2294.8</ele>
        <time>2018-04-17T08:29:58Z</time>
      </trkpt>
      <trkpt lat="-21.23416" lon="55.70144">
        <ele>2296.25</ele>
        <time>2018-04-17T08:30:12Z</time>
      </trkpt>
      <trkpt lat="-21.23416" lon="55.70153">
        <ele>2298.17</ele>
        <time>2018-04-17T08:30:25Z</time>
      </trkpt>
      <trkpt lat="-21.23416" lon="55.70161">
        <ele>2299.61</ele>
        <time>2018-04-17T08:30:38Z</time>
      </trkpt>
      <trkpt lat="-21.23417" lon="55.70167">
        <ele>2300.09</ele>
        <time>2018-04-17T08:30:47Z</time>
      </trkpt>
      <trkpt lat="-21.23415" lon="55.70173">
        <ele>2300.57</ele>
        <time>2018-04-17T08:31:02Z</time>
      </trkpt>
      <trkpt lat="-21.23415" lon="55.70174">
        <ele>2300.09</ele>
        <time>2018-04-17T08:31:04Z</time>
      </trkpt>
      <trkpt lat="-21.23415" lon="55.70179">
        <ele>2299.61</ele>
        <time>2018-04-17T08:31:21Z</time>
      </trkpt>
      <trkpt lat="-21.23414" lon="55.70189">
        <ele>2302.49</ele>
        <time>2018-04-17T08:31:36Z</time>
      </trkpt>
      <trkpt lat="-21.23414" lon="55.70192">
        <ele>2303.46</ele>
        <time>2018-04-17T08:31:43Z</time>
      </trkpt>
      <trkpt lat="-21.23414" lon="55.70192">
        <ele>2302.49</ele>
        <time>2018-04-17T08:31:56Z</time>
      </trkpt>
      <trkpt lat="-21.23418" lon="55.70199">
        <ele>2301.05</ele>
        <time>2018-04-17T08:32:15Z</time>
      </trkpt>
      <trkpt lat="-21.23419" lon="55.702">
        <ele>2301.05</ele>
        <time>2018-04-17T08:32:18Z</time>
      </trkpt>
      <trkpt lat="-21.2342" lon="55.70202">
        <ele>2302.98</ele>
        <time>2018-04-17T08:32:32Z</time>
      </trkpt>
      <trkpt lat="-21.23427" lon="55.70207">
        <ele>2304.42</ele>
        <time>2018-04-17T08:32:57Z</time>
      </trkpt>
      <trkpt lat="-21.23426" lon="55.70217">
        <ele>2304.42</ele>
        <time>2018-04-17T08:33:09Z</time>
      </trkpt>
      <trkpt lat="-21.23429" lon="55.70228">
        <ele>2307.3</ele>
        <time>2018-04-17T08:33:23Z</time>
      </trkpt>
      <trkpt lat="-21.2343" lon="55.70237">
        <ele>2307.78</ele>
        <time>2018-04-17T08:33:35Z</time>
      </trkpt>
      <trkpt lat="-21.23427" lon="55.70246">
        <ele>2307.78</ele>
        <time>2018-04-17T08:33:47Z</time>
      </trkpt>
      <trkpt lat="-21.23428" lon="55.70253">
        <ele>2309.7</ele>
        <time>2018-04-17T08:34:02Z</time>
      </trkpt>
      <trkpt lat="-21.23428" lon="55.70258">
        <ele>2310.19</ele>
        <time>2018-04-17T08:34:07Z</time>
      </trkpt>
      <trkpt lat="-21.23428" lon="55.70266">
        <ele>2310.67</ele>
        <time>2018-04-17T08:34:20Z</time>
      </trkpt>
      <trkpt lat="-21.23423" lon="55.70271">
        <ele>2311.63</ele>
        <time>2018-04-17T08:34:33Z</time>
      </trkpt>
      <trkpt lat="-21.23423" lon="55.7028">
        <ele>2313.55</ele>
        <time>2018-04-17T08:34:46Z</time>
      </trkpt>
      <trkpt lat="-21.23424" lon="55.70281">
        <ele>2314.03</ele>
        <time>2018-04-17T08:35:02Z</time>
      </trkpt>
      <trkpt lat="-21.23421" lon="55.70291">
        <ele>2314.99</ele>
        <time>2018-04-17T08:35:16Z</time>
      </trkpt>
      <trkpt lat="-21.23418" lon="55.703">
        <ele>2315.47</ele>
        <time>2018-04-17T08:35:30Z</time>
      </trkpt>
      <trkpt lat="-21.23417" lon="55.70309">
        <ele>2315.95</ele>
        <time>2018-04-17T08:35:43Z</time>
      </trkpt>
      <trkpt lat="-21.23418" lon="55.7031">
        <ele>2315.95</ele>
        <time>2018-04-17T08:35:46Z</time>
      </trkpt>
      <trkpt lat="-21.23423" lon="55.70316">
        <ele>2318.36</ele>
        <time>2018-04-17T08:35:58Z</time>
      </trkpt>
      <trkpt lat="-21.23427" lon="55.70323">
        <ele>2319.8</ele>
        <time>2018-04-17T08:36:10Z</time>
      </trkpt>
      <trkpt lat="-21.23432" lon="55.7033">
        <ele>2320.76</ele>
        <time>2018-04-17T08:36:23Z</time>
      </trkpt>
      <trkpt lat="-21.23434" lon="55.70334">
        <ele>2321.72</ele>
        <time>2018-04-17T08:36:34Z</time>
      </trkpt>
      <trkpt lat="-21.23437" lon="55.70341">
        <ele>2323.64</ele>
        <time>2018-04-17T08:36:47Z</time>
      </trkpt>
      <trkpt lat="-21.2344" lon="55.70349">
        <ele>2325.57</ele>
        <time>2018-04-17T08:37:00Z</time>
      </trkpt>
      <trkpt lat="-21.23443" lon="55.70352">
        <ele>2327.97</ele>
        <time>2018-04-17T08:37:12Z</time>
      </trkpt>
      <trkpt lat="-21.23443" lon="55.7036">
        <ele>2327.97</ele>
        <time>2018-04-17T08:37:26Z</time>
      </trkpt>
      <trkpt lat="-21.23443" lon="55.70368">
        <ele>2329.89</ele>
        <time>2018-04-17T08:37:36Z</time>
      </trkpt>
      <trkpt lat="-21.23441" lon="55.70371">
        <ele>2331.81</ele>
        <time>2018-04-17T08:37:49Z</time>
      </trkpt>
      <trkpt lat="-21.23442" lon="55.7038">
        <ele>2331.81</ele>
        <time>2018-04-17T08:38:02Z</time>
      </trkpt>
      <trkpt lat="-21.23447" lon="55.70388">
        <ele>2332.3</ele>
        <time>2018-04-17T08:38:14Z</time>
      </trkpt>
      <trkpt lat="-21.23448" lon="55.70389">
        <ele>2332.3</ele>
        <time>2018-04-17T08:38:17Z</time>
      </trkpt>
      <trkpt lat="-21.23449" lon="55.70392">
        <ele>2330.85</ele>
        <time>2018-04-17T08:38:29Z</time>
      </trkpt>
      <trkpt lat="-21.23449" lon="55.70396">
        <ele>2330.85</ele>
        <time>2018-04-17T08:38:45Z</time>
      </trkpt>
      <trkpt lat="-21.23453" lon="55.70401">
        <ele>2333.74</ele>
        <time>2018-04-17T08:39:04Z</time>
      </trkpt>
      <trkpt lat="-21.23455" lon="55.70407">
        <ele>2333.74</ele>
        <time>2018-04-17T08:39:11Z</time>
      </trkpt>
      <trkpt lat="-21.23458" lon="55.70416">
        <ele>2334.7</ele>
        <time>2018-04-17T08:39:25Z</time>
      </trkpt>
      <trkpt lat="-21.23461" lon="55.70423">
        <ele>2335.66</ele>
        <time>2018-04-17T08:39:38Z</time>
      </trkpt>
      <trkpt lat="-21.23461" lon="55.70432">
        <ele>2337.58</ele>
        <time>2018-04-17T08:39:52Z</time>
      </trkpt>
      <trkpt lat="-21.23461" lon="55.70438">
        <ele>2339.02</ele>
        <time>2018-04-17T08:40:05Z</time>
      </trkpt>
      <trkpt lat="-21.23459" lon="55.70445">
        <ele>2339.51</ele>
        <time>2018-04-17T08:40:18Z</time>
      </trkpt>
      <trkpt lat="-21.2346" lon="55.70444">
        <ele>2339.51</ele>
        <time>2018-04-17T08:40:31Z</time>
      </trkpt>
      <trkpt lat="-21.2346" lon="55.70444">
        <ele>2338.54</ele>
        <time>2018-04-17T08:40:51Z</time>
      </trkpt>
      <trkpt lat="-21.2346" lon="55.70443">
        <ele>2339.51</ele>
        <time>2018-04-17T08:41:20Z</time>
      </trkpt>
      <trkpt lat="-21.2346" lon="55.70443">
        <ele>2339.02</ele>
        <time>2018-04-17T08:41:41Z</time>
      </trkpt>
      <trkpt lat="-21.2346" lon="55.70443">
        <ele>2339.02</ele>
        <time>2018-04-17T08:42:17Z</time>
      </trkpt>
      <trkpt lat="-21.2346" lon="55.70444">
        <ele>2339.99</ele>
        <time>2018-04-17T08:42:49Z</time>
      </trkpt>
      <trkpt lat="-21.2346" lon="55.70445">
        <ele>2341.43</ele>
        <time>2018-04-17T08:43:25Z</time>
      </trkpt>
      <trkpt lat="-21.2346" lon="55.70445">
        <ele>2340.95</ele>
        <time>2018-04-17T08:43:53Z</time>
      </trkpt>
      <trkpt lat="-21.23459" lon="55.70445">
        <ele>2341.43</ele>
        <time>2018-04-17T08:44:24Z</time>
      </trkpt>
      <trkpt lat="-21.23459" lon="55.70445">
        <ele>2340.95</ele>
        <time>2018-04-17T08:45:00Z</time>
      </trkpt>
      <trkpt lat="-21.2346" lon="55.70445">
        <ele>2340.47</ele>
        <time>2018-04-17T08:45:30Z</time>
      </trkpt>
      <trkpt lat="-21.2346" lon="55.70444">
        <ele>2339.99</ele>
        <time>2018-04-17T08:46:01Z</time>
      </trkpt>
      <trkpt lat="-21.2346" lon="55.70444">
        <ele>2339.99</ele>
        <time>2018-04-17T08:46:30Z</time>
      </trkpt>
      <trkpt lat="-21.23459" lon="55.70445">
        <ele>2341.43</ele>
        <time>2018-04-17T08:47:04Z</time>
      </trkpt>
      <trkpt lat="-21.2346" lon="55.70444">
        <ele>2341.91</ele>
        <time>2018-04-17T08:47:41Z</time>
      </trkpt>
      <trkpt lat="-21.2346" lon="55.70444">
        <ele>2340.47</ele>
        <time>2018-04-17T08:48:19Z</time>
      </trkpt>
      <trkpt lat="-21.2346" lon="55.70444">
        <ele>2341.91</ele>
        <time>2018-04-17T08:48:53Z</time>
      </trkpt>
      <trkpt lat="-21.23459" lon="55.70444">
        <ele>2340.95</ele>
        <time>2018-04-17T08:49:23Z</time>
      </trkpt>
      <trkpt lat="-21.2346" lon="55.70443">
        <ele>2339.99</ele>
        <time>2018-04-17T08:49:53Z</time>
      </trkpt>
      <trkpt lat="-21.23459" lon="55.70445">
        <ele>2341.43</ele>
        <time>2018-04-17T08:50:32Z</time>
      </trkpt>
      <trkpt lat="-21.23459" lon="55.70445">
        <ele>2342.87</ele>
        <time>2018-04-17T08:51:08Z</time>
      </trkpt>
      <trkpt lat="-21.23459" lon="55.70445">
        <ele>2343.83</ele>
        <time>2018-04-17T08:51:37Z</time>
      </trkpt>
      <trkpt lat="-21.23457" lon="55.70445">
        <ele>2345.27</ele>
        <time>2018-04-17T08:52:16Z</time>
      </trkpt>
      <trkpt lat="-21.23458" lon="55.70445">
        <ele>2345.27</ele>
        <time>2018-04-17T08:52:45Z</time>
      </trkpt>
      <trkpt lat="-21.23458" lon="55.70445">
        <ele>2344.79</ele>
        <time>2018-04-17T08:53:20Z</time>
      </trkpt>
      <trkpt lat="-21.23458" lon="55.70445">
        <ele>2345.27</ele>
        <time>2018-04-17T08:53:51Z</time>
      </trkpt>
      <trkpt lat="-21.23459" lon="55.70445">
        <ele>2343.83</ele>
        <time>2018-04-17T08:54:15Z</time>
      </trkpt>
      <trkpt lat="-21.23459" lon="55.70444">
        <ele>2343.35</ele>
        <time>2018-04-17T08:54:44Z</time>
      </trkpt>
      <trkpt lat="-21.23459" lon="55.70444">
        <ele>2343.35</ele>
        <time>2018-04-17T08:55:17Z</time>
      </trkpt>
      <trkpt lat="-21.23459" lon="55.70444">
        <ele>2341.91</ele>
        <time>2018-04-17T08:55:45Z</time>
      </trkpt>
      <trkpt lat="-21.23462" lon="55.70445">
        <ele>2341.91</ele>
        <time>2018-04-17T08:56:09Z</time>
      </trkpt>
      <trkpt lat="-21.23463" lon="55.70446">
        <ele>2342.39</ele>
        <time>2018-04-17T08:56:11Z</time>
      </trkpt>
      <trkpt lat="-21.2347" lon="55.70447">
        <ele>2344.31</ele>
        <time>2018-04-17T08:56:24Z</time>
      </trkpt>
      <trkpt lat="-21.23475" lon="55.7045">
        <ele>2346.23</ele>
        <time>2018-04-17T08:56:35Z</time>
      </trkpt>
      <trkpt lat="-21.23477" lon="55.70455">
        <ele>2349.12</ele>
        <time>2018-04-17T08:56:47Z</time>
      </trkpt>
      <trkpt lat="-21.23479" lon="55.70454">
        <ele>2352.96</ele>
        <time>2018-04-17T08:56:57Z</time>
      </trkpt>
      <trkpt lat="-21.23482" lon="55.70457">
        <ele>2354.89</ele>
        <time>2018-04-17T08:57:09Z</time>
      </trkpt>
      <trkpt lat="-21.23489" lon="55.70461">
        <ele>2353.93</ele>
        <time>2018-04-17T08:57:19Z</time>
      </trkpt>
      <trkpt lat="-21.23491" lon="55.70464">
        <ele>2354.41</ele>
        <time>2018-04-17T08:57:34Z</time>
      </trkpt>
      <trkpt lat="-21.23495" lon="55.70465">
        <ele>2356.81</ele>
        <time>2018-04-17T08:57:54Z</time>
      </trkpt>
      <trkpt lat="-21.23493" lon="55.70471">
        <ele>2357.29</ele>
        <time>2018-04-17T08:58:05Z</time>
      </trkpt>
      <trkpt lat="-21.23493" lon="55.70475">
        <ele>2357.29</ele>
        <time>2018-04-17T08:58:10Z</time>
      </trkpt>
      <trkpt lat="-21.23493" lon="55.70478">
        <ele>2357.29</ele>
        <time>2018-04-17T08:58:15Z</time>
      </trkpt>
      <trkpt lat="-21.23492" lon="55.70488">
        <ele>2355.37</ele>
        <time>2018-04-17T08:58:27Z</time>
      </trkpt>
      <trkpt lat="-21.23494" lon="55.70498">
        <ele>2355.85</ele>
        <time>2018-04-17T08:58:43Z</time>
      </trkpt>
      <trkpt lat="-21.2349" lon="55.70504">
        <ele>2355.85</ele>
        <time>2018-04-17T08:58:55Z</time>
      </trkpt>
      <trkpt lat="-21.23486" lon="55.70508">
        <ele>2355.37</ele>
        <time>2018-04-17T08:59:07Z</time>
      </trkpt>
      <trkpt lat="-21.23484" lon="55.70512">
        <ele>2357.29</ele>
        <time>2018-04-17T08:59:21Z</time>
      </trkpt>
      <trkpt lat="-21.23479" lon="55.70518">
        <ele>2359.21</ele>
        <time>2018-04-17T08:59:33Z</time>
      </trkpt>
      <trkpt lat="-21.23477" lon="55.7053">
        <ele>2359.21</ele>
        <time>2018-04-17T08:59:49Z</time>
      </trkpt>
      <trkpt lat="-21.23483" lon="55.70534">
        <ele>2361.14</ele>
        <time>2018-04-17T09:00:03Z</time>
      </trkpt>
      <trkpt lat="-21.23489" lon="55.70536">
        <ele>2361.62</ele>
        <time>2018-04-17T09:00:15Z</time>
      </trkpt>
      <trkpt lat="-21.2349" lon="55.70542">
        <ele>2359.21</ele>
        <time>2018-04-17T09:00:27Z</time>
      </trkpt>
      <trkpt lat="-21.23493" lon="55.70546">
        <ele>2359.69</ele>
        <time>2018-04-17T09:00:37Z</time>
      </trkpt>
      <trkpt lat="-21.23499" lon="55.70552">
        <ele>2360.65</ele>
        <time>2018-04-17T09:00:53Z</time>
      </trkpt>
      <trkpt lat="-21.23506" lon="55.70555">
        <ele>2365.46</ele>
        <time>2018-04-17T09:01:07Z</time>
      </trkpt>
      <trkpt lat="-21.23511" lon="55.70557">
        <ele>2368.35</ele>
        <time>2018-04-17T09:01:19Z</time>
      </trkpt>
      <trkpt lat="-21.23515" lon="55.70563">
        <ele>2370.75</ele>
        <time>2018-04-17T09:01:31Z</time>
      </trkpt>
      <trkpt lat="-21.23519" lon="55.70569">
        <ele>2371.23</ele>
        <time>2018-04-17T09:01:43Z</time>
      </trkpt>
      <trkpt lat="-21.23526" lon="55.70574">
        <ele>2373.63</ele>
        <time>2018-04-17T09:01:58Z</time>
      </trkpt>
      <trkpt lat="-21.23532" lon="55.70578">
        <ele>2377.48</ele>
        <time>2018-04-17T09:02:11Z</time>
      </trkpt>
      <trkpt lat="-21.23534" lon="55.70581">
        <ele>2379.88</ele>
        <time>2018-04-17T09:02:21Z</time>
      </trkpt>
      <trkpt lat="-21.23538" lon="55.70586">
        <ele>2382.28</ele>
        <time>2018-04-17T09:02:33Z</time>
      </trkpt>
      <trkpt lat="-21.23539" lon="55.7059">
        <ele>2385.17</ele>
        <time>2018-04-17T09:02:44Z</time>
      </trkpt>
      <trkpt lat="-21.23542" lon="55.70596">
        <ele>2386.13</ele>
        <time>2018-04-17T09:02:58Z</time>
      </trkpt>
      <trkpt lat="-21.23547" lon="55.70602">
        <ele>2385.65</ele>
        <time>2018-04-17T09:03:11Z</time>
      </trkpt>
      <trkpt lat="-21.23552" lon="55.70605">
        <ele>2386.61</ele>
        <time>2018-04-17T09:03:23Z</time>
      </trkpt>
      <trkpt lat="-21.23556" lon="55.70611">
        <ele>2385.65</ele>
        <time>2018-04-17T09:03:34Z</time>
      </trkpt>
      <trkpt lat="-21.23559" lon="55.70607">
        <ele>2389.01</ele>
        <time>2018-04-17T09:03:49Z</time>
      </trkpt>
      <trkpt lat="-21.23564" lon="55.70604">
        <ele>2391.9</ele>
        <time>2018-04-17T09:04:02Z</time>
      </trkpt>
      <trkpt lat="-21.23567" lon="55.70608">
        <ele>2394.78</ele>
        <time>2018-04-17T09:04:16Z</time>
      </trkpt>
      <trkpt lat="-21.23568" lon="55.70614">
        <ele>2395.26</ele>
        <time>2018-04-17T09:04:28Z</time>
      </trkpt>
      <trkpt lat="-21.23569" lon="55.7062">
        <ele>2395.74</ele>
        <time>2018-04-17T09:04:38Z</time>
      </trkpt>
      <trkpt lat="-21.23567" lon="55.70627">
        <ele>2394.78</ele>
        <time>2018-04-17T09:04:50Z</time>
      </trkpt>
      <trkpt lat="-21.23567" lon="55.70628">
        <ele>2395.74</ele>
        <time>2018-04-17T09:05:02Z</time>
      </trkpt>
      <trkpt lat="-21.23568" lon="55.70631">
        <ele>2395.74</ele>
        <time>2018-04-17T09:05:09Z</time>
      </trkpt>
      <trkpt lat="-21.23567" lon="55.70639">
        <ele>2395.74</ele>
        <time>2018-04-17T09:05:21Z</time>
      </trkpt>
      <trkpt lat="-21.23566" lon="55.70645">
        <ele>2396.22</ele>
        <time>2018-04-17T09:05:36Z</time>
      </trkpt>
      <trkpt lat="-21.23566" lon="55.70648">
        <ele>2398.15</ele>
        <time>2018-04-17T09:05:52Z</time>
      </trkpt>
      <trkpt lat="-21.23568" lon="55.70652">
        <ele>2399.59</ele>
        <time>2018-04-17T09:06:05Z</time>
      </trkpt>
      <trkpt lat="-21.23569" lon="55.70653">
        <ele>2401.51</ele>
        <time>2018-04-17T09:06:08Z</time>
      </trkpt>
      <trkpt lat="-21.23578" lon="55.70651">
        <ele>2402.95</ele>
        <time>2018-04-17T09:06:21Z</time>
      </trkpt>
      <trkpt lat="-21.23585" lon="55.70653">
        <ele>2403.43</ele>
        <time>2018-04-17T09:06:32Z</time>
      </trkpt>
      <trkpt lat="-21.23592" lon="55.70656">
        <ele>2407.28</ele>
        <time>2018-04-17T09:06:54Z</time>
      </trkpt>
      <trkpt lat="-21.23596" lon="55.70662">
        <ele>2410.16</ele>
        <time>2018-04-17T09:07:08Z</time>
      </trkpt>
      <trkpt lat="-21.23599" lon="55.70667">
        <ele>2412.09</ele>
        <time>2018-04-17T09:07:16Z</time>
      </trkpt>
      <trkpt lat="-21.23603" lon="55.70672">
        <ele>2414.97</ele>
        <time>2018-04-17T09:07:29Z</time>
      </trkpt>
      <trkpt lat="-21.23608" lon="55.70674">
        <ele>2415.45</ele>
        <time>2018-04-17T09:07:50Z</time>
      </trkpt>
      <trkpt lat="-21.23612" lon="55.70677">
        <ele>2413.53</ele>
        <time>2018-04-17T09:08:10Z</time>
      </trkpt>
      <trkpt lat="-21.23613" lon="55.70675">
        <ele>2412.09</ele>
        <time>2018-04-17T09:08:24Z</time>
      </trkpt>
      <trkpt lat="-21.23615" lon="55.70676">
        <ele>2414.01</ele>
        <time>2018-04-17T09:08:52Z</time>
      </trkpt>
      <trkpt lat="-21.23615" lon="55.70676">
        <ele>2414.49</ele>
        <time>2018-04-17T09:08:53Z</time>
      </trkpt>
      <trkpt lat="-21.23623" lon="55.70679">
        <ele>2416.89</ele>
        <time>2018-04-17T09:09:07Z</time>
      </trkpt>
      <trkpt lat="-21.2363" lon="55.70681">
        <ele>2414.97</ele>
        <time>2018-04-17T09:09:21Z</time>
      </trkpt>
      <trkpt lat="-21.23639" lon="55.70681">
        <ele>2418.33</ele>
        <time>2018-04-17T09:09:38Z</time>
      </trkpt>
      <trkpt lat="-21.23641" lon="55.70688">
        <ele>2420.74</ele>
        <time>2018-04-17T09:09:57Z</time>
      </trkpt>
      <trkpt lat="-21.23642" lon="55.7069">
        <ele>2421.7</ele>
        <time>2018-04-17T09:10:01Z</time>
      </trkpt>
      <trkpt lat="-21.23645" lon="55.70696">
        <ele>2423.62</ele>
        <time>2018-04-17T09:10:14Z</time>
      </trkpt>
      <trkpt lat="-21.23645" lon="55.70702">
        <ele>2424.58</ele>
        <time>2018-04-17T09:10:32Z</time>
      </trkpt>
      <trkpt lat="-21.23647" lon="55.70707">
        <ele>2426.99</ele>
        <time>2018-04-17T09:10:44Z</time>
      </trkpt>
      <trkpt lat="-21.23648" lon="55.70706">
        <ele>2429.87</ele>
        <time>2018-04-17T09:10:58Z</time>
      </trkpt>
      <trkpt lat="-21.23649" lon="55.70708">
        <ele>2430.83</ele>
        <time>2018-04-17T09:11:36Z</time>
      </trkpt>
      <trkpt lat="-21.23649" lon="55.70708">
        <ele>2431.31</ele>
        <time>2018-04-17T09:11:56Z</time>
      </trkpt>
      <trkpt lat="-21.23654" lon="55.70715">
        <ele>2432.27</ele>
        <time>2018-04-17T09:12:17Z</time>
      </trkpt>
      <trkpt lat="-21.23656" lon="55.70717">
        <ele>2434.68</ele>
        <time>2018-04-17T09:12:36Z</time>
      </trkpt>
      <trkpt lat="-21.23655" lon="55.70716">
        <ele>2433.71</ele>
        <time>2018-04-17T09:13:15Z</time>
      </trkpt>
      <trkpt lat="-21.23654" lon="55.70716">
        <ele>2436.6</ele>
        <time>2018-04-17T09:14:00Z</time>
      </trkpt>
      <trkpt lat="-21.23656" lon="55.70718">
        <ele>2440.44</ele>
        <time>2018-04-17T09:14:49Z</time>
      </trkpt>
      <trkpt lat="-21.23658" lon="55.70717">
        <ele>2438.04</ele>
        <time>2018-04-17T09:15:13Z</time>
      </trkpt>
      <trkpt lat="-21.2366" lon="55.70718">
        <ele>2438.04</ele>
        <time>2018-04-17T09:15:16Z</time>
      </trkpt>
      <trkpt lat="-21.23663" lon="55.70723">
        <ele>2438.52</ele>
        <time>2018-04-17T09:15:28Z</time>
      </trkpt>
      <trkpt lat="-21.23664" lon="55.70723">
        <ele>2438.52</ele>
        <time>2018-04-17T09:15:37Z</time>
      </trkpt>
      <trkpt lat="-21.2367" lon="55.7073">
        <ele>2439.96</ele>
        <time>2018-04-17T09:15:50Z</time>
      </trkpt>
      <trkpt lat="-21.23674" lon="55.70741">
        <ele>2443.81</ele>
        <time>2018-04-17T09:16:04Z</time>
      </trkpt>
      <trkpt lat="-21.23675" lon="55.70748">
        <ele>2446.69</ele>
        <time>2018-04-17T09:16:11Z</time>
      </trkpt>
      <trkpt lat="-21.23673" lon="55.70754">
        <ele>2447.65</ele>
        <time>2018-04-17T09:16:17Z</time>
      </trkpt>
      <trkpt lat="-21.23671" lon="55.70758">
        <ele>2448.13</ele>
        <time>2018-04-17T09:16:21Z</time>
      </trkpt>
      <trkpt lat="-21.2367" lon="55.70774">
        <ele>2448.13</ele>
        <time>2018-04-17T09:16:36Z</time>
      </trkpt>
      <trkpt lat="-21.23672" lon="55.70776">
        <ele>2448.62</ele>
        <time>2018-04-17T09:16:38Z</time>
      </trkpt>
      <trkpt lat="-21.23672" lon="55.70789">
        <ele>2445.73</ele>
        <time>2018-04-17T09:16:53Z</time>
      </trkpt>
      <trkpt lat="-21.23672" lon="55.70794">
        <ele>2445.73</ele>
        <time>2018-04-17T09:17:05Z</time>
      </trkpt>
      <trkpt lat="-21.23672" lon="55.70801">
        <ele>2444.77</ele>
        <time>2018-04-17T09:17:22Z</time>
      </trkpt>
      <trkpt lat="-21.23673" lon="55.70806">
        <ele>2446.21</ele>
        <time>2018-04-17T09:17:29Z</time>
      </trkpt>
      <trkpt lat="-21.23675" lon="55.70813">
        <ele>2447.65</ele>
        <time>2018-04-17T09:17:41Z</time>
      </trkpt>
      <trkpt lat="-21.23679" lon="55.70817">
        <ele>2448.13</ele>
        <time>2018-04-17T09:17:51Z</time>
      </trkpt>
      <trkpt lat="-21.23683" lon="55.70819">
        <ele>2451.02</ele>
        <time>2018-04-17T09:18:03Z</time>
      </trkpt>
      <trkpt lat="-21.23682" lon="55.7082">
        <ele>2450.54</ele>
        <time>2018-04-17T09:18:12Z</time>
      </trkpt>
      <trkpt lat="-21.2368" lon="55.70828">
        <ele>2450.54</ele>
        <time>2018-04-17T09:18:25Z</time>
      </trkpt>
      <trkpt lat="-21.23683" lon="55.70834">
        <ele>2453.42</ele>
        <time>2018-04-17T09:18:39Z</time>
      </trkpt>
      <trkpt lat="-21.23683" lon="55.70836">
        <ele>2452.94</ele>
        <time>2018-04-17T09:19:02Z</time>
      </trkpt>
      <trkpt lat="-21.23688" lon="55.70841">
        <ele>2453.42</ele>
        <time>2018-04-17T09:19:11Z</time>
      </trkpt>
      <trkpt lat="-21.2369" lon="55.70848">
        <ele>2455.82</ele>
        <time>2018-04-17T09:19:22Z</time>
      </trkpt>
      <trkpt lat="-21.23695" lon="55.70856">
        <ele>2457.75</ele>
        <time>2018-04-17T09:19:35Z</time>
      </trkpt>
      <trkpt lat="-21.23694" lon="55.7086">
        <ele>2457.75</ele>
        <time>2018-04-17T09:19:39Z</time>
      </trkpt>
      <trkpt lat="-21.23696" lon="55.7087">
        <ele>2458.23</ele>
        <time>2018-04-17T09:19:52Z</time>
      </trkpt>
      <trkpt lat="-21.23696" lon="55.7088">
        <ele>2459.19</ele>
        <time>2018-04-17T09:20:05Z</time>
      </trkpt>
      <trkpt lat="-21.23696" lon="55.70884">
        <ele>2458.71</ele>
        <time>2018-04-17T09:20:10Z</time>
      </trkpt>
      <trkpt lat="-21.23695" lon="55.70888">
        <ele>2457.27</ele>
        <time>2018-04-17T09:20:16Z</time>
      </trkpt>
      <trkpt lat="-21.23695" lon="55.70897">
        <ele>2457.27</ele>
        <time>2018-04-17T09:20:29Z</time>
      </trkpt>
      <trkpt lat="-21.23695" lon="55.70898">
        <ele>2457.27</ele>
        <time>2018-04-17T09:20:31Z</time>
      </trkpt>
      <trkpt lat="-21.23696" lon="55.70906">
        <ele>2459.19</ele>
        <time>2018-04-17T09:20:43Z</time>
      </trkpt>
      <trkpt lat="-21.23696" lon="55.70913">
        <ele>2460.63</ele>
        <time>2018-04-17T09:20:54Z</time>
      </trkpt>
      <trkpt lat="-21.23696" lon="55.70918">
        <ele>2461.11</ele>
        <time>2018-04-17T09:20:59Z</time>
      </trkpt>
      <trkpt lat="-21.23699" lon="55.70924">
        <ele>2461.11</ele>
        <time>2018-04-17T09:21:08Z</time>
      </trkpt>
      <trkpt lat="-21.23697" lon="55.70927">
        <ele>2461.11</ele>
        <time>2018-04-17T09:21:20Z</time>
      </trkpt>
      <trkpt lat="-21.23698" lon="55.70927">
        <ele>2461.11</ele>
        <time>2018-04-17T09:21:32Z</time>
      </trkpt>
      <trkpt lat="-21.23698" lon="55.70936">
        <ele>2460.15</ele>
        <time>2018-04-17T09:21:45Z</time>
      </trkpt>
      <trkpt lat="-21.237" lon="55.70939">
        <ele>2460.63</ele>
        <time>2018-04-17T09:21:56Z</time>
      </trkpt>
      <trkpt lat="-21.23703" lon="55.70941">
        <ele>2461.59</ele>
        <time>2018-04-17T09:22:08Z</time>
      </trkpt>
      <trkpt lat="-21.23704" lon="55.70943">
        <ele>2462.07</ele>
        <time>2018-04-17T09:22:10Z</time>
      </trkpt>
      <trkpt lat="-21.23704" lon="55.70948">
        <ele>2462.07</ele>
        <time>2018-04-17T09:22:22Z</time>
      </trkpt>
      <trkpt lat="-21.23706" lon="55.70952">
        <ele>2461.59</ele>
        <time>2018-04-17T09:22:33Z</time>
      </trkpt>
      <trkpt lat="-21.23706" lon="55.70952">
        <ele>2461.59</ele>
        <time>2018-04-17T09:22:49Z</time>
      </trkpt>
      <trkpt lat="-21.23707" lon="55.70964">
        <ele>2463.04</ele>
        <time>2018-04-17T09:23:02Z</time>
      </trkpt>
      <trkpt lat="-21.23709" lon="55.70978">
        <ele>2463.52</ele>
        <time>2018-04-17T09:23:18Z</time>
      </trkpt>
      <trkpt lat="-21.2371" lon="55.7098">
        <ele>2463.52</ele>
        <time>2018-04-17T09:23:21Z</time>
      </trkpt>
      <trkpt lat="-21.23707" lon="55.70988">
        <ele>2462.55</ele>
        <time>2018-04-17T09:23:33Z</time>
      </trkpt>
      <trkpt lat="-21.23709" lon="55.70995">
        <ele>2463.52</ele>
        <time>2018-04-17T09:23:48Z</time>
      </trkpt>
      <trkpt lat="-21.23711" lon="55.71002">
        <ele>2464.96</ele>
        <time>2018-04-17T09:24:00Z</time>
      </trkpt>
      <trkpt lat="-21.23714" lon="55.71009">
        <ele>2467.36</ele>
        <time>2018-04-17T09:24:12Z</time>
      </trkpt>
      <trkpt lat="-21.23715" lon="55.71009">
        <ele>2467.36</ele>
        <time>2018-04-17T09:24:13Z</time>
      </trkpt>
      <trkpt lat="-21.23719" lon="55.71013">
        <ele>2468.32</ele>
        <time>2018-04-17T09:24:24Z</time>
      </trkpt>
      <trkpt lat="-21.23721" lon="55.71019">
        <ele>2471.21</ele>
        <time>2018-04-17T09:24:34Z</time>
      </trkpt>
      <trkpt lat="-21.23722" lon="55.71025">
        <ele>2472.17</ele>
        <time>2018-04-17T09:24:49Z</time>
      </trkpt>
      <trkpt lat="-21.23722" lon="55.71025">
        <ele>2472.17</ele>
        <time>2018-04-17T09:25:03Z</time>
      </trkpt>
      <trkpt lat="-21.23725" lon="55.71033">
        <ele>2473.13</ele>
        <time>2018-04-17T09:25:15Z</time>
      </trkpt>
      <trkpt lat="-21.23726" lon="55.71037">
        <ele>2474.09</ele>
        <time>2018-04-17T09:25:26Z</time>
      </trkpt>
      <trkpt lat="-21.23728" lon="55.71041">
        <ele>2475.05</ele>
        <time>2018-04-17T09:25:39Z</time>
      </trkpt>
      <trkpt lat="-21.23732" lon="55.71048">
        <ele>2477.45</ele>
        <time>2018-04-17T09:25:52Z</time>
      </trkpt>
      <trkpt lat="-21.23734" lon="55.71056">
        <ele>2477.94</ele>
        <time>2018-04-17T09:26:02Z</time>
      </trkpt>
      <trkpt lat="-21.23738" lon="55.71063">
        <ele>2479.86</ele>
        <time>2018-04-17T09:26:16Z</time>
      </trkpt>
      <trkpt lat="-21.23742" lon="55.7107">
        <ele>2482.74</ele>
        <time>2018-04-17T09:26:30Z</time>
      </trkpt>
      <trkpt lat="-21.23743" lon="55.71075">
        <ele>2484.66</ele>
        <time>2018-04-17T09:26:36Z</time>
      </trkpt>
      <trkpt lat="-21.23739" lon="55.71084">
        <ele>2486.59</ele>
        <time>2018-04-17T09:26:48Z</time>
      </trkpt>
      <trkpt lat="-21.23737" lon="55.71092">
        <ele>2485.63</ele>
        <time>2018-04-17T09:27:00Z</time>
      </trkpt>
      <trkpt lat="-21.23734" lon="55.71099">
        <ele>2482.74</ele>
        <time>2018-04-17T09:27:11Z</time>
      </trkpt>
      <trkpt lat="-21.23733" lon="55.71102">
        <ele>2482.26</ele>
        <time>2018-04-17T09:27:14Z</time>
      </trkpt>
      <trkpt lat="-21.23736" lon="55.71113">
        <ele>2483.22</ele>
        <time>2018-04-17T09:27:27Z</time>
      </trkpt>
      <trkpt lat="-21.23734" lon="55.71112">
        <ele>2483.22</ele>
        <time>2018-04-17T09:27:46Z</time>
      </trkpt>
      <trkpt lat="-21.23737" lon="55.71119">
        <ele>2483.22</ele>
        <time>2018-04-17T09:28:16Z</time>
      </trkpt>
      <trkpt lat="-21.23742" lon="55.71131">
        <ele>2483.7</ele>
        <time>2018-04-17T09:28:28Z</time>
      </trkpt>
      <trkpt lat="-21.23744" lon="55.71136">
        <ele>2483.7</ele>
        <time>2018-04-17T09:28:44Z</time>
      </trkpt>
      <trkpt lat="-21.23744" lon="55.71137">
        <ele>2484.18</ele>
        <time>2018-04-17T09:29:00Z</time>
      </trkpt>
      <trkpt lat="-21.23744" lon="55.71141">
        <ele>2483.7</ele>
        <time>2018-04-17T09:29:04Z</time>
      </trkpt>
      <trkpt lat="-21.23748" lon="55.7115">
        <ele>2483.22</ele>
        <time>2018-04-17T09:29:13Z</time>
      </trkpt>
      <trkpt lat="-21.23756" lon="55.71166">
        <ele>2483.7</ele>
        <time>2018-04-17T09:29:29Z</time>
      </trkpt>
      <trkpt lat="-21.23759" lon="55.71174">
        <ele>2483.22</ele>
        <time>2018-04-17T09:29:40Z</time>
      </trkpt>
      <trkpt lat="-21.23764" lon="55.71181">
        <ele>2485.15</ele>
        <time>2018-04-17T09:29:52Z</time>
      </trkpt>
      <trkpt lat="-21.23764" lon="55.71188">
        <ele>2488.99</ele>
        <time>2018-04-17T09:30:06Z</time>
      </trkpt>
      <trkpt lat="-21.23764" lon="55.71191">
        <ele>2489.47</ele>
        <time>2018-04-17T09:30:09Z</time>
      </trkpt>
      <trkpt lat="-21.23761" lon="55.71197">
        <ele>2487.07</ele>
        <time>2018-04-17T09:30:24Z</time>
      </trkpt>
      <trkpt lat="-21.23761" lon="55.71197">
        <ele>2486.59</ele>
        <time>2018-04-17T09:30:33Z</time>
      </trkpt>
      <trkpt lat="-21.23762" lon="55.71213">
        <ele>2486.11</ele>
        <time>2018-04-17T09:30:47Z</time>
      </trkpt>
      <trkpt lat="-21.23763" lon="55.71218">
        <ele>2485.63</ele>
        <time>2018-04-17T09:30:51Z</time>
      </trkpt>
      <trkpt lat="-21.23763" lon="55.71221">
        <ele>2485.63</ele>
        <time>2018-04-17T09:30:54Z</time>
      </trkpt>
      <trkpt lat="-21.23763" lon="55.71227">
        <ele>2484.66</ele>
        <time>2018-04-17T09:30:58Z</time>
      </trkpt>
      <trkpt lat="-21.23763" lon="55.7123">
        <ele>2484.66</ele>
        <time>2018-04-17T09:31:01Z</time>
      </trkpt>
      <trkpt lat="-21.23762" lon="55.71232">
        <ele>2484.18</ele>
        <time>2018-04-17T09:31:03Z</time>
      </trkpt>
      <trkpt lat="-21.23764" lon="55.71237">
        <ele>2483.7</ele>
        <time>2018-04-17T09:31:07Z</time>
      </trkpt>
      <trkpt lat="-21.23768" lon="55.71243">
        <ele>2483.22</ele>
        <time>2018-04-17T09:31:13Z</time>
      </trkpt>
      <trkpt lat="-21.2376" lon="55.71259">
        <ele>2481.78</ele>
        <time>2018-04-17T09:31:28Z</time>
      </trkpt>
      <trkpt lat="-21.23758" lon="55.71264">
        <ele>2481.3</ele>
        <time>2018-04-17T09:31:32Z</time>
      </trkpt>
      <trkpt lat="-21.23758" lon="55.71269">
        <ele>2481.3</ele>
        <time>2018-04-17T09:31:36Z</time>
      </trkpt>
      <trkpt lat="-21.23758" lon="55.71274">
        <ele>2482.26</ele>
        <time>2018-04-17T09:31:41Z</time>
      </trkpt>
      <trkpt lat="-21.23761" lon="55.71282">
        <ele>2483.7</ele>
        <time>2018-04-17T09:31:50Z</time>
      </trkpt>
      <trkpt lat="-21.23767" lon="55.71296">
        <ele>2486.11</ele>
        <time>2018-04-17T09:32:04Z</time>
      </trkpt>
      <trkpt lat="-21.23769" lon="55.71299">
        <ele>2486.11</ele>
        <time>2018-04-17T09:32:08Z</time>
      </trkpt>
      <trkpt lat="-21.23771" lon="55.71302">
        <ele>2486.59</ele>
        <time>2018-04-17T09:32:12Z</time>
      </trkpt>
      <trkpt lat="-21.23773" lon="55.71302">
        <ele>2486.11</ele>
        <time>2018-04-17T09:32:25Z</time>
      </trkpt>
      <trkpt lat="-21.23777" lon="55.71305">
        <ele>2486.59</ele>
        <time>2018-04-17T09:32:32Z</time>
      </trkpt>
      <trkpt lat="-21.23786" lon="55.7131">
        <ele>2488.51</ele>
        <time>2018-04-17T09:32:45Z</time>
      </trkpt>
      <trkpt lat="-21.2379" lon="55.7132">
        <ele>2489.47</ele>
        <time>2018-04-17T09:32:58Z</time>
      </trkpt>
      <trkpt lat="-21.23789" lon="55.7132">
        <ele>2489.47</ele>
        <time>2018-04-17T09:32:59Z</time>
      </trkpt>
      <trkpt lat="-21.23798" lon="55.71339">
        <ele>2490.43</ele>
        <time>2018-04-17T09:33:17Z</time>
      </trkpt>
      <trkpt lat="-21.23798" lon="55.7134">
        <ele>2490.43</ele>
        <time>2018-04-17T09:33:18Z</time>
      </trkpt>
      <trkpt lat="-21.23798" lon="55.71343">
        <ele>2489.95</ele>
        <time>2018-04-17T09:33:21Z</time>
      </trkpt>
      <trkpt lat="-21.23803" lon="55.71349">
        <ele>2489.47</ele>
        <time>2018-04-17T09:33:28Z</time>
      </trkpt>
      <trkpt lat="-21.23809" lon="55.71353">
        <ele>2489.47</ele>
        <time>2018-04-17T09:33:35Z</time>
      </trkpt>
      <trkpt lat="-21.2381" lon="55.71359">
        <ele>2489.47</ele>
        <time>2018-04-17T09:33:41Z</time>
      </trkpt>
      <trkpt lat="-21.23815" lon="55.71362">
        <ele>2488.99</ele>
        <time>2018-04-17T09:33:48Z</time>
      </trkpt>
      <trkpt lat="-21.23818" lon="55.71371">
        <ele>2488.03</ele>
        <time>2018-04-17T09:34:02Z</time>
      </trkpt>
      <trkpt lat="-21.23825" lon="55.71379">
        <ele>2489.47</ele>
        <time>2018-04-17T09:34:13Z</time>
      </trkpt>
      <trkpt lat="-21.23824" lon="55.71394">
        <ele>2489.47</ele>
        <time>2018-04-17T09:34:27Z</time>
      </trkpt>
      <trkpt lat="-21.23824" lon="55.71395">
        <ele>2488.99</ele>
        <time>2018-04-17T09:34:29Z</time>
      </trkpt>
      <trkpt lat="-21.23822" lon="55.71405">
        <ele>2486.11</ele>
        <time>2018-04-17T09:34:42Z</time>
      </trkpt>
      <trkpt lat="-21.23825" lon="55.71412">
        <ele>2484.66</ele>
        <time>2018-04-17T09:34:54Z</time>
      </trkpt>
      <trkpt lat="-21.23825" lon="55.71414">
        <ele>2484.18</ele>
        <time>2018-04-17T09:35:01Z</time>
      </trkpt>
      <trkpt lat="-21.23825" lon="55.71424">
        <ele>2482.74</ele>
        <time>2018-04-17T09:35:16Z</time>
      </trkpt>
      <trkpt lat="-21.23821" lon="55.71427">
        <ele>2482.74</ele>
        <time>2018-04-17T09:35:23Z</time>
      </trkpt>
      <trkpt lat="-21.2382" lon="55.71431">
        <ele>2482.74</ele>
        <time>2018-04-17T09:35:27Z</time>
      </trkpt>
      <trkpt lat="-21.23824" lon="55.71436">
        <ele>2481.78</ele>
        <time>2018-04-17T09:35:33Z</time>
      </trkpt>
      <trkpt lat="-21.2383" lon="55.7145">
        <ele>2479.86</ele>
        <time>2018-04-17T09:35:48Z</time>
      </trkpt>
      <trkpt lat="-21.23834" lon="55.71456">
        <ele>2479.38</ele>
        <time>2018-04-17T09:35:57Z</time>
      </trkpt>
      <trkpt lat="-21.23834" lon="55.71467">
        <ele>2481.3</ele>
        <time>2018-04-17T09:36:11Z</time>
      </trkpt>
      <trkpt lat="-21.23841" lon="55.71473">
        <ele>2482.74</ele>
        <time>2018-04-17T09:36:23Z</time>
      </trkpt>
      <trkpt lat="-21.23844" lon="55.71481">
        <ele>2484.66</ele>
        <time>2018-04-17T09:36:33Z</time>
      </trkpt>
      <trkpt lat="-21.23843" lon="55.71486">
        <ele>2485.15</ele>
        <time>2018-04-17T09:36:38Z</time>
      </trkpt>
      <trkpt lat="-21.23843" lon="55.71496">
        <ele>2484.66</ele>
        <time>2018-04-17T09:36:50Z</time>
      </trkpt>
      <trkpt lat="-21.23845" lon="55.71502">
        <ele>2483.7</ele>
        <time>2018-04-17T09:36:56Z</time>
      </trkpt>
      <trkpt lat="-21.23846" lon="55.71506">
        <ele>2484.18</ele>
        <time>2018-04-17T09:37:00Z</time>
      </trkpt>
      <trkpt lat="-21.23847" lon="55.71509">
        <ele>2484.18</ele>
        <time>2018-04-17T09:37:04Z</time>
      </trkpt>
      <trkpt lat="-21.23848" lon="55.71515">
        <ele>2483.7</ele>
        <time>2018-04-17T09:37:10Z</time>
      </trkpt>
      <trkpt lat="-21.23849" lon="55.71527">
        <ele>2484.18</ele>
        <time>2018-04-17T09:37:24Z</time>
      </trkpt>
      <trkpt lat="-21.23848" lon="55.71527">
        <ele>2484.18</ele>
        <time>2018-04-17T09:37:25Z</time>
      </trkpt>
      <trkpt lat="-21.23852" lon="55.71536">
        <ele>2484.18</ele>
        <time>2018-04-17T09:37:38Z</time>
      </trkpt>
      <trkpt lat="-21.23849" lon="55.71541">
        <ele>2482.74</ele>
        <time>2018-04-17T09:37:49Z</time>
      </trkpt>
      <trkpt lat="-21.23848" lon="55.71551">
        <ele>2482.74</ele>
        <time>2018-04-17T09:38:01Z</time>
      </trkpt>
      <trkpt lat="-21.23845" lon="55.71559">
        <ele>2481.78</ele>
        <time>2018-04-17T09:38:12Z</time>
      </trkpt>
      <trkpt lat="-21.23842" lon="55.71569">
        <ele>2480.34</ele>
        <time>2018-04-17T09:38:24Z</time>
      </trkpt>
      <trkpt lat="-21.23844" lon="55.71576">
        <ele>2479.86</ele>
        <time>2018-04-17T09:38:32Z</time>
      </trkpt>
      <trkpt lat="-21.23842" lon="55.71581">
        <ele>2478.9</ele>
        <time>2018-04-17T09:38:37Z</time>
      </trkpt>
      <trkpt lat="-21.23841" lon="55.71588">
        <ele>2478.9</ele>
        <time>2018-04-17T09:38:51Z</time>
      </trkpt>
      <trkpt lat="-21.23841" lon="55.71588">
        <ele>2479.38</ele>
        <time>2018-04-17T09:38:52Z</time>
      </trkpt>
      <trkpt lat="-21.2384" lon="55.71603">
        <ele>2476.97</ele>
        <time>2018-04-17T09:39:05Z</time>
      </trkpt>
      <trkpt lat="-21.23841" lon="55.71607">
        <ele>2476.49</ele>
        <time>2018-04-17T09:39:09Z</time>
      </trkpt>
      <trkpt lat="-21.23841" lon="55.71612">
        <ele>2476.01</ele>
        <time>2018-04-17T09:39:23Z</time>
      </trkpt>
      <trkpt lat="-21.23842" lon="55.71619">
        <ele>2477.94</ele>
        <time>2018-04-17T09:39:36Z</time>
      </trkpt>
      <trkpt lat="-21.23841" lon="55.71622">
        <ele>2479.38</ele>
        <time>2018-04-17T09:39:49Z</time>
      </trkpt>
      <trkpt lat="-21.23841" lon="55.71624">
        <ele>2479.86</ele>
        <time>2018-04-17T09:40:08Z</time>
      </trkpt>
      <trkpt lat="-21.2384" lon="55.71624">
        <ele>2478.9</ele>
        <time>2018-04-17T09:40:23Z</time>
      </trkpt>
      <trkpt lat="-21.23842" lon="55.71624">
        <ele>2479.38</ele>
        <time>2018-04-17T09:40:56Z</time>
      </trkpt>
      <trkpt lat="-21.23841" lon="55.71624">
        <ele>2478.9</ele>
        <time>2018-04-17T09:41:30Z</time>
      </trkpt>
      <trkpt lat="-21.23841" lon="55.71623">
        <ele>2479.38</ele>
        <time>2018-04-17T09:42:04Z</time>
      </trkpt>
      <trkpt lat="-21.23841" lon="55.71624">
        <ele>2478.42</ele>
        <time>2018-04-17T09:42:37Z</time>
      </trkpt>
      <trkpt lat="-21.23841" lon="55.71622">
        <ele>2478.9</ele>
        <time>2018-04-17T09:43:06Z</time>
      </trkpt>
      <trkpt lat="-21.23841" lon="55.71623">
        <ele>2481.3</ele>
        <time>2018-04-17T09:43:32Z</time>
      </trkpt>
      <trkpt lat="-21.23841" lon="55.71623">
        <ele>2481.3</ele>
        <time>2018-04-17T09:43:51Z</time>
      </trkpt>
      <trkpt lat="-21.23845" lon="55.71623">
        <ele>2482.26</ele>
        <time>2018-04-17T09:44:03Z</time>
      </trkpt>
      <trkpt lat="-21.23841" lon="55.71623">
        <ele>2480.82</ele>
        <time>2018-04-17T09:44:20Z</time>
      </trkpt>
      <trkpt lat="-21.23843" lon="55.71618">
        <ele>2478.9</ele>
        <time>2018-04-17T09:44:33Z</time>
      </trkpt>
      <trkpt lat="-21.2384" lon="55.71611">
        <ele>2477.45</ele>
        <time>2018-04-17T09:44:41Z</time>
      </trkpt>
      <trkpt lat="-21.23842" lon="55.71598">
        <ele>2475.53</ele>
        <time>2018-04-17T09:44:54Z</time>
      </trkpt>
      <trkpt lat="-21.23848" lon="55.71597">
        <ele>2474.57</ele>
        <time>2018-04-17T09:45:05Z</time>
      </trkpt>
      <trkpt lat="-21.23854" lon="55.71594">
        <ele>2474.09</ele>
        <time>2018-04-17T09:45:16Z</time>
      </trkpt>
      <trkpt lat="-21.23861" lon="55.71591">
        <ele>2476.49</ele>
        <time>2018-04-17T09:45:29Z</time>
      </trkpt>
      <trkpt lat="-21.23868" lon="55.71588">
        <ele>2480.34</ele>
        <time>2018-04-17T09:45:44Z</time>
      </trkpt>
      <trkpt lat="-21.23873" lon="55.71586">
        <ele>2480.34</ele>
        <time>2018-04-17T09:45:58Z</time>
      </trkpt>
      <trkpt lat="-21.23877" lon="55.7158">
        <ele>2482.74</ele>
        <time>2018-04-17T09:46:09Z</time>
      </trkpt>
      <trkpt lat="-21.23879" lon="55.71572">
        <ele>2484.18</ele>
        <time>2018-04-17T09:46:21Z</time>
      </trkpt>
      <trkpt lat="-21.23882" lon="55.71565">
        <ele>2486.59</ele>
        <time>2018-04-17T09:46:36Z</time>
      </trkpt>
      <trkpt lat="-21.23887" lon="55.71564">
        <ele>2489.47</ele>
        <time>2018-04-17T09:46:53Z</time>
      </trkpt>
      <trkpt lat="-21.23895" lon="55.71562">
        <ele>2489.95</ele>
        <time>2018-04-17T09:47:05Z</time>
      </trkpt>
      <trkpt lat="-21.23901" lon="55.71559">
        <ele>2492.36</ele>
        <time>2018-04-17T09:47:17Z</time>
      </trkpt>
      <trkpt lat="-21.23906" lon="55.71557">
        <ele>2493.32</ele>
        <time>2018-04-17T09:47:30Z</time>
      </trkpt>
      <trkpt lat="-21.23912" lon="55.71556">
        <ele>2495.24</ele>
        <time>2018-04-17T09:47:48Z</time>
      </trkpt>
      <trkpt lat="-21.2392" lon="55.71555">
        <ele>2498.6</ele>
        <time>2018-04-17T09:48:03Z</time>
      </trkpt>
      <trkpt lat="-21.23924" lon="55.71549">
        <ele>2500.53</ele>
        <time>2018-04-17T09:48:16Z</time>
      </trkpt>
      <trkpt lat="-21.23931" lon="55.71549">
        <ele>2499.57</ele>
        <time>2018-04-17T09:48:28Z</time>
      </trkpt>
      <trkpt lat="-21.23937" lon="55.7155">
        <ele>2501.01</ele>
        <time>2018-04-17T09:48:41Z</time>
      </trkpt>
      <trkpt lat="-21.23939" lon="55.71548">
        <ele>2501.97</ele>
        <time>2018-04-17T09:48:53Z</time>
      </trkpt>
      <trkpt lat="-21.23945" lon="55.71549">
        <ele>2503.89</ele>
        <time>2018-04-17T09:49:05Z</time>
      </trkpt>
      <trkpt lat="-21.23949" lon="55.71544">
        <ele>2504.85</ele>
        <time>2018-04-17T09:49:18Z</time>
      </trkpt>
      <trkpt lat="-21.23955" lon="55.71544">
        <ele>2508.7</ele>
        <time>2018-04-17T09:49:31Z</time>
      </trkpt>
      <trkpt lat="-21.23964" lon="55.71546">
        <ele>2512.06</ele>
        <time>2018-04-17T09:49:44Z</time>
      </trkpt>
      <trkpt lat="-21.23971" lon="55.71544">
        <ele>2514.47</ele>
        <time>2018-04-17T09:49:55Z</time>
      </trkpt>
      <trkpt lat="-21.23976" lon="55.71539">
        <ele>2515.91</ele>
        <time>2018-04-17T09:50:08Z</time>
      </trkpt>
      <trkpt lat="-21.23976" lon="55.71538">
        <ele>2517.35</ele>
        <time>2018-04-17T09:50:27Z</time>
      </trkpt>
      <trkpt lat="-21.23983" lon="55.71532">
        <ele>2519.75</ele>
        <time>2018-04-17T09:50:46Z</time>
      </trkpt>
      <trkpt lat="-21.23993" lon="55.71529">
        <ele>2521.19</ele>
        <time>2018-04-17T09:50:58Z</time>
      </trkpt>
      <trkpt lat="-21.23999" lon="55.71528">
        <ele>2522.64</ele>
        <time>2018-04-17T09:51:05Z</time>
      </trkpt>
      <trkpt lat="-21.2401" lon="55.71526">
        <ele>2523.6</ele>
        <time>2018-04-17T09:51:19Z</time>
      </trkpt>
      <trkpt lat="-21.24018" lon="55.71522">
        <ele>2525.52</ele>
        <time>2018-04-17T09:51:30Z</time>
      </trkpt>
      <trkpt lat="-21.24023" lon="55.71521">
        <ele>2525.52</ele>
        <time>2018-04-17T09:51:42Z</time>
      </trkpt>
      <trkpt lat="-21.24026" lon="55.71524">
        <ele>2527.44</ele>
        <time>2018-04-17T09:51:55Z</time>
      </trkpt>
      <trkpt lat="-21.24025" lon="55.71522">
        <ele>2528.4</ele>
        <time>2018-04-17T09:52:20Z</time>
      </trkpt>
      <trkpt lat="-21.24026" lon="55.71523">
        <ele>2529.37</ele>
        <time>2018-04-17T09:52:53Z</time>
      </trkpt>
      <trkpt lat="-21.24021" lon="55.71522">
        <ele>2529.37</ele>
        <time>2018-04-17T09:53:05Z</time>
      </trkpt>
      <trkpt lat="-21.24021" lon="55.71524">
        <ele>2529.37</ele>
        <time>2018-04-17T09:53:12Z</time>
      </trkpt>
      <trkpt lat="-21.24021" lon="55.7153">
        <ele>2531.29</ele>
        <time>2018-04-17T09:53:25Z</time>
      </trkpt>
      <trkpt lat="-21.24016" lon="55.7153">
        <ele>2530.33</ele>
        <time>2018-04-17T09:53:38Z</time>
      </trkpt>
      <trkpt lat="-21.24017" lon="55.71533">
        <ele>2529.85</ele>
        <time>2018-04-17T09:53:41Z</time>
      </trkpt>
      <trkpt lat="-21.2402" lon="55.71538">
        <ele>2529.37</ele>
        <time>2018-04-17T09:53:59Z</time>
      </trkpt>
      <trkpt lat="-21.24019" lon="55.71537">
        <ele>2530.81</ele>
        <time>2018-04-17T09:54:18Z</time>
      </trkpt>
      <trkpt lat="-21.24017" lon="55.71536">
        <ele>2530.33</ele>
        <time>2018-04-17T09:54:20Z</time>
      </trkpt>
      <trkpt lat="-21.24015" lon="55.71533">
        <ele>2529.85</ele>
        <time>2018-04-17T09:54:23Z</time>
      </trkpt>
      <trkpt lat="-21.24009" lon="55.71531">
        <ele>2527.44</ele>
        <time>2018-04-17T09:54:32Z</time>
      </trkpt>
      <trkpt lat="-21.24017" lon="55.71538">
        <ele>2526.96</ele>
        <time>2018-04-17T09:54:44Z</time>
      </trkpt>
      <trkpt lat="-21.24016" lon="55.71537">
        <ele>2526.48</ele>
        <time>2018-04-17T09:55:00Z</time>
      </trkpt>
      <trkpt lat="-21.24017" lon="55.71534">
        <ele>2525.04</ele>
        <time>2018-04-17T09:55:17Z</time>
      </trkpt>
      <trkpt lat="-21.24017" lon="55.71534">
        <ele>2525.04</ele>
        <time>2018-04-17T09:55:19Z</time>
      </trkpt>
      <trkpt lat="-21.24014" lon="55.71532">
        <ele>2525.52</ele>
        <time>2018-04-17T09:55:22Z</time>
      </trkpt>
      <trkpt lat="-21.24" lon="55.71526">
        <ele>2524.56</ele>
        <time>2018-04-17T09:55:34Z</time>
      </trkpt>
      <trkpt lat="-21.23993" lon="55.71526">
        <ele>2524.56</ele>
        <time>2018-04-17T09:55:43Z</time>
      </trkpt>
      <trkpt lat="-21.23989" lon="55.71525">
        <ele>2523.12</ele>
        <time>2018-04-17T09:55:48Z</time>
      </trkpt>
      <trkpt lat="-21.2398" lon="55.7153">
        <ele>2522.16</ele>
        <time>2018-04-17T09:56:01Z</time>
      </trkpt>
      <trkpt lat="-21.2397" lon="55.71526">
        <ele>2520.23</ele>
        <time>2018-04-17T09:56:15Z</time>
      </trkpt>
      <trkpt lat="-21.23963" lon="55.71524">
        <ele>2520.23</ele>
        <time>2018-04-17T09:56:23Z</time>
      </trkpt>
      <trkpt lat="-21.23955" lon="55.71522">
        <ele>2516.39</ele>
        <time>2018-04-17T09:56:36Z</time>
      </trkpt>
      <trkpt lat="-21.23955" lon="55.71518">
        <ele>2515.91</ele>
        <time>2018-04-17T09:56:41Z</time>
      </trkpt>
      <trkpt lat="-21.23947" lon="55.71508">
        <ele>2515.91</ele>
        <time>2018-04-17T09:56:55Z</time>
      </trkpt>
      <trkpt lat="-21.23947" lon="55.71505">
        <ele>2515.91</ele>
        <time>2018-04-17T09:57:00Z</time>
      </trkpt>
      <trkpt lat="-21.23942" lon="55.71488">
        <ele>2512.06</ele>
        <time>2018-04-17T09:57:14Z</time>
      </trkpt>
      <trkpt lat="-21.2394" lon="55.71481">
        <ele>2512.06</ele>
        <time>2018-04-17T09:57:27Z</time>
      </trkpt>
      <trkpt lat="-21.23936" lon="55.71471">
        <ele>2512.54</ele>
        <time>2018-04-17T09:57:42Z</time>
      </trkpt>
      <trkpt lat="-21.23929" lon="55.7146">
        <ele>2510.62</ele>
        <time>2018-04-17T09:57:56Z</time>
      </trkpt>
      <trkpt lat="-21.23923" lon="55.71461">
        <ele>2507.26</ele>
        <time>2018-04-17T09:58:08Z</time>
      </trkpt>
      <trkpt lat="-21.23922" lon="55.71458">
        <ele>2506.77</ele>
        <time>2018-04-17T09:58:11Z</time>
      </trkpt>
      <trkpt lat="-21.23921" lon="55.71453">
        <ele>2505.33</ele>
        <time>2018-04-17T09:58:16Z</time>
      </trkpt>
      <trkpt lat="-21.23909" lon="55.71443">
        <ele>2503.89</ele>
        <time>2018-04-17T09:58:31Z</time>
      </trkpt>
      <trkpt lat="-21.23897" lon="55.71435">
        <ele>2501.49</ele>
        <time>2018-04-17T09:58:45Z</time>
      </trkpt>
      <trkpt lat="-21.23891" lon="55.71435">
        <ele>2501.01</ele>
        <time>2018-04-17T09:58:56Z</time>
      </trkpt>
      <trkpt lat="-21.23878" lon="55.71441">
        <ele>2499.57</ele>
        <time>2018-04-17T09:59:12Z</time>
      </trkpt>
      <trkpt lat="-21.23867" lon="55.71446">
        <ele>2499.08</ele>
        <time>2018-04-17T09:59:24Z</time>
      </trkpt>
      <trkpt lat="-21.23864" lon="55.71447">
        <ele>2497.16</ele>
        <time>2018-04-17T09:59:29Z</time>
      </trkpt>
      <trkpt lat="-21.23859" lon="55.71448">
        <ele>2494.28</ele>
        <time>2018-04-17T09:59:40Z</time>
      </trkpt>
      <trkpt lat="-21.23854" lon="55.71448">
        <ele>2490.43</ele>
        <time>2018-04-17T09:59:54Z</time>
      </trkpt>
      <trkpt lat="-21.23849" lon="55.71448">
        <ele>2487.55</ele>
        <time>2018-04-17T10:00:08Z</time>
      </trkpt>
      <trkpt lat="-21.23845" lon="55.71447">
        <ele>2484.66</ele>
        <time>2018-04-17T10:00:26Z</time>
      </trkpt>
      <trkpt lat="-21.2384" lon="55.71446">
        <ele>2482.26</ele>
        <time>2018-04-17T10:00:38Z</time>
      </trkpt>
      <trkpt lat="-21.23835" lon="55.71449">
        <ele>2481.3</ele>
        <time>2018-04-17T10:00:46Z</time>
      </trkpt>
      <trkpt lat="-21.23827" lon="55.71446">
        <ele>2478.42</ele>
        <time>2018-04-17T10:00:59Z</time>
      </trkpt>
      <trkpt lat="-21.23826" lon="55.71444">
        <ele>2478.42</ele>
        <time>2018-04-17T10:01:01Z</time>
      </trkpt>
      <trkpt lat="-21.23825" lon="55.7144">
        <ele>2478.42</ele>
        <time>2018-04-17T10:01:05Z</time>
      </trkpt>
      <trkpt lat="-21.23821" lon="55.71435">
        <ele>2477.45</ele>
        <time>2018-04-17T10:01:11Z</time>
      </trkpt>
      <trkpt lat="-21.2382" lon="55.71425">
        <ele>2476.49</ele>
        <time>2018-04-17T10:01:26Z</time>
      </trkpt>
      <trkpt lat="-21.23824" lon="55.71419">
        <ele>2476.01</ele>
        <time>2018-04-17T10:01:38Z</time>
      </trkpt>
      <trkpt lat="-21.23824" lon="55.71411">
        <ele>2476.49</ele>
        <time>2018-04-17T10:01:47Z</time>
      </trkpt>
      <trkpt lat="-21.23821" lon="55.714">
        <ele>2477.45</ele>
        <time>2018-04-17T10:02:02Z</time>
      </trkpt>
      <trkpt lat="-21.23823" lon="55.71393">
        <ele>2479.86</ele>
        <time>2018-04-17T10:02:12Z</time>
      </trkpt>
      <trkpt lat="-21.23826" lon="55.71383">
        <ele>2480.82</ele>
        <time>2018-04-17T10:02:25Z</time>
      </trkpt>
      <trkpt lat="-21.23821" lon="55.71376">
        <ele>2479.86</ele>
        <time>2018-04-17T10:02:36Z</time>
      </trkpt>
      <trkpt lat="-21.23816" lon="55.71367">
        <ele>2478.42</ele>
        <time>2018-04-17T10:02:47Z</time>
      </trkpt>
      <trkpt lat="-21.23811" lon="55.7136">
        <ele>2477.45</ele>
        <time>2018-04-17T10:02:56Z</time>
      </trkpt>
      <trkpt lat="-21.23807" lon="55.71352">
        <ele>2477.94</ele>
        <time>2018-04-17T10:03:05Z</time>
      </trkpt>
      <trkpt lat="-21.23799" lon="55.71344">
        <ele>2479.38</ele>
        <time>2018-04-17T10:03:16Z</time>
      </trkpt>
      <trkpt lat="-21.23797" lon="55.71339">
        <ele>2479.38</ele>
        <time>2018-04-17T10:03:20Z</time>
      </trkpt>
      <trkpt lat="-21.23794" lon="55.71329">
        <ele>2479.86</ele>
        <time>2018-04-17T10:03:31Z</time>
      </trkpt>
      <trkpt lat="-21.23791" lon="55.71326">
        <ele>2479.86</ele>
        <time>2018-04-17T10:03:36Z</time>
      </trkpt>
      <trkpt lat="-21.23787" lon="55.71316">
        <ele>2480.34</ele>
        <time>2018-04-17T10:03:49Z</time>
      </trkpt>
      <trkpt lat="-21.23786" lon="55.71311">
        <ele>2480.82</ele>
        <time>2018-04-17T10:04:02Z</time>
      </trkpt>
      <trkpt lat="-21.23785" lon="55.71311">
        <ele>2481.78</ele>
        <time>2018-04-17T10:04:24Z</time>
      </trkpt>
      <trkpt lat="-21.23784" lon="55.71309">
        <ele>2483.22</ele>
        <time>2018-04-17T10:04:39Z</time>
      </trkpt>
      <trkpt lat="-21.23779" lon="55.71306">
        <ele>2481.3</ele>
        <time>2018-04-17T10:04:54Z</time>
      </trkpt>
      <trkpt lat="-21.23773" lon="55.71301">
        <ele>2481.78</ele>
        <time>2018-04-17T10:05:08Z</time>
      </trkpt>
      <trkpt lat="-21.23773" lon="55.71301">
        <ele>2481.3</ele>
        <time>2018-04-17T10:05:34Z</time>
      </trkpt>
      <trkpt lat="-21.23772" lon="55.713">
        <ele>2482.26</ele>
        <time>2018-04-17T10:06:03Z</time>
      </trkpt>
      <trkpt lat="-21.23768" lon="55.71296">
        <ele>2481.3</ele>
        <time>2018-04-17T10:06:27Z</time>
      </trkpt>
      <trkpt lat="-21.23766" lon="55.71294">
        <ele>2481.3</ele>
        <time>2018-04-17T10:06:30Z</time>
      </trkpt>
      <trkpt lat="-21.23761" lon="55.71282">
        <ele>2482.26</ele>
        <time>2018-04-17T10:06:44Z</time>
      </trkpt>
      <trkpt lat="-21.23757" lon="55.71273">
        <ele>2480.82</ele>
        <time>2018-04-17T10:06:54Z</time>
      </trkpt>
      <trkpt lat="-21.2376" lon="55.71257">
        <ele>2478.42</ele>
        <time>2018-04-17T10:07:10Z</time>
      </trkpt>
      <trkpt lat="-21.23765" lon="55.71247">
        <ele>2478.42</ele>
        <time>2018-04-17T10:07:24Z</time>
      </trkpt>
      <trkpt lat="-21.23767" lon="55.71243">
        <ele>2478.42</ele>
        <time>2018-04-17T10:07:29Z</time>
      </trkpt>
      <trkpt lat="-21.23762" lon="55.71232">
        <ele>2480.82</ele>
        <time>2018-04-17T10:07:41Z</time>
      </trkpt>
      <trkpt lat="-21.23762" lon="55.71228">
        <ele>2481.78</ele>
        <time>2018-04-17T10:07:45Z</time>
      </trkpt>
      <trkpt lat="-21.2376" lon="55.71219">
        <ele>2483.22</ele>
        <time>2018-04-17T10:07:58Z</time>
      </trkpt>
      <trkpt lat="-21.23762" lon="55.71213">
        <ele>2484.18</ele>
        <time>2018-04-17T10:08:14Z</time>
      </trkpt>
      <trkpt lat="-21.23763" lon="55.7121">
        <ele>2484.66</ele>
        <time>2018-04-17T10:08:17Z</time>
      </trkpt>
      <trkpt lat="-21.23761" lon="55.71201">
        <ele>2484.66</ele>
        <time>2018-04-17T10:08:25Z</time>
      </trkpt>
      <trkpt lat="-21.23763" lon="55.71187">
        <ele>2483.22</ele>
        <time>2018-04-17T10:08:39Z</time>
      </trkpt>
      <trkpt lat="-21.23764" lon="55.71182">
        <ele>2481.3</ele>
        <time>2018-04-17T10:08:51Z</time>
      </trkpt>
      <trkpt lat="-21.23763" lon="55.7118">
        <ele>2480.82</ele>
        <time>2018-04-17T10:08:53Z</time>
      </trkpt>
      <trkpt lat="-21.23756" lon="55.71168">
        <ele>2478.42</ele>
        <time>2018-04-17T10:09:08Z</time>
      </trkpt>
      <trkpt lat="-21.23756" lon="55.71167">
        <ele>2478.42</ele>
        <time>2018-04-17T10:09:09Z</time>
      </trkpt>
      <trkpt lat="-21.23748" lon="55.71152">
        <ele>2478.42</ele>
        <time>2018-04-17T10:09:25Z</time>
      </trkpt>
      <trkpt lat="-21.23743" lon="55.71138">
        <ele>2477.94</ele>
        <time>2018-04-17T10:09:40Z</time>
      </trkpt>
      <trkpt lat="-21.23738" lon="55.71125">
        <ele>2477.94</ele>
        <time>2018-04-17T10:09:54Z</time>
      </trkpt>
      <trkpt lat="-21.23736" lon="55.71122">
        <ele>2478.9</ele>
        <time>2018-04-17T10:09:58Z</time>
      </trkpt>
      <trkpt lat="-21.23735" lon="55.71114">
        <ele>2480.82</ele>
        <time>2018-04-17T10:10:12Z</time>
      </trkpt>
      <trkpt lat="-21.23734" lon="55.71111">
        <ele>2480.82</ele>
        <time>2018-04-17T10:10:22Z</time>
      </trkpt>
      <trkpt lat="-21.23731" lon="55.71109">
        <ele>2478.9</ele>
        <time>2018-04-17T10:10:36Z</time>
      </trkpt>
      <trkpt lat="-21.23731" lon="55.71104">
        <ele>2477.94</ele>
        <time>2018-04-17T10:10:47Z</time>
      </trkpt>
      <trkpt lat="-21.23736" lon="55.71094">
        <ele>2477.94</ele>
        <time>2018-04-17T10:11:01Z</time>
      </trkpt>
      <trkpt lat="-21.23736" lon="55.71091">
        <ele>2478.42</ele>
        <time>2018-04-17T10:11:04Z</time>
      </trkpt>
      <trkpt lat="-21.23739" lon="55.71081">
        <ele>2478.9</ele>
        <time>2018-04-17T10:11:16Z</time>
      </trkpt>
      <trkpt lat="-21.2374" lon="55.7108">
        <ele>2478.9</ele>
        <time>2018-04-17T10:11:18Z</time>
      </trkpt>
      <trkpt lat="-21.23741" lon="55.71078">
        <ele>2478.42</ele>
        <time>2018-04-17T10:11:20Z</time>
      </trkpt>
      <trkpt lat="-21.23742" lon="55.71068">
        <ele>2477.45</ele>
        <time>2018-04-17T10:11:32Z</time>
      </trkpt>
      <trkpt lat="-21.2374" lon="55.71065">
        <ele>2476.49</ele>
        <time>2018-04-17T10:11:39Z</time>
      </trkpt>
      <trkpt lat="-21.23737" lon="55.71062">
        <ele>2475.05</ele>
        <time>2018-04-17T10:11:46Z</time>
      </trkpt>
      <trkpt lat="-21.23734" lon="55.71056">
        <ele>2474.09</ele>
        <time>2018-04-17T10:11:58Z</time>
      </trkpt>
      <trkpt lat="-21.23733" lon="55.7105">
        <ele>2473.61</ele>
        <time>2018-04-17T10:12:15Z</time>
      </trkpt>
      <trkpt lat="-21.23729" lon="55.71045">
        <ele>2473.13</ele>
        <time>2018-04-17T10:12:26Z</time>
      </trkpt>
      <trkpt lat="-21.2373" lon="55.71039">
        <ele>2472.65</ele>
        <time>2018-04-17T10:12:32Z</time>
      </trkpt>
      <trkpt lat="-21.23727" lon="55.7103">
        <ele>2469.28</ele>
        <time>2018-04-17T10:12:45Z</time>
      </trkpt>
      <trkpt lat="-21.23722" lon="55.71025">
        <ele>2469.28</ele>
        <time>2018-04-17T10:12:57Z</time>
      </trkpt>
      <trkpt lat="-21.23721" lon="55.71022">
        <ele>2468.32</ele>
        <time>2018-04-17T10:13:05Z</time>
      </trkpt>
      <trkpt lat="-21.23719" lon="55.71017">
        <ele>2467.36</ele>
        <time>2018-04-17T10:13:12Z</time>
      </trkpt>
      <trkpt lat="-21.23718" lon="55.71016">
        <ele>2467.36</ele>
        <time>2018-04-17T10:13:14Z</time>
      </trkpt>
      <trkpt lat="-21.23717" lon="55.71009">
        <ele>2465.92</ele>
        <time>2018-04-17T10:13:26Z</time>
      </trkpt>
      <trkpt lat="-21.23714" lon="55.71003">
        <ele>2465.44</ele>
        <time>2018-04-17T10:13:37Z</time>
      </trkpt>
      <trkpt lat="-21.23714" lon="55.71002">
        <ele>2465.44</ele>
        <time>2018-04-17T10:13:38Z</time>
      </trkpt>
      <trkpt lat="-21.23715" lon="55.71">
        <ele>2465.44</ele>
        <time>2018-04-17T10:13:45Z</time>
      </trkpt>
      <trkpt lat="-21.23711" lon="55.70993">
        <ele>2463.52</ele>
        <time>2018-04-17T10:13:57Z</time>
      </trkpt>
      <trkpt lat="-21.23712" lon="55.70987">
        <ele>2462.55</ele>
        <time>2018-04-17T10:14:07Z</time>
      </trkpt>
      <trkpt lat="-21.23712" lon="55.70983">
        <ele>2462.07</ele>
        <time>2018-04-17T10:14:20Z</time>
      </trkpt>
      <trkpt lat="-21.2371" lon="55.70982">
        <ele>2461.59</ele>
        <time>2018-04-17T10:14:23Z</time>
      </trkpt>
      <trkpt lat="-21.23706" lon="55.70966">
        <ele>2459.67</ele>
        <time>2018-04-17T10:14:37Z</time>
      </trkpt>
      <trkpt lat="-21.23705" lon="55.70956">
        <ele>2459.67</ele>
        <time>2018-04-17T10:14:49Z</time>
      </trkpt>
      <trkpt lat="-21.23704" lon="55.7095">
        <ele>2459.19</ele>
        <time>2018-04-17T10:14:58Z</time>
      </trkpt>
      <trkpt lat="-21.23702" lon="55.70945">
        <ele>2461.11</ele>
        <time>2018-04-17T10:15:08Z</time>
      </trkpt>
      <trkpt lat="-21.23703" lon="55.70941">
        <ele>2460.15</ele>
        <time>2018-04-17T10:15:17Z</time>
      </trkpt>
      <trkpt lat="-21.23703" lon="55.70939">
        <ele>2459.67</ele>
        <time>2018-04-17T10:15:23Z</time>
      </trkpt>
      <trkpt lat="-21.23703" lon="55.70929">
        <ele>2457.75</ele>
        <time>2018-04-17T10:15:37Z</time>
      </trkpt>
      <trkpt lat="-21.23699" lon="55.7093">
        <ele>2455.82</ele>
        <time>2018-04-17T10:15:48Z</time>
      </trkpt>
      <trkpt lat="-21.23698" lon="55.70921">
        <ele>2455.34</ele>
        <time>2018-04-17T10:16:00Z</time>
      </trkpt>
      <trkpt lat="-21.23695" lon="55.70917">
        <ele>2454.86</ele>
        <time>2018-04-17T10:16:09Z</time>
      </trkpt>
      <trkpt lat="-21.23696" lon="55.70908">
        <ele>2453.9</ele>
        <time>2018-04-17T10:16:21Z</time>
      </trkpt>
      <trkpt lat="-21.23693" lon="55.70899">
        <ele>2451.5</ele>
        <time>2018-04-17T10:16:33Z</time>
      </trkpt>
      <trkpt lat="-21.23695" lon="55.7089">
        <ele>2449.58</ele>
        <time>2018-04-17T10:16:44Z</time>
      </trkpt>
      <trkpt lat="-21.23695" lon="55.7088">
        <ele>2451.02</ele>
        <time>2018-04-17T10:16:56Z</time>
      </trkpt>
      <trkpt lat="-21.23696" lon="55.70878">
        <ele>2451.5</ele>
        <time>2018-04-17T10:17:00Z</time>
      </trkpt>
      <trkpt lat="-21.23696" lon="55.70869">
        <ele>2451.02</ele>
        <time>2018-04-17T10:17:13Z</time>
      </trkpt>
      <trkpt lat="-21.23695" lon="55.70861">
        <ele>2450.06</ele>
        <time>2018-04-17T10:17:22Z</time>
      </trkpt>
      <trkpt lat="-21.23694" lon="55.70859">
        <ele>2450.54</ele>
        <time>2018-04-17T10:17:25Z</time>
      </trkpt>
      <trkpt lat="-21.23694" lon="55.70849">
        <ele>2450.54</ele>
        <time>2018-04-17T10:17:39Z</time>
      </trkpt>
      <trkpt lat="-21.2369" lon="55.70843">
        <ele>2449.58</ele>
        <time>2018-04-17T10:17:52Z</time>
      </trkpt>
      <trkpt lat="-21.23689" lon="55.70842">
        <ele>2449.1</ele>
        <time>2018-04-17T10:17:54Z</time>
      </trkpt>
      <trkpt lat="-21.23687" lon="55.70836">
        <ele>2448.13</ele>
        <time>2018-04-17T10:18:07Z</time>
      </trkpt>
      <trkpt lat="-21.23684" lon="55.70834">
        <ele>2447.65</ele>
        <time>2018-04-17T10:18:21Z</time>
      </trkpt>
      <trkpt lat="-21.23682" lon="55.70831">
        <ele>2447.17</ele>
        <time>2018-04-17T10:18:33Z</time>
      </trkpt>
      <trkpt lat="-21.23685" lon="55.70835">
        <ele>2448.13</ele>
        <time>2018-04-17T10:18:50Z</time>
      </trkpt>
      <trkpt lat="-21.23686" lon="55.70837">
        <ele>2449.1</ele>
        <time>2018-04-17T10:19:09Z</time>
      </trkpt>
      <trkpt lat="-21.23687" lon="55.70837">
        <ele>2451.98</ele>
        <time>2018-04-17T10:19:30Z</time>
      </trkpt>
      <trkpt lat="-21.23687" lon="55.70838">
        <ele>2451.5</ele>
        <time>2018-04-17T10:19:53Z</time>
      </trkpt>
      <trkpt lat="-21.23687" lon="55.70838">
        <ele>2450.06</ele>
        <time>2018-04-17T10:20:11Z</time>
      </trkpt>
      <trkpt lat="-21.23687" lon="55.70838">
        <ele>2449.1</ele>
        <time>2018-04-17T10:20:33Z</time>
      </trkpt>
      <trkpt lat="-21.23686" lon="55.70839">
        <ele>2450.06</ele>
        <time>2018-04-17T10:20:54Z</time>
      </trkpt>
      <trkpt lat="-21.23686" lon="55.70838">
        <ele>2449.1</ele>
        <time>2018-04-17T10:21:19Z</time>
      </trkpt>
      <trkpt lat="-21.23686" lon="55.70837">
        <ele>2450.06</ele>
        <time>2018-04-17T10:21:37Z</time>
      </trkpt>
      <trkpt lat="-21.23687" lon="55.70837">
        <ele>2450.54</ele>
        <time>2018-04-17T10:22:03Z</time>
      </trkpt>
      <trkpt lat="-21.23686" lon="55.70838">
        <ele>2449.58</ele>
        <time>2018-04-17T10:22:32Z</time>
      </trkpt>
      <trkpt lat="-21.23687" lon="55.70837">
        <ele>2450.54</ele>
        <time>2018-04-17T10:22:57Z</time>
      </trkpt>
      <trkpt lat="-21.23686" lon="55.70837">
        <ele>2450.06</ele>
        <time>2018-04-17T10:23:25Z</time>
      </trkpt>
      <trkpt lat="-21.23687" lon="55.70837">
        <ele>2450.54</ele>
        <time>2018-04-17T10:23:47Z</time>
      </trkpt>
      <trkpt lat="-21.23687" lon="55.70837">
        <ele>2450.54</ele>
        <time>2018-04-17T10:24:16Z</time>
      </trkpt>
      <trkpt lat="-21.23686" lon="55.70837">
        <ele>2451.02</ele>
        <time>2018-04-17T10:24:42Z</time>
      </trkpt>
      <trkpt lat="-21.23687" lon="55.70838">
        <ele>2450.54</ele>
        <time>2018-04-17T10:25:09Z</time>
      </trkpt>
      <trkpt lat="-21.23686" lon="55.70838">
        <ele>2452.46</ele>
        <time>2018-04-17T10:25:38Z</time>
      </trkpt>
      <trkpt lat="-21.23686" lon="55.70838">
        <ele>2452.46</ele>
        <time>2018-04-17T10:26:04Z</time>
      </trkpt>
      <trkpt lat="-21.23687" lon="55.70837">
        <ele>2453.42</ele>
        <time>2018-04-17T10:26:29Z</time>
      </trkpt>
      <trkpt lat="-21.23688" lon="55.70836">
        <ele>2451.98</ele>
        <time>2018-04-17T10:26:57Z</time>
      </trkpt>
      <trkpt lat="-21.23688" lon="55.70837">
        <ele>2451.5</ele>
        <time>2018-04-17T10:27:18Z</time>
      </trkpt>
      <trkpt lat="-21.23686" lon="55.70838">
        <ele>2453.9</ele>
        <time>2018-04-17T10:27:37Z</time>
      </trkpt>
      <trkpt lat="-21.23686" lon="55.70838">
        <ele>2452.94</ele>
        <time>2018-04-17T10:27:51Z</time>
      </trkpt>
      <trkpt lat="-21.23686" lon="55.70838">
        <ele>2452.94</ele>
        <time>2018-04-17T10:28:17Z</time>
      </trkpt>
      <trkpt lat="-21.23686" lon="55.70838">
        <ele>2452.46</ele>
        <time>2018-04-17T10:28:35Z</time>
      </trkpt>
      <trkpt lat="-21.23686" lon="55.70837">
        <ele>2452.46</ele>
        <time>2018-04-17T10:28:39Z</time>
      </trkpt>
      <trkpt lat="-21.23688" lon="55.70837">
        <ele>2447.17</ele>
        <time>2018-04-17T10:28:50Z</time>
      </trkpt>
      <trkpt lat="-21.23686" lon="55.70837">
        <ele>2446.69</ele>
        <time>2018-04-17T10:29:00Z</time>
      </trkpt>
      <trkpt lat="-21.23683" lon="55.70835">
        <ele>2445.73</ele>
        <time>2018-04-17T10:29:04Z</time>
      </trkpt>
      <trkpt lat="-21.23679" lon="55.70827">
        <ele>2443.33</ele>
        <time>2018-04-17T10:29:14Z</time>
      </trkpt>
      <trkpt lat="-21.23682" lon="55.70816">
        <ele>2439.48</ele>
        <time>2018-04-17T10:29:26Z</time>
      </trkpt>
      <trkpt lat="-21.23682" lon="55.70816">
        <ele>2440.92</ele>
        <time>2018-04-17T10:29:33Z</time>
      </trkpt>
      <trkpt lat="-21.23678" lon="55.70815">
        <ele>2437.56</ele>
        <time>2018-04-17T10:29:43Z</time>
      </trkpt>
      <trkpt lat="-21.23676" lon="55.70809">
        <ele>2435.64</ele>
        <time>2018-04-17T10:29:49Z</time>
      </trkpt>
      <trkpt lat="-21.23673" lon="55.70796">
        <ele>2434.2</ele>
        <time>2018-04-17T10:29:59Z</time>
      </trkpt>
      <trkpt lat="-21.23673" lon="55.70794">
        <ele>2434.2</ele>
        <time>2018-04-17T10:30:01Z</time>
      </trkpt>
      <trkpt lat="-21.23673" lon="55.7079">
        <ele>2434.2</ele>
        <time>2018-04-17T10:30:04Z</time>
      </trkpt>
      <trkpt lat="-21.23672" lon="55.70774">
        <ele>2432.27</ele>
        <time>2018-04-17T10:30:15Z</time>
      </trkpt>
      <trkpt lat="-21.23674" lon="55.70752">
        <ele>2432.27</ele>
        <time>2018-04-17T10:30:29Z</time>
      </trkpt>
      <trkpt lat="-21.23671" lon="55.70729">
        <ele>2429.87</ele>
        <time>2018-04-17T10:30:42Z</time>
      </trkpt>
      <trkpt lat="-21.23662" lon="55.70714">
        <ele>2426.02</ele>
        <time>2018-04-17T10:30:53Z</time>
      </trkpt>
      <trkpt lat="-21.2366" lon="55.70712">
        <ele>2426.02</ele>
        <time>2018-04-17T10:30:55Z</time>
      </trkpt>
      <trkpt lat="-21.23657" lon="55.70712">
        <ele>2426.99</ele>
        <time>2018-04-17T10:30:59Z</time>
      </trkpt>
      <trkpt lat="-21.2365" lon="55.70709">
        <ele>2425.06</ele>
        <time>2018-04-17T10:31:12Z</time>
      </trkpt>
      <trkpt lat="-21.23646" lon="55.70706">
        <ele>2423.62</ele>
        <time>2018-04-17T10:31:25Z</time>
      </trkpt>
      <trkpt lat="-21.23642" lon="55.70695">
        <ele>2420.74</ele>
        <time>2018-04-17T10:31:38Z</time>
      </trkpt>
      <trkpt lat="-21.23638" lon="55.70688">
        <ele>2418.81</ele>
        <time>2018-04-17T10:31:51Z</time>
      </trkpt>
      <trkpt lat="-21.23637" lon="55.70685">
        <ele>2417.85</ele>
        <time>2018-04-17T10:31:55Z</time>
      </trkpt>
      <trkpt lat="-21.23634" lon="55.70679">
        <ele>2415.45</ele>
        <time>2018-04-17T10:32:06Z</time>
      </trkpt>
      <trkpt lat="-21.23629" lon="55.70679">
        <ele>2414.01</ele>
        <time>2018-04-17T10:32:14Z</time>
      </trkpt>
      <trkpt lat="-21.23621" lon="55.70677">
        <ele>2410.64</ele>
        <time>2018-04-17T10:32:27Z</time>
      </trkpt>
      <trkpt lat="-21.23613" lon="55.70677">
        <ele>2408.24</ele>
        <time>2018-04-17T10:32:39Z</time>
      </trkpt>
      <trkpt lat="-21.23611" lon="55.70676">
        <ele>2407.76</ele>
        <time>2018-04-17T10:32:45Z</time>
      </trkpt>
      <trkpt lat="-21.23608" lon="55.70673">
        <ele>2407.28</ele>
        <time>2018-04-17T10:32:57Z</time>
      </trkpt>
      <trkpt lat="-21.236" lon="55.70667">
        <ele>2403.91</ele>
        <time>2018-04-17T10:33:07Z</time>
      </trkpt>
      <trkpt lat="-21.23597" lon="55.70661">
        <ele>2401.51</ele>
        <time>2018-04-17T10:33:20Z</time>
      </trkpt>
      <trkpt lat="-21.23594" lon="55.70658">
        <ele>2400.07</ele>
        <time>2018-04-17T10:33:32Z</time>
      </trkpt>
      <trkpt lat="-21.23588" lon="55.70657">
        <ele>2400.07</ele>
        <time>2018-04-17T10:33:46Z</time>
      </trkpt>
      <trkpt lat="-21.23585" lon="55.70653">
        <ele>2399.11</ele>
        <time>2018-04-17T10:33:57Z</time>
      </trkpt>
      <trkpt lat="-21.23577" lon="55.70652">
        <ele>2396.7</ele>
        <time>2018-04-17T10:34:09Z</time>
      </trkpt>
      <trkpt lat="-21.23568" lon="55.70649">
        <ele>2394.3</ele>
        <time>2018-04-17T10:34:22Z</time>
      </trkpt>
      <trkpt lat="-21.23567" lon="55.70647">
        <ele>2393.34</ele>
        <time>2018-04-17T10:34:25Z</time>
      </trkpt>
      <trkpt lat="-21.23564" lon="55.70636">
        <ele>2389.97</ele>
        <time>2018-04-17T10:34:33Z</time>
      </trkpt>
      <trkpt lat="-21.23566" lon="55.70628">
        <ele>2389.01</ele>
        <time>2018-04-17T10:34:44Z</time>
      </trkpt>
      <trkpt lat="-21.23566" lon="55.70622">
        <ele>2388.05</ele>
        <time>2018-04-17T10:34:53Z</time>
      </trkpt>
      <trkpt lat="-21.23568" lon="55.70614">
        <ele>2387.57</ele>
        <time>2018-04-17T10:35:05Z</time>
      </trkpt>
      <trkpt lat="-21.23568" lon="55.70612">
        <ele>2387.57</ele>
        <time>2018-04-17T10:35:06Z</time>
      </trkpt>
      <trkpt lat="-21.23569" lon="55.70609">
        <ele>2386.13</ele>
        <time>2018-04-17T10:35:08Z</time>
      </trkpt>
      <trkpt lat="-21.23568" lon="55.70604">
        <ele>2386.13</ele>
        <time>2018-04-17T10:35:20Z</time>
      </trkpt>
      <trkpt lat="-21.23565" lon="55.70604">
        <ele>2388.05</ele>
        <time>2018-04-17T10:35:32Z</time>
      </trkpt>
      <trkpt lat="-21.2356" lon="55.70608">
        <ele>2386.13</ele>
        <time>2018-04-17T10:35:43Z</time>
      </trkpt>
      <trkpt lat="-21.23555" lon="55.70611">
        <ele>2385.17</ele>
        <time>2018-04-17T10:35:56Z</time>
      </trkpt>
      <trkpt lat="-21.23552" lon="55.70606">
        <ele>2382.28</ele>
        <time>2018-04-17T10:36:06Z</time>
      </trkpt>
      <trkpt lat="-21.23549" lon="55.70596">
        <ele>2379.88</ele>
        <time>2018-04-17T10:36:21Z</time>
      </trkpt>
      <trkpt lat="-21.23548" lon="55.70592">
        <ele>2378.92</ele>
        <time>2018-04-17T10:36:27Z</time>
      </trkpt>
      <trkpt lat="-21.23543" lon="55.70592">
        <ele>2377.48</ele>
        <time>2018-04-17T10:36:33Z</time>
      </trkpt>
      <trkpt lat="-21.23539" lon="55.70594">
        <ele>2376.52</ele>
        <time>2018-04-17T10:36:40Z</time>
      </trkpt>
      <trkpt lat="-21.23541" lon="55.7059">
        <ele>2375.55</ele>
        <time>2018-04-17T10:36:44Z</time>
      </trkpt>
      <trkpt lat="-21.23536" lon="55.70584">
        <ele>2373.15</ele>
        <time>2018-04-17T10:36:56Z</time>
      </trkpt>
      <trkpt lat="-21.23533" lon="55.70577">
        <ele>2371.23</ele>
        <time>2018-04-17T10:37:08Z</time>
      </trkpt>
      <trkpt lat="-21.23526" lon="55.70576">
        <ele>2369.79</ele>
        <time>2018-04-17T10:37:19Z</time>
      </trkpt>
      <trkpt lat="-21.23524" lon="55.70571">
        <ele>2367.86</ele>
        <time>2018-04-17T10:37:25Z</time>
      </trkpt>
      <trkpt lat="-21.23517" lon="55.70566">
        <ele>2367.38</ele>
        <time>2018-04-17T10:37:37Z</time>
      </trkpt>
      <trkpt lat="-21.23515" lon="55.70564">
        <ele>2366.9</ele>
        <time>2018-04-17T10:37:40Z</time>
      </trkpt>
      <trkpt lat="-21.23509" lon="55.70555">
        <ele>2363.54</ele>
        <time>2018-04-17T10:37:55Z</time>
      </trkpt>
      <trkpt lat="-21.23508" lon="55.70556">
        <ele>2364.5</ele>
        <time>2018-04-17T10:38:19Z</time>
      </trkpt>
      <trkpt lat="-21.23507" lon="55.70557">
        <ele>2367.86</ele>
        <time>2018-04-17T10:38:43Z</time>
      </trkpt>
      <trkpt lat="-21.23504" lon="55.70556">
        <ele>2367.38</ele>
        <time>2018-04-17T10:38:47Z</time>
      </trkpt>
      <trkpt lat="-21.23501" lon="55.70553">
        <ele>2364.02</ele>
        <time>2018-04-17T10:38:54Z</time>
      </trkpt>
      <trkpt lat="-21.23499" lon="55.7055">
        <ele>2362.58</ele>
        <time>2018-04-17T10:38:57Z</time>
      </trkpt>
      <trkpt lat="-21.23493" lon="55.70551">
        <ele>2360.65</ele>
        <time>2018-04-17T10:39:07Z</time>
      </trkpt>
      <trkpt lat="-21.23491" lon="55.70552">
        <ele>2360.17</ele>
        <time>2018-04-17T10:39:09Z</time>
      </trkpt>
      <trkpt lat="-21.23488" lon="55.70549">
        <ele>2355.85</ele>
        <time>2018-04-17T10:39:22Z</time>
      </trkpt>
      <trkpt lat="-21.2349" lon="55.70541">
        <ele>2355.85</ele>
        <time>2018-04-17T10:39:42Z</time>
      </trkpt>
      <trkpt lat="-21.23489" lon="55.70536">
        <ele>2356.33</ele>
        <time>2018-04-17T10:39:56Z</time>
      </trkpt>
      <trkpt lat="-21.23484" lon="55.70534">
        <ele>2354.89</ele>
        <time>2018-04-17T10:40:06Z</time>
      </trkpt>
      <trkpt lat="-21.23483" lon="55.70535">
        <ele>2354.89</ele>
        <time>2018-04-17T10:40:08Z</time>
      </trkpt>
      <trkpt lat="-21.23477" lon="55.70533">
        <ele>2354.89</ele>
        <time>2018-04-17T10:40:20Z</time>
      </trkpt>
      <trkpt lat="-21.23478" lon="55.7053">
        <ele>2354.41</ele>
        <time>2018-04-17T10:40:32Z</time>
      </trkpt>
      <trkpt lat="-21.23479" lon="55.70526">
        <ele>2354.89</ele>
        <time>2018-04-17T10:40:39Z</time>
      </trkpt>
      <trkpt lat="-21.23483" lon="55.70514">
        <ele>2353.93</ele>
        <time>2018-04-17T10:40:53Z</time>
      </trkpt>
      <trkpt lat="-21.23488" lon="55.70508">
        <ele>2352.96</ele>
        <time>2018-04-17T10:41:05Z</time>
      </trkpt>
      <trkpt lat="-21.23493" lon="55.70502">
        <ele>2352.48</ele>
        <time>2018-04-17T10:41:17Z</time>
      </trkpt>
      <trkpt lat="-21.23494" lon="55.70497">
        <ele>2352.48</ele>
        <time>2018-04-17T10:41:29Z</time>
      </trkpt>
      <trkpt lat="-21.23493" lon="55.70496">
        <ele>2352.48</ele>
        <time>2018-04-17T10:41:31Z</time>
      </trkpt>
      <trkpt lat="-21.23493" lon="55.70485">
        <ele>2352</ele>
        <time>2018-04-17T10:41:45Z</time>
      </trkpt>
      <trkpt lat="-21.23492" lon="55.70477">
        <ele>2351.04</ele>
        <time>2018-04-17T10:41:59Z</time>
      </trkpt>
      <trkpt lat="-21.23494" lon="55.70473">
        <ele>2351.52</ele>
        <time>2018-04-17T10:42:06Z</time>
      </trkpt>
      <trkpt lat="-21.23495" lon="55.70467">
        <ele>2349.12</ele>
        <time>2018-04-17T10:42:19Z</time>
      </trkpt>
      <trkpt lat="-21.23494" lon="55.70465">
        <ele>2348.64</ele>
        <time>2018-04-17T10:42:35Z</time>
      </trkpt>
      <trkpt lat="-21.23493" lon="55.70465">
        <ele>2347.68</ele>
        <time>2018-04-17T10:42:54Z</time>
      </trkpt>
      <trkpt lat="-21.2349" lon="55.70464">
        <ele>2347.68</ele>
        <time>2018-04-17T10:43:05Z</time>
      </trkpt>
      <trkpt lat="-21.23489" lon="55.70464">
        <ele>2348.64</ele>
        <time>2018-04-17T10:43:27Z</time>
      </trkpt>
      <trkpt lat="-21.2349" lon="55.70464">
        <ele>2348.16</ele>
        <time>2018-04-17T10:43:41Z</time>
      </trkpt>
      <trkpt lat="-21.23488" lon="55.70463">
        <ele>2349.12</ele>
        <time>2018-04-17T10:43:54Z</time>
      </trkpt>
      <trkpt lat="-21.23487" lon="55.70463">
        <ele>2348.16</ele>
        <time>2018-04-17T10:44:08Z</time>
      </trkpt>
      <trkpt lat="-21.23482" lon="55.7046">
        <ele>2347.2</ele>
        <time>2018-04-17T10:44:21Z</time>
      </trkpt>
      <trkpt lat="-21.23481" lon="55.7046">
        <ele>2346.72</ele>
        <time>2018-04-17T10:44:40Z</time>
      </trkpt>
      <trkpt lat="-21.2348" lon="55.70455">
        <ele>2344.79</ele>
        <time>2018-04-17T10:44:56Z</time>
      </trkpt>
      <trkpt lat="-21.23477" lon="55.70455">
        <ele>2342.39</ele>
        <time>2018-04-17T10:45:09Z</time>
      </trkpt>
      <trkpt lat="-21.23477" lon="55.70453">
        <ele>2341.91</ele>
        <time>2018-04-17T10:45:22Z</time>
      </trkpt>
      <trkpt lat="-21.23473" lon="55.70452">
        <ele>2340.47</ele>
        <time>2018-04-17T10:45:27Z</time>
      </trkpt>
      <trkpt lat="-21.23469" lon="55.70443">
        <ele>2338.54</ele>
        <time>2018-04-17T10:45:35Z</time>
      </trkpt>
      <trkpt lat="-21.23466" lon="55.7044">
        <ele>2337.58</ele>
        <time>2018-04-17T10:45:38Z</time>
      </trkpt>
      <trkpt lat="-21.23464" lon="55.70438">
        <ele>2336.62</ele>
        <time>2018-04-17T10:45:42Z</time>
      </trkpt>
      <trkpt lat="-21.23462" lon="55.70437">
        <ele>2335.66</ele>
        <time>2018-04-17T10:45:44Z</time>
      </trkpt>
      <trkpt lat="-21.23459" lon="55.70426">
        <ele>2332.78</ele>
        <time>2018-04-17T10:45:56Z</time>
      </trkpt>
      <trkpt lat="-21.2346" lon="55.70419">
        <ele>2331.81</ele>
        <time>2018-04-17T10:46:05Z</time>
      </trkpt>
      <trkpt lat="-21.23455" lon="55.70411">
        <ele>2329.89</ele>
        <time>2018-04-17T10:46:15Z</time>
      </trkpt>
      <trkpt lat="-21.23455" lon="55.70409">
        <ele>2329.41</ele>
        <time>2018-04-17T10:46:17Z</time>
      </trkpt>
      <trkpt lat="-21.23452" lon="55.704">
        <ele>2327.97</ele>
        <time>2018-04-17T10:46:26Z</time>
      </trkpt>
      <trkpt lat="-21.2345" lon="55.70397">
        <ele>2327.49</ele>
        <time>2018-04-17T10:46:30Z</time>
      </trkpt>
      <trkpt lat="-21.2345" lon="55.70394">
        <ele>2326.53</ele>
        <time>2018-04-17T10:46:33Z</time>
      </trkpt>
      <trkpt lat="-21.23449" lon="55.70391">
        <ele>2327.01</ele>
        <time>2018-04-17T10:46:47Z</time>
      </trkpt>
      <trkpt lat="-21.23449" lon="55.70391">
        <ele>2327.01</ele>
        <time>2018-04-17T10:47:06Z</time>
      </trkpt>
      <trkpt lat="-21.23449" lon="55.70389">
        <ele>2328.45</ele>
        <time>2018-04-17T10:47:20Z</time>
      </trkpt>
      <trkpt lat="-21.23446" lon="55.70389">
        <ele>2329.41</ele>
        <time>2018-04-17T10:47:33Z</time>
      </trkpt>
      <trkpt lat="-21.23445" lon="55.70388">
        <ele>2330.37</ele>
        <time>2018-04-17T10:47:39Z</time>
      </trkpt>
      <trkpt lat="-21.2344" lon="55.70379">
        <ele>2328.93</ele>
        <time>2018-04-17T10:47:49Z</time>
      </trkpt>
      <trkpt lat="-21.2344" lon="55.70374">
        <ele>2327.49</ele>
        <time>2018-04-17T10:48:02Z</time>
      </trkpt>
      <trkpt lat="-21.23442" lon="55.70366">
        <ele>2326.05</ele>
        <time>2018-04-17T10:48:17Z</time>
      </trkpt>
      <trkpt lat="-21.23441" lon="55.70359">
        <ele>2325.09</ele>
        <time>2018-04-17T10:48:27Z</time>
      </trkpt>
      <trkpt lat="-21.23443" lon="55.70356">
        <ele>2324.12</ele>
        <time>2018-04-17T10:48:31Z</time>
      </trkpt>
      <trkpt lat="-21.23443" lon="55.70353">
        <ele>2324.61</ele>
        <time>2018-04-17T10:48:35Z</time>
      </trkpt>
      <trkpt lat="-21.23442" lon="55.70352">
        <ele>2324.12</ele>
        <time>2018-04-17T10:48:37Z</time>
      </trkpt>
      <trkpt lat="-21.23437" lon="55.70343">
        <ele>2323.16</ele>
        <time>2018-04-17T10:48:49Z</time>
      </trkpt>
      <trkpt lat="-21.23436" lon="55.70338">
        <ele>2321.72</ele>
        <time>2018-04-17T10:48:54Z</time>
      </trkpt>
      <trkpt lat="-21.23433" lon="55.70335">
        <ele>2320.28</ele>
        <time>2018-04-17T10:48:59Z</time>
      </trkpt>
      <trkpt lat="-21.23433" lon="55.70333">
        <ele>2319.8</ele>
        <time>2018-04-17T10:49:01Z</time>
      </trkpt>
      <trkpt lat="-21.23428" lon="55.70328">
        <ele>2318.84</ele>
        <time>2018-04-17T10:49:12Z</time>
      </trkpt>
      <trkpt lat="-21.23426" lon="55.70325">
        <ele>2319.32</ele>
        <time>2018-04-17T10:49:25Z</time>
      </trkpt>
      <trkpt lat="-21.23423" lon="55.70318">
        <ele>2315.95</ele>
        <time>2018-04-17T10:49:36Z</time>
      </trkpt>
      <trkpt lat="-21.23419" lon="55.7031">
        <ele>2314.51</ele>
        <time>2018-04-17T10:49:47Z</time>
      </trkpt>
      <trkpt lat="-21.23419" lon="55.70308">
        <ele>2314.03</ele>
        <time>2018-04-17T10:49:50Z</time>
      </trkpt>
      <trkpt lat="-21.2342" lon="55.70306">
        <ele>2313.07</ele>
        <time>2018-04-17T10:49:52Z</time>
      </trkpt>
      <trkpt lat="-21.23418" lon="55.70296">
        <ele>2311.15</ele>
        <time>2018-04-17T10:50:04Z</time>
      </trkpt>
      <trkpt lat="-21.23419" lon="55.70294">
        <ele>2310.67</ele>
        <time>2018-04-17T10:50:06Z</time>
      </trkpt>
      <trkpt lat="-21.23423" lon="55.70283">
        <ele>2308.74</ele>
        <time>2018-04-17T10:50:21Z</time>
      </trkpt>
      <trkpt lat="-21.23423" lon="55.70275">
        <ele>2307.3</ele>
        <time>2018-04-17T10:50:30Z</time>
      </trkpt>
      <trkpt lat="-21.23428" lon="55.70265">
        <ele>2306.34</ele>
        <time>2018-04-17T10:50:42Z</time>
      </trkpt>
      <trkpt lat="-21.23429" lon="55.70259">
        <ele>2305.38</ele>
        <time>2018-04-17T10:50:52Z</time>
      </trkpt>
      <trkpt lat="-21.2343" lon="55.70247">
        <ele>2302.98</ele>
        <time>2018-04-17T10:51:04Z</time>
      </trkpt>
      <trkpt lat="-21.23428" lon="55.70243">
        <ele>2303.94</ele>
        <time>2018-04-17T10:51:09Z</time>
      </trkpt>
      <trkpt lat="-21.23425" lon="55.70243">
        <ele>2304.9</ele>
        <time>2018-04-17T10:51:12Z</time>
      </trkpt>
      <trkpt lat="-21.23417" lon="55.70234">
        <ele>2303.46</ele>
        <time>2018-04-17T10:51:28Z</time>
      </trkpt>
      <trkpt lat="-21.23415" lon="55.70234">
        <ele>2303.46</ele>
        <time>2018-04-17T10:51:31Z</time>
      </trkpt>
      <trkpt lat="-21.2341" lon="55.70233">
        <ele>2301.53</ele>
        <time>2018-04-17T10:51:37Z</time>
      </trkpt>
      <trkpt lat="-21.23406" lon="55.7023">
        <ele>2301.05</ele>
        <time>2018-04-17T10:51:44Z</time>
      </trkpt>
      <trkpt lat="-21.23404" lon="55.7023">
        <ele>2301.05</ele>
        <time>2018-04-17T10:51:46Z</time>
      </trkpt>
      <trkpt lat="-21.23402" lon="55.70229">
        <ele>2301.05</ele>
        <time>2018-04-17T10:51:48Z</time>
      </trkpt>
      <trkpt lat="-21.234" lon="55.70218">
        <ele>2298.17</ele>
        <time>2018-04-17T10:51:59Z</time>
      </trkpt>
      <trkpt lat="-21.234" lon="55.70218">
        <ele>2295.77</ele>
        <time>2018-04-17T10:52:09Z</time>
      </trkpt>
      <trkpt lat="-21.23397" lon="55.70214">
        <ele>2294.8</ele>
        <time>2018-04-17T10:52:16Z</time>
      </trkpt>
      <trkpt lat="-21.23395" lon="55.70208">
        <ele>2295.28</ele>
        <time>2018-04-17T10:52:27Z</time>
      </trkpt>
      <trkpt lat="-21.2339" lon="55.70204">
        <ele>2293.84</ele>
        <time>2018-04-17T10:52:36Z</time>
      </trkpt>
      <trkpt lat="-21.23381" lon="55.70197">
        <ele>2293.36</ele>
        <time>2018-04-17T10:52:49Z</time>
      </trkpt>
      <trkpt lat="-21.23378" lon="55.70193">
        <ele>2292.88</ele>
        <time>2018-04-17T10:53:02Z</time>
      </trkpt>
      <trkpt lat="-21.23378" lon="55.70188">
        <ele>2291.92</ele>
        <time>2018-04-17T10:53:10Z</time>
      </trkpt>
      <trkpt lat="-21.23381" lon="55.70185">
        <ele>2290.96</ele>
        <time>2018-04-17T10:53:15Z</time>
      </trkpt>
      <trkpt lat="-21.23381" lon="55.70182">
        <ele>2290.96</ele>
        <time>2018-04-17T10:53:17Z</time>
      </trkpt>
      <trkpt lat="-21.23381" lon="55.70177">
        <ele>2289.04</ele>
        <time>2018-04-17T10:53:22Z</time>
      </trkpt>
      <trkpt lat="-21.2338" lon="55.70172">
        <ele>2288.56</ele>
        <time>2018-04-17T10:53:34Z</time>
      </trkpt>
      <trkpt lat="-21.2338" lon="55.70171">
        <ele>2287.11</ele>
        <time>2018-04-17T10:53:49Z</time>
      </trkpt>
      <trkpt lat="-21.23379" lon="55.70167">
        <ele>2287.59</ele>
        <time>2018-04-17T10:54:02Z</time>
      </trkpt>
      <trkpt lat="-21.23377" lon="55.70164">
        <ele>2287.59</ele>
        <time>2018-04-17T10:54:15Z</time>
      </trkpt>
      <trkpt lat="-21.23372" lon="55.70159">
        <ele>2288.08</ele>
        <time>2018-04-17T10:54:45Z</time>
      </trkpt>
      <trkpt lat="-21.23368" lon="55.70154">
        <ele>2287.11</ele>
        <time>2018-04-17T10:54:53Z</time>
      </trkpt>
      <trkpt lat="-21.23368" lon="55.70149">
        <ele>2284.71</ele>
        <time>2018-04-17T10:54:58Z</time>
      </trkpt>
      <trkpt lat="-21.23369" lon="55.70146">
        <ele>2284.71</ele>
        <time>2018-04-17T10:55:01Z</time>
      </trkpt>
      <trkpt lat="-21.23368" lon="55.70137">
        <ele>2284.71</ele>
        <time>2018-04-17T10:55:16Z</time>
      </trkpt>
      <trkpt lat="-21.23371" lon="55.70132">
        <ele>2282.31</ele>
        <time>2018-04-17T10:55:31Z</time>
      </trkpt>
      <trkpt lat="-21.23373" lon="55.70124">
        <ele>2280.87</ele>
        <time>2018-04-17T10:55:43Z</time>
      </trkpt>
      <trkpt lat="-21.23372" lon="55.70116">
        <ele>2280.38</ele>
        <time>2018-04-17T10:55:54Z</time>
      </trkpt>
      <trkpt lat="-21.23375" lon="55.70112">
        <ele>2278.94</ele>
        <time>2018-04-17T10:56:05Z</time>
      </trkpt>
      <trkpt lat="-21.23379" lon="55.70108">
        <ele>2279.42</ele>
        <time>2018-04-17T10:56:11Z</time>
      </trkpt>
      <trkpt lat="-21.23382" lon="55.701">
        <ele>2279.42</ele>
        <time>2018-04-17T10:56:20Z</time>
      </trkpt>
      <trkpt lat="-21.23385" lon="55.70098">
        <ele>2278.94</ele>
        <time>2018-04-17T10:56:24Z</time>
      </trkpt>
      <trkpt lat="-21.23388" lon="55.70094">
        <ele>2278.46</ele>
        <time>2018-04-17T10:56:35Z</time>
      </trkpt>
      <trkpt lat="-21.23391" lon="55.70089">
        <ele>2278.46</ele>
        <time>2018-04-17T10:56:48Z</time>
      </trkpt>
      <trkpt lat="-21.23392" lon="55.70089">
        <ele>2277.02</ele>
        <time>2018-04-17T10:56:53Z</time>
      </trkpt>
      <trkpt lat="-21.23395" lon="55.70088">
        <ele>2277.02</ele>
        <time>2018-04-17T10:56:57Z</time>
      </trkpt>
      <trkpt lat="-21.23404" lon="55.70087">
        <ele>2277.02</ele>
        <time>2018-04-17T10:57:09Z</time>
      </trkpt>
      <trkpt lat="-21.2341" lon="55.70082">
        <ele>2278.94</ele>
        <time>2018-04-17T10:57:21Z</time>
      </trkpt>
      <trkpt lat="-21.23413" lon="55.70074">
        <ele>2278.46</ele>
        <time>2018-04-17T10:57:30Z</time>
      </trkpt>
      <trkpt lat="-21.23413" lon="55.70065">
        <ele>2276.54</ele>
        <time>2018-04-17T10:57:43Z</time>
      </trkpt>
      <trkpt lat="-21.23412" lon="55.70055">
        <ele>2274.62</ele>
        <time>2018-04-17T10:57:56Z</time>
      </trkpt>
      <trkpt lat="-21.23408" lon="55.7005">
        <ele>2274.14</ele>
        <time>2018-04-17T10:58:05Z</time>
      </trkpt>
      <trkpt lat="-21.23405" lon="55.70047">
        <ele>2274.14</ele>
        <time>2018-04-17T10:58:10Z</time>
      </trkpt>
      <trkpt lat="-21.23404" lon="55.70044">
        <ele>2273.66</ele>
        <time>2018-04-17T10:58:13Z</time>
      </trkpt>
      <trkpt lat="-21.23401" lon="55.70036">
        <ele>2272.21</ele>
        <time>2018-04-17T10:58:22Z</time>
      </trkpt>
      <trkpt lat="-21.23402" lon="55.7003">
        <ele>2272.21</ele>
        <time>2018-04-17T10:58:28Z</time>
      </trkpt>
      <trkpt lat="-21.23398" lon="55.7002">
        <ele>2269.33</ele>
        <time>2018-04-17T10:58:41Z</time>
      </trkpt>
      <trkpt lat="-21.23394" lon="55.70012">
        <ele>2270.29</ele>
        <time>2018-04-17T10:58:49Z</time>
      </trkpt>
      <trkpt lat="-21.23394" lon="55.70005">
        <ele>2271.25</ele>
        <time>2018-04-17T10:58:56Z</time>
      </trkpt>
      <trkpt lat="-21.2339" lon="55.7">
        <ele>2270.29</ele>
        <time>2018-04-17T10:59:10Z</time>
      </trkpt>
      <trkpt lat="-21.23389" lon="55.69994">
        <ele>2268.37</ele>
        <time>2018-04-17T10:59:23Z</time>
      </trkpt>
      <trkpt lat="-21.2339" lon="55.69997">
        <ele>2268.37</ele>
        <time>2018-04-17T10:59:30Z</time>
      </trkpt>
      <trkpt lat="-21.23383" lon="55.69986">
        <ele>2268.85</ele>
        <time>2018-04-17T10:59:43Z</time>
      </trkpt>
      <trkpt lat="-21.23379" lon="55.69982">
        <ele>2268.85</ele>
        <time>2018-04-17T10:59:50Z</time>
      </trkpt>
      <trkpt lat="-21.23376" lon="55.69976">
        <ele>2267.41</ele>
        <time>2018-04-17T11:00:02Z</time>
      </trkpt>
      <trkpt lat="-21.23374" lon="55.69969">
        <ele>2266.45</ele>
        <time>2018-04-17T11:00:14Z</time>
      </trkpt>
      <trkpt lat="-21.23374" lon="55.69964">
        <ele>2266.45</ele>
        <time>2018-04-17T11:00:21Z</time>
      </trkpt>
      <trkpt lat="-21.23373" lon="55.69961">
        <ele>2266.93</ele>
        <time>2018-04-17T11:00:25Z</time>
      </trkpt>
      <trkpt lat="-21.23369" lon="55.69956">
        <ele>2266.93</ele>
        <time>2018-04-17T11:00:39Z</time>
      </trkpt>
      <trkpt lat="-21.23367" lon="55.6995">
        <ele>2267.41</ele>
        <time>2018-04-17T11:00:51Z</time>
      </trkpt>
      <trkpt lat="-21.23367" lon="55.6995">
        <ele>2266.93</ele>
        <time>2018-04-17T11:00:52Z</time>
      </trkpt>
      <trkpt lat="-21.23366" lon="55.69946">
        <ele>2266.45</ele>
        <time>2018-04-17T11:00:59Z</time>
      </trkpt>
      <trkpt lat="-21.2336" lon="55.69938">
        <ele>2264.52</ele>
        <time>2018-04-17T11:01:11Z</time>
      </trkpt>
      <trkpt lat="-21.23357" lon="55.69932">
        <ele>2264.52</ele>
        <time>2018-04-17T11:01:23Z</time>
      </trkpt>
      <trkpt lat="-21.23355" lon="55.69923">
        <ele>2263.08</ele>
        <time>2018-04-17T11:01:33Z</time>
      </trkpt>
      <trkpt lat="-21.23355" lon="55.69916">
        <ele>2263.08</ele>
        <time>2018-04-17T11:01:46Z</time>
      </trkpt>
      <trkpt lat="-21.23354" lon="55.69902">
        <ele>2261.16</ele>
        <time>2018-04-17T11:02:03Z</time>
      </trkpt>
      <trkpt lat="-21.23355" lon="55.69896">
        <ele>2259.72</ele>
        <time>2018-04-17T11:02:16Z</time>
      </trkpt>
      <trkpt lat="-21.23356" lon="55.69892">
        <ele>2260.2</ele>
        <time>2018-04-17T11:02:32Z</time>
      </trkpt>
      <trkpt lat="-21.23355" lon="55.69889">
        <ele>2260.2</ele>
        <time>2018-04-17T11:02:41Z</time>
      </trkpt>
      <trkpt lat="-21.2335" lon="55.69886">
        <ele>2259.24</ele>
        <time>2018-04-17T11:02:52Z</time>
      </trkpt>
      <trkpt lat="-21.23356" lon="55.69884">
        <ele>2258.75</ele>
        <time>2018-04-17T11:02:59Z</time>
      </trkpt>
      <trkpt lat="-21.23355" lon="55.6988">
        <ele>2262.12</ele>
        <time>2018-04-17T11:03:15Z</time>
      </trkpt>
      <trkpt lat="-21.2335" lon="55.69882">
        <ele>2262.6</ele>
        <time>2018-04-17T11:03:27Z</time>
      </trkpt>
      <trkpt lat="-21.23345" lon="55.69884">
        <ele>2262.6</ele>
        <time>2018-04-17T11:03:41Z</time>
      </trkpt>
      <trkpt lat="-21.23342" lon="55.69884">
        <ele>2262.12</ele>
        <time>2018-04-17T11:03:45Z</time>
      </trkpt>
      <trkpt lat="-21.23339" lon="55.69886">
        <ele>2262.12</ele>
        <time>2018-04-17T11:03:49Z</time>
      </trkpt>
      <trkpt lat="-21.23332" lon="55.6988">
        <ele>2260.68</ele>
        <time>2018-04-17T11:04:02Z</time>
      </trkpt>
      <trkpt lat="-21.23328" lon="55.69881">
        <ele>2260.68</ele>
        <time>2018-04-17T11:04:16Z</time>
      </trkpt>
      <trkpt lat="-21.2332" lon="55.69875">
        <ele>2258.75</ele>
        <time>2018-04-17T11:04:30Z</time>
      </trkpt>
      <trkpt lat="-21.23315" lon="55.69869">
        <ele>2258.27</ele>
        <time>2018-04-17T11:04:42Z</time>
      </trkpt>
      <trkpt lat="-21.23311" lon="55.69866">
        <ele>2257.31</ele>
        <time>2018-04-17T11:04:50Z</time>
      </trkpt>
      <trkpt lat="-21.23312" lon="55.69862">
        <ele>2256.35</ele>
        <time>2018-04-17T11:05:06Z</time>
      </trkpt>
      <trkpt lat="-21.23309" lon="55.69861">
        <ele>2255.87</ele>
        <time>2018-04-17T11:05:23Z</time>
      </trkpt>
      <trkpt lat="-21.23296" lon="55.69858">
        <ele>2257.79</ele>
        <time>2018-04-17T11:05:36Z</time>
      </trkpt>
      <trkpt lat="-21.23287" lon="55.69854">
        <ele>2257.79</ele>
        <time>2018-04-17T11:05:47Z</time>
      </trkpt>
      <trkpt lat="-21.23289" lon="55.69849">
        <ele>2254.91</ele>
        <time>2018-04-17T11:05:59Z</time>
      </trkpt>
      <trkpt lat="-21.23288" lon="55.69842">
        <ele>2252.51</ele>
        <time>2018-04-17T11:06:11Z</time>
      </trkpt>
      <trkpt lat="-21.23282" lon="55.69838">
        <ele>2251.54</ele>
        <time>2018-04-17T11:06:19Z</time>
      </trkpt>
      <trkpt lat="-21.2328" lon="55.69832">
        <ele>2249.62</ele>
        <time>2018-04-17T11:06:32Z</time>
      </trkpt>
      <trkpt lat="-21.23277" lon="55.6983">
        <ele>2250.1</ele>
        <time>2018-04-17T11:06:36Z</time>
      </trkpt>
      <trkpt lat="-21.23273" lon="55.69826">
        <ele>2251.06</ele>
        <time>2018-04-17T11:06:44Z</time>
      </trkpt>
      <trkpt lat="-21.23268" lon="55.69823">
        <ele>2250.58</ele>
        <time>2018-04-17T11:06:50Z</time>
      </trkpt>
      <trkpt lat="-21.23257" lon="55.69821">
        <ele>2250.1</ele>
        <time>2018-04-17T11:07:01Z</time>
      </trkpt>
      <trkpt lat="-21.23252" lon="55.69816">
        <ele>2249.62</ele>
        <time>2018-04-17T11:07:14Z</time>
      </trkpt>
      <trkpt lat="-21.23247" lon="55.69812">
        <ele>2249.14</ele>
        <time>2018-04-17T11:07:22Z</time>
      </trkpt>
      <trkpt lat="-21.23243" lon="55.69806">
        <ele>2247.7</ele>
        <time>2018-04-17T11:07:31Z</time>
      </trkpt>
      <trkpt lat="-21.23231" lon="55.69803">
        <ele>2247.7</ele>
        <time>2018-04-17T11:07:45Z</time>
      </trkpt>
      <trkpt lat="-21.23223" lon="55.69797">
        <ele>2248.18</ele>
        <time>2018-04-17T11:07:59Z</time>
      </trkpt>
      <trkpt lat="-21.23219" lon="55.69796">
        <ele>2248.66</ele>
        <time>2018-04-17T11:08:04Z</time>
      </trkpt>
      <trkpt lat="-21.23217" lon="55.69796">
        <ele>2247.7</ele>
        <time>2018-04-17T11:08:15Z</time>
      </trkpt>
      <trkpt lat="-21.2321" lon="55.69792">
        <ele>2248.18</ele>
        <time>2018-04-17T11:08:28Z</time>
      </trkpt>
      <trkpt lat="-21.23208" lon="55.69791">
        <ele>2246.74</ele>
        <time>2018-04-17T11:08:36Z</time>
      </trkpt>
      <trkpt lat="-21.2321" lon="55.69792">
        <ele>2244.33</ele>
        <time>2018-04-17T11:08:47Z</time>
      </trkpt>
      <trkpt lat="-21.23207" lon="55.69789">
        <ele>2246.74</ele>
        <time>2018-04-17T11:09:06Z</time>
      </trkpt>
      <trkpt lat="-21.23205" lon="55.6979">
        <ele>2246.74</ele>
        <time>2018-04-17T11:09:08Z</time>
      </trkpt>
      <trkpt lat="-21.23198" lon="55.69791">
        <ele>2247.7</ele>
        <time>2018-04-17T11:09:17Z</time>
      </trkpt>
      <trkpt lat="-21.23194" lon="55.69788">
        <ele>2245.78</ele>
        <time>2018-04-17T11:09:27Z</time>
      </trkpt>
      <trkpt lat="-21.23187" lon="55.6978">
        <ele>2244.82</ele>
        <time>2018-04-17T11:09:39Z</time>
      </trkpt>
      <trkpt lat="-21.23184" lon="55.69779">
        <ele>2244.82</ele>
        <time>2018-04-17T11:09:42Z</time>
      </trkpt>
      <trkpt lat="-21.23179" lon="55.69772">
        <ele>2243.85</ele>
        <time>2018-04-17T11:09:53Z</time>
      </trkpt>
      <trkpt lat="-21.23178" lon="55.69771">
        <ele>2243.85</ele>
        <time>2018-04-17T11:09:54Z</time>
      </trkpt>
      <trkpt lat="-21.23171" lon="55.69764">
        <ele>2243.37</ele>
        <time>2018-04-17T11:10:07Z</time>
      </trkpt>
      <trkpt lat="-21.23166" lon="55.69762">
        <ele>2242.89</ele>
        <time>2018-04-17T11:10:20Z</time>
      </trkpt>
      <trkpt lat="-21.23163" lon="55.69763">
        <ele>2242.41</ele>
        <time>2018-04-17T11:10:36Z</time>
      </trkpt>
      <trkpt lat="-21.2316" lon="55.6976">
        <ele>2240.01</ele>
        <time>2018-04-17T11:10:48Z</time>
      </trkpt>
      <trkpt lat="-21.23159" lon="55.6976">
        <ele>2239.53</ele>
        <time>2018-04-17T11:10:50Z</time>
      </trkpt>
      <trkpt lat="-21.23154" lon="55.69762">
        <ele>2239.53</ele>
        <time>2018-04-17T11:10:54Z</time>
      </trkpt>
      <trkpt lat="-21.23152" lon="55.6976">
        <ele>2238.57</ele>
        <time>2018-04-17T11:10:58Z</time>
      </trkpt>
      <trkpt lat="-21.23149" lon="55.69758">
        <ele>2238.09</ele>
        <time>2018-04-17T11:11:01Z</time>
      </trkpt>
      <trkpt lat="-21.23144" lon="55.69757">
        <ele>2237.13</ele>
        <time>2018-04-17T11:11:10Z</time>
      </trkpt>
      <trkpt lat="-21.23141" lon="55.69756">
        <ele>2238.57</ele>
        <time>2018-04-17T11:11:23Z</time>
      </trkpt>
      <trkpt lat="-21.23136" lon="55.6975">
        <ele>2237.13</ele>
        <time>2018-04-17T11:11:35Z</time>
      </trkpt>
      <trkpt lat="-21.23128" lon="55.69748">
        <ele>2236.64</ele>
        <time>2018-04-17T11:11:45Z</time>
      </trkpt>
      <trkpt lat="-21.23123" lon="55.69746">
        <ele>2237.13</ele>
        <time>2018-04-17T11:11:52Z</time>
      </trkpt>
      <trkpt lat="-21.23118" lon="55.6974">
        <ele>2236.64</ele>
        <time>2018-04-17T11:12:01Z</time>
      </trkpt>
      <trkpt lat="-21.23112" lon="55.69737">
        <ele>2236.64</ele>
        <time>2018-04-17T11:12:12Z</time>
      </trkpt>
      <trkpt lat="-21.23108" lon="55.69736">
        <ele>2236.64</ele>
        <time>2018-04-17T11:12:17Z</time>
      </trkpt>
      <trkpt lat="-21.231" lon="55.69736">
        <ele>2236.64</ele>
        <time>2018-04-17T11:12:29Z</time>
      </trkpt>
      <trkpt lat="-21.23092" lon="55.69733">
        <ele>2236.64</ele>
        <time>2018-04-17T11:12:42Z</time>
      </trkpt>
      <trkpt lat="-21.23083" lon="55.69731">
        <ele>2236.64</ele>
        <time>2018-04-17T11:12:55Z</time>
      </trkpt>
      <trkpt lat="-21.2308" lon="55.69726">
        <ele>2235.2</ele>
        <time>2018-04-17T11:13:06Z</time>
      </trkpt>
      <trkpt lat="-21.23079" lon="55.69726">
        <ele>2234.72</ele>
        <time>2018-04-17T11:13:09Z</time>
      </trkpt>
      <trkpt lat="-21.23067" lon="55.69718">
        <ele>2235.2</ele>
        <time>2018-04-17T11:13:25Z</time>
      </trkpt>
      <trkpt lat="-21.23063" lon="55.69711">
        <ele>2235.2</ele>
        <time>2018-04-17T11:13:35Z</time>
      </trkpt>
      <trkpt lat="-21.23062" lon="55.69705">
        <ele>2234.72</ele>
        <time>2018-04-17T11:13:49Z</time>
      </trkpt>
      <trkpt lat="-21.23059" lon="55.697">
        <ele>2234.24</ele>
        <time>2018-04-17T11:14:03Z</time>
      </trkpt>
      <trkpt lat="-21.23059" lon="55.697">
        <ele>2235.68</ele>
        <time>2018-04-17T11:14:29Z</time>
      </trkpt>
      <trkpt lat="-21.23055" lon="55.69694">
        <ele>2234.72</ele>
        <time>2018-04-17T11:14:46Z</time>
      </trkpt>
      <trkpt lat="-21.23049" lon="55.69688">
        <ele>2232.8</ele>
        <time>2018-04-17T11:15:00Z</time>
      </trkpt>
      <trkpt lat="-21.23041" lon="55.69682">
        <ele>2232.8</ele>
        <time>2018-04-17T11:15:14Z</time>
      </trkpt>
      <trkpt lat="-21.23033" lon="55.69678">
        <ele>2233.28</ele>
        <time>2018-04-17T11:15:26Z</time>
      </trkpt>
      <trkpt lat="-21.23027" lon="55.6967">
        <ele>2233.28</ele>
        <time>2018-04-17T11:15:39Z</time>
      </trkpt>
      <trkpt lat="-21.23024" lon="55.69667">
        <ele>2233.76</ele>
        <time>2018-04-17T11:15:44Z</time>
      </trkpt>
      <trkpt lat="-21.23019" lon="55.69655">
        <ele>2233.28</ele>
        <time>2018-04-17T11:15:58Z</time>
      </trkpt>
      <trkpt lat="-21.23013" lon="55.69652">
        <ele>2233.76</ele>
        <time>2018-04-17T11:16:05Z</time>
      </trkpt>
      <trkpt lat="-21.23005" lon="55.6965">
        <ele>2233.76</ele>
        <time>2018-04-17T11:16:17Z</time>
      </trkpt>
      <trkpt lat="-21.23002" lon="55.69651">
        <ele>2233.76</ele>
        <time>2018-04-17T11:16:21Z</time>
      </trkpt>
      <trkpt lat="-21.22995" lon="55.69646">
        <ele>2233.76</ele>
        <time>2018-04-17T11:16:34Z</time>
      </trkpt>
      <trkpt lat="-21.22989" lon="55.69639">
        <ele>2232.8</ele>
        <time>2018-04-17T11:16:45Z</time>
      </trkpt>
      <trkpt lat="-21.22985" lon="55.69633">
        <ele>2231.84</ele>
        <time>2018-04-17T11:16:56Z</time>
      </trkpt>
      <trkpt lat="-21.22981" lon="55.69632">
        <ele>2230.88</ele>
        <time>2018-04-17T11:17:04Z</time>
      </trkpt>
      <trkpt lat="-21.22976" lon="55.69625">
        <ele>2231.36</ele>
        <time>2018-04-17T11:17:13Z</time>
      </trkpt>
      <trkpt lat="-21.22967" lon="55.69619">
        <ele>2232.32</ele>
        <time>2018-04-17T11:17:27Z</time>
      </trkpt>
      <trkpt lat="-21.22959" lon="55.69608">
        <ele>2231.84</ele>
        <time>2018-04-17T11:17:42Z</time>
      </trkpt>
      <trkpt lat="-21.22951" lon="55.69601">
        <ele>2230.88</ele>
        <time>2018-04-17T11:17:55Z</time>
      </trkpt>
      <trkpt lat="-21.22946" lon="55.69594">
        <ele>2228.95</ele>
        <time>2018-04-17T11:18:07Z</time>
      </trkpt>
      <trkpt lat="-21.22941" lon="55.69591">
        <ele>2227.99</ele>
        <time>2018-04-17T11:18:19Z</time>
      </trkpt>
      <trkpt lat="-21.22932" lon="55.69584">
        <ele>2227.03</ele>
        <time>2018-04-17T11:18:33Z</time>
      </trkpt>
      <trkpt lat="-21.22924" lon="55.69578">
        <ele>2227.03</ele>
        <time>2018-04-17T11:18:47Z</time>
      </trkpt>
      <trkpt lat="-21.22919" lon="55.69576">
        <ele>2227.99</ele>
        <time>2018-04-17T11:19:00Z</time>
      </trkpt>
      <trkpt lat="-21.22908" lon="55.69569">
        <ele>2227.51</ele>
        <time>2018-04-17T11:19:15Z</time>
      </trkpt>
      <trkpt lat="-21.22899" lon="55.69564">
        <ele>2226.55</ele>
        <time>2018-04-17T11:19:26Z</time>
      </trkpt>
      <trkpt lat="-21.2289" lon="55.69556">
        <ele>2227.03</ele>
        <time>2018-04-17T11:19:39Z</time>
      </trkpt>
      <trkpt lat="-21.2288" lon="55.69548">
        <ele>2226.55</ele>
        <time>2018-04-17T11:19:52Z</time>
      </trkpt>
      <trkpt lat="-21.22871" lon="55.69543">
        <ele>2227.03</ele>
        <time>2018-04-17T11:20:03Z</time>
      </trkpt>
      <trkpt lat="-21.22868" lon="55.6954">
        <ele>2226.55</ele>
        <time>2018-04-17T11:20:11Z</time>
      </trkpt>
      <trkpt lat="-21.22861" lon="55.69534">
        <ele>2226.55</ele>
        <time>2018-04-17T11:20:21Z</time>
      </trkpt>
      <trkpt lat="-21.22861" lon="55.69532">
        <ele>2226.07</ele>
        <time>2018-04-17T11:20:23Z</time>
      </trkpt>
      <trkpt lat="-21.22859" lon="55.69532">
        <ele>2226.07</ele>
        <time>2018-04-17T11:20:25Z</time>
      </trkpt>
      <trkpt lat="-21.22853" lon="55.69528">
        <ele>2226.55</ele>
        <time>2018-04-17T11:20:34Z</time>
      </trkpt>
      <trkpt lat="-21.22842" lon="55.69522">
        <ele>2226.55</ele>
        <time>2018-04-17T11:20:48Z</time>
      </trkpt>
      <trkpt lat="-21.22832" lon="55.69513">
        <ele>2225.59</ele>
        <time>2018-04-17T11:21:03Z</time>
      </trkpt>
      <trkpt lat="-21.22823" lon="55.69506">
        <ele>2225.11</ele>
        <time>2018-04-17T11:21:15Z</time>
      </trkpt>
      <trkpt lat="-21.22817" lon="55.69501">
        <ele>2224.63</ele>
        <time>2018-04-17T11:21:29Z</time>
      </trkpt>
      <trkpt lat="-21.22807" lon="55.69493">
        <ele>2225.59</ele>
        <time>2018-04-17T11:21:43Z</time>
      </trkpt>
      <trkpt lat="-21.22805" lon="55.69492">
        <ele>2225.59</ele>
        <time>2018-04-17T11:21:46Z</time>
      </trkpt>
      <trkpt lat="-21.22804" lon="55.69491">
        <ele>2225.59</ele>
        <time>2018-04-17T11:21:48Z</time>
      </trkpt>
      <trkpt lat="-21.22794" lon="55.69482">
        <ele>2225.59</ele>
        <time>2018-04-17T11:22:02Z</time>
      </trkpt>
      <trkpt lat="-21.22785" lon="55.69474">
        <ele>2225.11</ele>
        <time>2018-04-17T11:22:16Z</time>
      </trkpt>
      <trkpt lat="-21.22781" lon="55.69471">
        <ele>2224.63</ele>
        <time>2018-04-17T11:22:24Z</time>
      </trkpt>
      <trkpt lat="-21.22774" lon="55.69462">
        <ele>2223.67</ele>
        <time>2018-04-17T11:22:38Z</time>
      </trkpt>
      <trkpt lat="-21.22767" lon="55.69456">
        <ele>2223.19</ele>
        <time>2018-04-17T11:22:51Z</time>
      </trkpt>
      <trkpt lat="-21.22763" lon="55.69455">
        <ele>2223.19</ele>
        <time>2018-04-17T11:22:57Z</time>
      </trkpt>
      <trkpt lat="-21.22756" lon="55.69448">
        <ele>2222.71</ele>
        <time>2018-04-17T11:23:09Z</time>
      </trkpt>
      <trkpt lat="-21.22754" lon="55.69446">
        <ele>2222.71</ele>
        <time>2018-04-17T11:23:12Z</time>
      </trkpt>
      <trkpt lat="-21.2275" lon="55.69445">
        <ele>2223.19</ele>
        <time>2018-04-17T11:23:17Z</time>
      </trkpt>
      <trkpt lat="-21.22746" lon="55.69442">
        <ele>2222.71</ele>
        <time>2018-04-17T11:23:23Z</time>
      </trkpt>
      <trkpt lat="-21.22739" lon="55.69435">
        <ele>2220.78</ele>
        <time>2018-04-17T11:23:37Z</time>
      </trkpt>
      <trkpt lat="-21.22736" lon="55.6943">
        <ele>2221.26</ele>
        <time>2018-04-17T11:23:44Z</time>
      </trkpt>
      <trkpt lat="-21.22725" lon="55.69423">
        <ele>2220.78</ele>
        <time>2018-04-17T11:24:00Z</time>
      </trkpt>
      <trkpt lat="-21.22718" lon="55.69416">
        <ele>2220.3</ele>
        <time>2018-04-17T11:24:12Z</time>
      </trkpt>
      <trkpt lat="-21.22714" lon="55.69413">
        <ele>2219.82</ele>
        <time>2018-04-17T11:24:17Z</time>
      </trkpt>
      <trkpt lat="-21.22712" lon="55.69412">
        <ele>2219.82</ele>
        <time>2018-04-17T11:24:19Z</time>
      </trkpt>
      <trkpt lat="-21.2271" lon="55.69412">
        <ele>2219.82</ele>
        <time>2018-04-17T11:24:21Z</time>
      </trkpt>
      <trkpt lat="-21.22701" lon="55.69404">
        <ele>2219.34</ele>
        <time>2018-04-17T11:24:34Z</time>
      </trkpt>
      <trkpt lat="-21.22693" lon="55.69399">
        <ele>2218.86</ele>
        <time>2018-04-17T11:24:47Z</time>
      </trkpt>
      <trkpt lat="-21.22686" lon="55.69396">
        <ele>2219.34</ele>
        <time>2018-04-17T11:24:57Z</time>
      </trkpt>
      <trkpt lat="-21.22684" lon="55.69391">
        <ele>2219.34</ele>
        <time>2018-04-17T11:25:02Z</time>
      </trkpt>
      <trkpt lat="-21.22679" lon="55.69388">
        <ele>2219.34</ele>
        <time>2018-04-17T11:25:08Z</time>
      </trkpt>
      <trkpt lat="-21.22667" lon="55.69383">
        <ele>2218.86</ele>
        <time>2018-04-17T11:25:23Z</time>
      </trkpt>
      <trkpt lat="-21.22665" lon="55.69383">
        <ele>2219.34</ele>
        <time>2018-04-17T11:25:25Z</time>
      </trkpt>
      <trkpt lat="-21.22652" lon="55.69373">
        <ele>2220.3</ele>
        <time>2018-04-17T11:25:42Z</time>
      </trkpt>
      <trkpt lat="-21.22644" lon="55.69367">
        <ele>2219.82</ele>
        <time>2018-04-17T11:25:53Z</time>
      </trkpt>
      <trkpt lat="-21.22634" lon="55.6936">
        <ele>2219.82</ele>
        <time>2018-04-17T11:26:08Z</time>
      </trkpt>
      <trkpt lat="-21.22622" lon="55.69355">
        <ele>2219.34</ele>
        <time>2018-04-17T11:26:22Z</time>
      </trkpt>
      <trkpt lat="-21.2261" lon="55.69351">
        <ele>2220.3</ele>
        <time>2018-04-17T11:26:36Z</time>
      </trkpt>
      <trkpt lat="-21.22601" lon="55.69346">
        <ele>2220.78</ele>
        <time>2018-04-17T11:26:49Z</time>
      </trkpt>
      <trkpt lat="-21.22602" lon="55.69349">
        <ele>2217.42</ele>
        <time>2018-04-17T11:27:05Z</time>
      </trkpt>
      <trkpt lat="-21.22596" lon="55.69342">
        <ele>2217.9</ele>
        <time>2018-04-17T11:27:19Z</time>
      </trkpt>
      <trkpt lat="-21.22595" lon="55.69341">
        <ele>2217.9</ele>
        <time>2018-04-17T11:27:20Z</time>
      </trkpt>
      <trkpt lat="-21.22586" lon="55.69336">
        <ele>2218.38</ele>
        <time>2018-04-17T11:27:32Z</time>
      </trkpt>
      <trkpt lat="-21.22574" lon="55.6933">
        <ele>2218.38</ele>
        <time>2018-04-17T11:27:46Z</time>
      </trkpt>
      <trkpt lat="-21.22565" lon="55.69326">
        <ele>2219.34</ele>
        <time>2018-04-17T11:27:55Z</time>
      </trkpt>
      <trkpt lat="-21.22563" lon="55.69324">
        <ele>2219.34</ele>
        <time>2018-04-17T11:27:57Z</time>
      </trkpt>
      <trkpt lat="-21.22552" lon="55.69319">
        <ele>2218.86</ele>
        <time>2018-04-17T11:28:12Z</time>
      </trkpt>
      <trkpt lat="-21.22549" lon="55.69316">
        <ele>2218.38</ele>
        <time>2018-04-17T11:28:27Z</time>
      </trkpt>
      <trkpt lat="-21.22544" lon="55.69311">
        <ele>2217.9</ele>
        <time>2018-04-17T11:28:35Z</time>
      </trkpt>
      <trkpt lat="-21.22539" lon="55.69307">
        <ele>2217.42</ele>
        <time>2018-04-17T11:28:42Z</time>
      </trkpt>
      <trkpt lat="-21.2253" lon="55.69298">
        <ele>2216.46</ele>
        <time>2018-04-17T11:28:56Z</time>
      </trkpt>
      <trkpt lat="-21.22518" lon="55.69291">
        <ele>2216.46</ele>
        <time>2018-04-17T11:29:10Z</time>
      </trkpt>
      <trkpt lat="-21.22507" lon="55.69285">
        <ele>2216.94</ele>
        <time>2018-04-17T11:29:24Z</time>
      </trkpt>
      <trkpt lat="-21.22496" lon="55.69284">
        <ele>2216.94</ele>
        <time>2018-04-17T11:29:36Z</time>
      </trkpt>
      <trkpt lat="-21.22493" lon="55.69284">
        <ele>2216.46</ele>
        <time>2018-04-17T11:29:39Z</time>
      </trkpt>
      <trkpt lat="-21.22489" lon="55.69282">
        <ele>2215.98</ele>
        <time>2018-04-17T11:29:44Z</time>
      </trkpt>
      <trkpt lat="-21.22485" lon="55.69282">
        <ele>2215.98</ele>
        <time>2018-04-17T11:29:48Z</time>
      </trkpt>
      <trkpt lat="-21.22471" lon="55.69278">
        <ele>2216.94</ele>
        <time>2018-04-17T11:30:04Z</time>
      </trkpt>
      <trkpt lat="-21.22464" lon="55.69277">
        <ele>2216.46</ele>
        <time>2018-04-17T11:30:18Z</time>
      </trkpt>
      <trkpt lat="-21.22463" lon="55.69276">
        <ele>2216.46</ele>
        <time>2018-04-17T11:30:19Z</time>
      </trkpt>
      <trkpt lat="-21.22461" lon="55.69277">
        <ele>2216.46</ele>
        <time>2018-04-17T11:30:21Z</time>
      </trkpt>
      <trkpt lat="-21.22457" lon="55.69278">
        <ele>2215.98</ele>
        <time>2018-04-17T11:30:26Z</time>
      </trkpt>
      <trkpt lat="-21.22453" lon="55.69279">
        <ele>2215.5</ele>
        <time>2018-04-17T11:30:30Z</time>
      </trkpt>
      <trkpt lat="-21.22447" lon="55.69275">
        <ele>2215.98</ele>
        <time>2018-04-17T11:30:43Z</time>
      </trkpt>
      <trkpt lat="-21.22435" lon="55.69279">
        <ele>2215.98</ele>
        <time>2018-04-17T11:30:57Z</time>
      </trkpt>
      <trkpt lat="-21.22431" lon="55.69281">
        <ele>2215.98</ele>
        <time>2018-04-17T11:31:01Z</time>
      </trkpt>
      <trkpt lat="-21.22418" lon="55.69281">
        <ele>2215.5</ele>
        <time>2018-04-17T11:31:15Z</time>
      </trkpt>
      <trkpt lat="-21.22407" lon="55.69278">
        <ele>2215.5</ele>
        <time>2018-04-17T11:31:28Z</time>
      </trkpt>
      <trkpt lat="-21.22395" lon="55.69276">
        <ele>2215.5</ele>
        <time>2018-04-17T11:31:42Z</time>
      </trkpt>
      <trkpt lat="-21.22385" lon="55.69278">
        <ele>2215.98</ele>
        <time>2018-04-17T11:31:57Z</time>
      </trkpt>
      <trkpt lat="-21.22377" lon="55.69272">
        <ele>2214.53</ele>
        <time>2018-04-17T11:32:10Z</time>
      </trkpt>
      <trkpt lat="-21.22376" lon="55.69272">
        <ele>2214.53</ele>
        <time>2018-04-17T11:32:11Z</time>
      </trkpt>
      <trkpt lat="-21.22372" lon="55.69269">
        <ele>2215.01</ele>
        <time>2018-04-17T11:32:17Z</time>
      </trkpt>
      <trkpt lat="-21.22364" lon="55.69263">
        <ele>2214.53</ele>
        <time>2018-04-17T11:32:29Z</time>
      </trkpt>
      <trkpt lat="-21.22362" lon="55.69261">
        <ele>2214.53</ele>
        <time>2018-04-17T11:32:31Z</time>
      </trkpt>
      <trkpt lat="-21.22356" lon="55.69256">
        <ele>2215.01</ele>
        <time>2018-04-17T11:32:40Z</time>
      </trkpt>
      <trkpt lat="-21.22354" lon="55.69255">
        <ele>2214.53</ele>
        <time>2018-04-17T11:32:42Z</time>
      </trkpt>
      <trkpt lat="-21.22348" lon="55.69245">
        <ele>2213.09</ele>
        <time>2018-04-17T11:32:56Z</time>
      </trkpt>
      <trkpt lat="-21.22342" lon="55.69237">
        <ele>2213.57</ele>
        <time>2018-04-17T11:33:10Z</time>
      </trkpt>
      <trkpt lat="-21.22329" lon="55.69235">
        <ele>2213.57</ele>
        <time>2018-04-17T11:33:24Z</time>
      </trkpt>
      <trkpt lat="-21.22324" lon="55.69234">
        <ele>2213.57</ele>
        <time>2018-04-17T11:33:30Z</time>
      </trkpt>
      <trkpt lat="-21.22314" lon="55.69227">
        <ele>2213.09</ele>
        <time>2018-04-17T11:33:44Z</time>
      </trkpt>
      <trkpt lat="-21.2231" lon="55.69227">
        <ele>2213.09</ele>
        <time>2018-04-17T11:33:48Z</time>
      </trkpt>
      <trkpt lat="-21.22306" lon="55.69223">
        <ele>2212.61</ele>
        <time>2018-04-17T11:33:54Z</time>
      </trkpt>
      <trkpt lat="-21.22298" lon="55.69214">
        <ele>2212.61</ele>
        <time>2018-04-17T11:34:06Z</time>
      </trkpt>
      <trkpt lat="-21.2228" lon="55.69211">
        <ele>2215.01</ele>
        <time>2018-04-17T11:34:23Z</time>
      </trkpt>
      <trkpt lat="-21.2227" lon="55.69208">
        <ele>2215.01</ele>
        <time>2018-04-17T11:34:36Z</time>
      </trkpt>
      <trkpt lat="-21.22266" lon="55.69206">
        <ele>2214.53</ele>
        <time>2018-04-17T11:34:42Z</time>
      </trkpt>
      <trkpt lat="-21.22254" lon="55.692">
        <ele>2211.65</ele>
        <time>2018-04-17T11:34:56Z</time>
      </trkpt>
      <trkpt lat="-21.22244" lon="55.69198">
        <ele>2212.13</ele>
        <time>2018-04-17T11:35:09Z</time>
      </trkpt>
      <trkpt lat="-21.22241" lon="55.69197">
        <ele>2212.13</ele>
        <time>2018-04-17T11:35:12Z</time>
      </trkpt>
      <trkpt lat="-21.22228" lon="55.6919">
        <ele>2212.13</ele>
        <time>2018-04-17T11:35:26Z</time>
      </trkpt>
      <trkpt lat="-21.22219" lon="55.69187">
        <ele>2213.09</ele>
        <time>2018-04-17T11:35:36Z</time>
      </trkpt>
      <trkpt lat="-21.22207" lon="55.69187">
        <ele>2212.61</ele>
        <time>2018-04-17T11:35:49Z</time>
      </trkpt>
      <trkpt lat="-21.222" lon="55.69185">
        <ele>2212.13</ele>
        <time>2018-04-17T11:36:03Z</time>
      </trkpt>
      <trkpt lat="-21.22194" lon="55.69184">
        <ele>2212.13</ele>
        <time>2018-04-17T11:36:15Z</time>
      </trkpt>
      <trkpt lat="-21.2219" lon="55.69185">
        <ele>2213.09</ele>
        <time>2018-04-17T11:36:27Z</time>
      </trkpt>
      <trkpt lat="-21.22191" lon="55.6918">
        <ele>2214.53</ele>
        <time>2018-04-17T11:36:43Z</time>
      </trkpt>
      <trkpt lat="-21.22191" lon="55.69173">
        <ele>2215.98</ele>
        <time>2018-04-17T11:36:56Z</time>
      </trkpt>
      <trkpt lat="-21.22189" lon="55.69176">
        <ele>2220.78</ele>
        <time>2018-04-17T11:37:12Z</time>
      </trkpt>
      <trkpt lat="-21.2219" lon="55.69172">
        <ele>2223.67</ele>
        <time>2018-04-17T11:37:24Z</time>
      </trkpt>
      <trkpt lat="-21.22187" lon="55.69163">
        <ele>2223.19</ele>
        <time>2018-04-17T11:37:39Z</time>
      </trkpt>
      <trkpt lat="-21.22184" lon="55.69157">
        <ele>2225.59</ele>
        <time>2018-04-17T11:37:52Z</time>
      </trkpt>
      <trkpt lat="-21.22184" lon="55.69148">
        <ele>2227.03</ele>
        <time>2018-04-17T11:38:05Z</time>
      </trkpt>
      <trkpt lat="-21.22186" lon="55.69138">
        <ele>2227.03</ele>
        <time>2018-04-17T11:38:19Z</time>
      </trkpt>
      <trkpt lat="-21.22188" lon="55.69128">
        <ele>2225.59</ele>
        <time>2018-04-17T11:38:35Z</time>
      </trkpt>
      <trkpt lat="-21.22191" lon="55.6912">
        <ele>2225.11</ele>
        <time>2018-04-17T11:38:48Z</time>
      </trkpt>
      <trkpt lat="-21.22188" lon="55.69112">
        <ele>2223.67</ele>
        <time>2018-04-17T11:39:03Z</time>
      </trkpt>
      <trkpt lat="-21.22186" lon="55.69103">
        <ele>2224.63</ele>
        <time>2018-04-17T11:39:18Z</time>
      </trkpt>
      <trkpt lat="-21.2219" lon="55.69098">
        <ele>2224.15</ele>
        <time>2018-04-17T11:39:31Z</time>
      </trkpt>
      <trkpt lat="-21.22192" lon="55.69094">
        <ele>2224.63</ele>
        <time>2018-04-17T11:39:46Z</time>
      </trkpt>
      <trkpt lat="-21.22188" lon="55.69096">
        <ele>2225.59</ele>
        <time>2018-04-17T11:39:59Z</time>
      </trkpt>
      <trkpt lat="-21.22191" lon="55.69093">
        <ele>2228.47</ele>
        <time>2018-04-17T11:40:20Z</time>
      </trkpt>
      <trkpt lat="-21.22194" lon="55.69086">
        <ele>2229.92</ele>
        <time>2018-04-17T11:40:34Z</time>
      </trkpt>
      <trkpt lat="-21.22196" lon="55.69077">
        <ele>2230.4</ele>
        <time>2018-04-17T11:40:46Z</time>
      </trkpt>
      <trkpt lat="-21.222" lon="55.69069">
        <ele>2232.8</ele>
        <time>2018-04-17T11:40:59Z</time>
      </trkpt>
      <trkpt lat="-21.22205" lon="55.69061">
        <ele>2236.16</ele>
        <time>2018-04-17T11:41:12Z</time>
      </trkpt>
      <trkpt lat="-21.22214" lon="55.69051">
        <ele>2239.53</ele>
        <time>2018-04-17T11:41:27Z</time>
      </trkpt>
      <trkpt lat="-21.2222" lon="55.69042">
        <ele>2240.97</ele>
        <time>2018-04-17T11:41:39Z</time>
      </trkpt>
      <trkpt lat="-21.22227" lon="55.69038">
        <ele>2245.3</ele>
        <time>2018-04-17T11:41:53Z</time>
      </trkpt>
      <trkpt lat="-21.22229" lon="55.69032">
        <ele>2252.99</ele>
        <time>2018-04-17T11:42:07Z</time>
      </trkpt>
      <trkpt lat="-21.22232" lon="55.69022">
        <ele>2253.47</ele>
        <time>2018-04-17T11:42:21Z</time>
      </trkpt>
      <trkpt lat="-21.22234" lon="55.69017">
        <ele>2253.95</ele>
        <time>2018-04-17T11:42:32Z</time>
      </trkpt>
      <trkpt lat="-21.22233" lon="55.69012">
        <ele>2255.39</ele>
        <time>2018-04-17T11:42:46Z</time>
      </trkpt>
      <trkpt lat="-21.22238" lon="55.69006">
        <ele>2256.35</ele>
        <time>2018-04-17T11:43:04Z</time>
      </trkpt>
      <trkpt lat="-21.22238" lon="55.69008">
        <ele>2257.79</ele>
        <time>2018-04-17T11:43:10Z</time>
      </trkpt>
      <trkpt lat="-21.22236" lon="55.69011">
        <ele>2258.75</ele>
        <time>2018-04-17T11:43:22Z</time>
      </trkpt>
      <trkpt lat="-21.22241" lon="55.69002">
        <ele>2258.75</ele>
        <time>2018-04-17T11:43:35Z</time>
      </trkpt>
      <trkpt lat="-21.22247" lon="55.68993">
        <ele>2259.72</ele>
        <time>2018-04-17T11:43:48Z</time>
      </trkpt>
      <trkpt lat="-21.22248" lon="55.68988">
        <ele>2260.68</ele>
        <time>2018-04-17T11:44:00Z</time>
      </trkpt>
      <trkpt lat="-21.22251" lon="55.68984">
        <ele>2263.56</ele>
        <time>2018-04-17T11:44:13Z</time>
      </trkpt>
      <trkpt lat="-21.22249" lon="55.68984">
        <ele>2264.52</ele>
        <time>2018-04-17T11:44:25Z</time>
      </trkpt>
      <trkpt lat="-21.22246" lon="55.68988">
        <ele>2273.17</ele>
        <time>2018-04-17T11:44:38Z</time>
      </trkpt>
      <trkpt lat="-21.22245" lon="55.68985">
        <ele>2275.1</ele>
        <time>2018-04-17T11:44:51Z</time>
      </trkpt>
      <trkpt lat="-21.2225" lon="55.68981">
        <ele>2273.66</ele>
        <time>2018-04-17T11:45:07Z</time>
      </trkpt>
      <trkpt lat="-21.22245" lon="55.68979">
        <ele>2277.5</ele>
        <time>2018-04-17T11:45:19Z</time>
      </trkpt>
      <trkpt lat="-21.2224" lon="55.68986">
        <ele>2282.31</ele>
        <time>2018-04-17T11:45:33Z</time>
      </trkpt>
      <trkpt lat="-21.22241" lon="55.68988">
        <ele>2283.27</ele>
        <time>2018-04-17T11:45:48Z</time>
      </trkpt>
      <trkpt lat="-21.2224" lon="55.6899">
        <ele>2283.75</ele>
        <time>2018-04-17T11:46:06Z</time>
      </trkpt>
      <trkpt lat="-21.22243" lon="55.68992">
        <ele>2287.11</ele>
        <time>2018-04-17T11:46:27Z</time>
      </trkpt>
      <trkpt lat="-21.22241" lon="55.68989">
        <ele>2284.71</ele>
        <time>2018-04-17T11:46:54Z</time>
      </trkpt>
      <trkpt lat="-21.22241" lon="55.6899">
        <ele>2285.19</ele>
        <time>2018-04-17T11:47:07Z</time>
      </trkpt>
      <trkpt lat="-21.22239" lon="55.68985">
        <ele>2285.19</ele>
        <time>2018-04-17T11:47:18Z</time>
      </trkpt>
      <trkpt lat="-21.22241" lon="55.68977">
        <ele>2287.11</ele>
        <time>2018-04-17T11:47:32Z</time>
      </trkpt>
      <trkpt lat="-21.22248" lon="55.68971">
        <ele>2291.92</ele>
        <time>2018-04-17T11:47:46Z</time>
      </trkpt>
      <trkpt lat="-21.22251" lon="55.68967">
        <ele>2292.88</ele>
        <time>2018-04-17T11:47:58Z</time>
      </trkpt>
      <trkpt lat="-21.22254" lon="55.68966">
        <ele>2294.32</ele>
        <time>2018-04-17T11:48:17Z</time>
      </trkpt>
      <trkpt lat="-21.22252" lon="55.68962">
        <ele>2296.25</ele>
        <time>2018-04-17T11:48:33Z</time>
      </trkpt>
      <trkpt lat="-21.22248" lon="55.68955">
        <ele>2295.28</ele>
        <time>2018-04-17T11:48:44Z</time>
      </trkpt>
      <trkpt lat="-21.22249" lon="55.68946">
        <ele>2295.77</ele>
        <time>2018-04-17T11:48:56Z</time>
      </trkpt>
      <trkpt lat="-21.22253" lon="55.68944">
        <ele>2294.32</ele>
        <time>2018-04-17T11:49:09Z</time>
      </trkpt>
      <trkpt lat="-21.22258" lon="55.68944">
        <ele>2295.77</ele>
        <time>2018-04-17T11:49:24Z</time>
      </trkpt>
      <trkpt lat="-21.22266" lon="55.68936">
        <ele>2296.25</ele>
        <time>2018-04-17T11:49:39Z</time>
      </trkpt>
      <trkpt lat="-21.22258" lon="55.68938">
        <ele>2300.09</ele>
        <time>2018-04-17T11:49:51Z</time>
      </trkpt>
      <trkpt lat="-21.22248" lon="55.68936">
        <ele>2302.49</ele>
        <time>2018-04-17T11:50:04Z</time>
      </trkpt>
      <trkpt lat="-21.22243" lon="55.68936">
        <ele>2303.94</ele>
        <time>2018-04-17T11:50:13Z</time>
      </trkpt>
      <trkpt lat="-21.2224" lon="55.68941">
        <ele>2306.82</ele>
        <time>2018-04-17T11:50:24Z</time>
      </trkpt>
      <trkpt lat="-21.22236" lon="55.6894">
        <ele>2306.82</ele>
        <time>2018-04-17T11:50:36Z</time>
      </trkpt>
      <trkpt lat="-21.22234" lon="55.68934">
        <ele>2306.82</ele>
        <time>2018-04-17T11:50:48Z</time>
      </trkpt>
      <trkpt lat="-21.22235" lon="55.68927">
        <ele>2307.78</ele>
        <time>2018-04-17T11:51:01Z</time>
      </trkpt>
      <trkpt lat="-21.22239" lon="55.6892">
        <ele>2311.63</ele>
        <time>2018-04-17T11:51:16Z</time>
      </trkpt>
      <trkpt lat="-21.2225" lon="55.68921">
        <ele>2313.07</ele>
        <time>2018-04-17T11:51:29Z</time>
      </trkpt>
      <trkpt lat="-21.22251" lon="55.6892">
        <ele>2315.95</ele>
        <time>2018-04-17T11:51:42Z</time>
      </trkpt>
      <trkpt lat="-21.22241" lon="55.68918">
        <ele>2321.24</ele>
        <time>2018-04-17T11:51:54Z</time>
      </trkpt>
      <trkpt lat="-21.22234" lon="55.68922">
        <ele>2324.61</ele>
        <time>2018-04-17T11:52:07Z</time>
      </trkpt>
      <trkpt lat="-21.2223" lon="55.68921">
        <ele>2325.09</ele>
        <time>2018-04-17T11:52:18Z</time>
      </trkpt>
      <trkpt lat="-21.22227" lon="55.68922">
        <ele>2325.57</ele>
        <time>2018-04-17T11:52:40Z</time>
      </trkpt>
      <trkpt lat="-21.22227" lon="55.68913">
        <ele>2323.16</ele>
        <time>2018-04-17T11:52:57Z</time>
      </trkpt>
      <trkpt lat="-21.22229" lon="55.68906">
        <ele>2322.68</ele>
        <time>2018-04-17T11:53:08Z</time>
      </trkpt>
      <trkpt lat="-21.2223" lon="55.68901">
        <ele>2325.09</ele>
        <time>2018-04-17T11:53:24Z</time>
      </trkpt>
      <trkpt lat="-21.2223" lon="55.6889">
        <ele>2327.49</ele>
        <time>2018-04-17T11:53:39Z</time>
      </trkpt>
      <trkpt lat="-21.22231" lon="55.68879">
        <ele>2328.45</ele>
        <time>2018-04-17T11:53:53Z</time>
      </trkpt>
      <trkpt lat="-21.22231" lon="55.68869">
        <ele>2328.93</ele>
        <time>2018-04-17T11:54:05Z</time>
      </trkpt>
      <trkpt lat="-21.22226" lon="55.68859">
        <ele>2330.85</ele>
        <time>2018-04-17T11:54:21Z</time>
      </trkpt>
      <trkpt lat="-21.22228" lon="55.68854">
        <ele>2332.3</ele>
        <time>2018-04-17T11:54:34Z</time>
      </trkpt>
      <trkpt lat="-21.22231" lon="55.68854">
        <ele>2334.22</ele>
        <time>2018-04-17T11:54:47Z</time>
      </trkpt>
      <trkpt lat="-21.22236" lon="55.68848">
        <ele>2336.62</ele>
        <time>2018-04-17T11:55:01Z</time>
      </trkpt>
      <trkpt lat="-21.22243" lon="55.68842">
        <ele>2336.14</ele>
        <time>2018-04-17T11:55:12Z</time>
      </trkpt>
      <trkpt lat="-21.22251" lon="55.68837">
        <ele>2335.18</ele>
        <time>2018-04-17T11:55:25Z</time>
      </trkpt>
      <trkpt lat="-21.22255" lon="55.68826">
        <ele>2336.62</ele>
        <time>2018-04-17T11:55:38Z</time>
      </trkpt>
      <trkpt lat="-21.22258" lon="55.68816">
        <ele>2337.58</ele>
        <time>2018-04-17T11:55:53Z</time>
      </trkpt>
      <trkpt lat="-21.2226" lon="55.68806">
        <ele>2338.54</ele>
        <time>2018-04-17T11:56:07Z</time>
      </trkpt>
      <trkpt lat="-21.22261" lon="55.68798">
        <ele>2339.02</ele>
        <time>2018-04-17T11:56:20Z</time>
      </trkpt>
      <trkpt lat="-21.22261" lon="55.68799">
        <ele>2339.02</ele>
        <time>2018-04-17T11:56:21Z</time>
      </trkpt>
      <trkpt lat="-21.22265" lon="55.68802">
        <ele>2338.06</ele>
        <time>2018-04-17T11:56:35Z</time>
      </trkpt>
      <trkpt lat="-21.22266" lon="55.68803">
        <ele>2337.58</ele>
        <time>2018-04-17T11:56:57Z</time>
      </trkpt>
      <trkpt lat="-21.22265" lon="55.68804">
        <ele>2338.54</ele>
        <time>2018-04-17T11:57:23Z</time>
      </trkpt>
      <trkpt lat="-21.22265" lon="55.68804">
        <ele>2339.51</ele>
        <time>2018-04-17T11:57:49Z</time>
      </trkpt>
      <trkpt lat="-21.22265" lon="55.68803">
        <ele>2340.47</ele>
        <time>2018-04-17T11:58:14Z</time>
      </trkpt>
      <trkpt lat="-21.22265" lon="55.68804">
        <ele>2341.43</ele>
        <time>2018-04-17T11:58:37Z</time>
      </trkpt>
      <trkpt lat="-21.22264" lon="55.68803">
        <ele>2343.35</ele>
        <time>2018-04-17T11:59:03Z</time>
      </trkpt>
      <trkpt lat="-21.22264" lon="55.68803">
        <ele>2342.39</ele>
        <time>2018-04-17T11:59:22Z</time>
      </trkpt>
      <trkpt lat="-21.22264" lon="55.68802">
        <ele>2343.35</ele>
        <time>2018-04-17T11:59:44Z</time>
      </trkpt>
      <trkpt lat="-21.22264" lon="55.68802">
        <ele>2344.31</ele>
        <time>2018-04-17T12:00:04Z</time>
      </trkpt>
      <trkpt lat="-21.22264" lon="55.688">
        <ele>2344.79</ele>
        <time>2018-04-17T12:00:25Z</time>
      </trkpt>
      <trkpt lat="-21.22263" lon="55.68793">
        <ele>2344.31</ele>
        <time>2018-04-17T12:00:42Z</time>
      </trkpt>
      <trkpt lat="-21.22265" lon="55.68788">
        <ele>2344.31</ele>
        <time>2018-04-17T12:00:51Z</time>
      </trkpt>
      <trkpt lat="-21.22267" lon="55.6878">
        <ele>2342.87</ele>
        <time>2018-04-17T12:01:01Z</time>
      </trkpt>
      <trkpt lat="-21.22271" lon="55.68771">
        <ele>2343.35</ele>
        <time>2018-04-17T12:01:13Z</time>
      </trkpt>
      <trkpt lat="-21.22274" lon="55.68767">
        <ele>2344.31</ele>
        <time>2018-04-17T12:01:29Z</time>
      </trkpt>
      <trkpt lat="-21.22281" lon="55.68759">
        <ele>2343.35</ele>
        <time>2018-04-17T12:01:43Z</time>
      </trkpt>
      <trkpt lat="-21.2229" lon="55.68748">
        <ele>2342.87</ele>
        <time>2018-04-17T12:01:57Z</time>
      </trkpt>
      <trkpt lat="-21.223" lon="55.68737">
        <ele>2342.87</ele>
        <time>2018-04-17T12:02:13Z</time>
      </trkpt>
      <trkpt lat="-21.22309" lon="55.68729">
        <ele>2343.83</ele>
        <time>2018-04-17T12:02:26Z</time>
      </trkpt>
      <trkpt lat="-21.22317" lon="55.68724">
        <ele>2345.75</ele>
        <time>2018-04-17T12:02:40Z</time>
      </trkpt>
      <trkpt lat="-21.22323" lon="55.68716">
        <ele>2346.23</ele>
        <time>2018-04-17T12:02:52Z</time>
      </trkpt>
      <trkpt lat="-21.22332" lon="55.68709">
        <ele>2348.64</ele>
        <time>2018-04-17T12:03:05Z</time>
      </trkpt>
      <trkpt lat="-21.22336" lon="55.68704">
        <ele>2349.12</ele>
        <time>2018-04-17T12:03:18Z</time>
      </trkpt>
      <trkpt lat="-21.2234" lon="55.68696">
        <ele>2349.12</ele>
        <time>2018-04-17T12:03:30Z</time>
      </trkpt>
      <trkpt lat="-21.22342" lon="55.68695">
        <ele>2349.6</ele>
        <time>2018-04-17T12:03:41Z</time>
      </trkpt>
      <trkpt lat="-21.22343" lon="55.68693">
        <ele>2349.6</ele>
        <time>2018-04-17T12:03:43Z</time>
      </trkpt>
      <trkpt lat="-21.22353" lon="55.68685">
        <ele>2349.6</ele>
        <time>2018-04-17T12:03:58Z</time>
      </trkpt>
      <trkpt lat="-21.2236" lon="55.68677">
        <ele>2350.08</ele>
        <time>2018-04-17T12:04:12Z</time>
      </trkpt>
      <trkpt lat="-21.22368" lon="55.6867">
        <ele>2350.56</ele>
        <time>2018-04-17T12:04:27Z</time>
      </trkpt>
      <trkpt lat="-21.22371" lon="55.68665">
        <ele>2351.04</ele>
        <time>2018-04-17T12:04:34Z</time>
      </trkpt>
      <trkpt lat="-21.22375" lon="55.68658">
        <ele>2351.04</ele>
        <time>2018-04-17T12:04:45Z</time>
      </trkpt>
      <trkpt lat="-21.22379" lon="55.6865">
        <ele>2352</ele>
        <time>2018-04-17T12:04:58Z</time>
      </trkpt>
      <trkpt lat="-21.22383" lon="55.68644">
        <ele>2353.44</ele>
        <time>2018-04-17T12:05:08Z</time>
      </trkpt>
      <trkpt lat="-21.22389" lon="55.68639">
        <ele>2354.89</ele>
        <time>2018-04-17T12:05:20Z</time>
      </trkpt>
      <trkpt lat="-21.22394" lon="55.68635">
        <ele>2355.37</ele>
        <time>2018-04-17T12:05:27Z</time>
      </trkpt>
      <trkpt lat="-21.22401" lon="55.68629">
        <ele>2355.85</ele>
        <time>2018-04-17T12:05:37Z</time>
      </trkpt>
      <trkpt lat="-21.22406" lon="55.68627">
        <ele>2355.37</ele>
        <time>2018-04-17T12:05:42Z</time>
      </trkpt>
      <trkpt lat="-21.22411" lon="55.68623">
        <ele>2356.33</ele>
        <time>2018-04-17T12:05:55Z</time>
      </trkpt>
      <trkpt lat="-21.22423" lon="55.68615">
        <ele>2356.81</ele>
        <time>2018-04-17T12:06:10Z</time>
      </trkpt>
      <trkpt lat="-21.22432" lon="55.68608">
        <ele>2356.81</ele>
        <time>2018-04-17T12:06:22Z</time>
      </trkpt>
      <trkpt lat="-21.22442" lon="55.68603">
        <ele>2356.81</ele>
        <time>2018-04-17T12:06:32Z</time>
      </trkpt>
      <trkpt lat="-21.22447" lon="55.68604">
        <ele>2356.81</ele>
        <time>2018-04-17T12:06:37Z</time>
      </trkpt>
      <trkpt lat="-21.22455" lon="55.68608">
        <ele>2355.37</ele>
        <time>2018-04-17T12:06:51Z</time>
      </trkpt>
      <trkpt lat="-21.22457" lon="55.68605">
        <ele>2356.81</ele>
        <time>2018-04-17T12:07:02Z</time>
      </trkpt>
      <trkpt lat="-21.22458" lon="55.68598">
        <ele>2357.77</ele>
        <time>2018-04-17T12:07:15Z</time>
      </trkpt>
      <trkpt lat="-21.2246" lon="55.68594">
        <ele>2357.29</ele>
        <time>2018-04-17T12:07:21Z</time>
      </trkpt>
      <trkpt lat="-21.22461" lon="55.68589">
        <ele>2356.81</ele>
        <time>2018-04-17T12:07:25Z</time>
      </trkpt>
      <trkpt lat="-21.22472" lon="55.6859">
        <ele>2356.81</ele>
        <time>2018-04-17T12:07:39Z</time>
      </trkpt>
      <trkpt lat="-21.22474" lon="55.6859">
        <ele>2356.81</ele>
        <time>2018-04-17T12:08:09Z</time>
      </trkpt>
      <trkpt lat="-21.22474" lon="55.6859">
        <ele>2356.33</ele>
        <time>2018-04-17T12:08:21Z</time>
      </trkpt>
      <trkpt lat="-21.22474" lon="55.6859">
        <ele>2356.33</ele>
        <time>2018-04-17T12:08:33Z</time>
      </trkpt>
      <trkpt lat="-21.22475" lon="55.68588">
        <ele>2355.85</ele>
        <time>2018-04-17T12:09:02Z</time>
      </trkpt>
      <trkpt lat="-21.22474" lon="55.68588">
        <ele>2355.85</ele>
        <time>2018-04-17T12:09:36Z</time>
      </trkpt>
      <trkpt lat="-21.22479" lon="55.68585">
        <ele>2355.85</ele>
        <time>2018-04-17T12:09:48Z</time>
      </trkpt>
      <trkpt lat="-21.22481" lon="55.68583">
        <ele>2355.85</ele>
        <time>2018-04-17T12:09:57Z</time>
      </trkpt>
      <trkpt lat="-21.2249" lon="55.6857">
        <ele>2355.85</ele>
        <time>2018-04-17T12:10:12Z</time>
      </trkpt>
      <trkpt lat="-21.22495" lon="55.68565">
        <ele>2355.37</ele>
        <time>2018-04-17T12:10:25Z</time>
      </trkpt>
      <trkpt lat="-21.22495" lon="55.68565">
        <ele>2355.37</ele>
        <time>2018-04-17T12:10:27Z</time>
      </trkpt>
      <trkpt lat="-21.22497" lon="55.68564">
        <ele>2355.85</ele>
        <time>2018-04-17T12:10:38Z</time>
      </trkpt>
      <trkpt lat="-21.22497" lon="55.68563">
        <ele>2355.85</ele>
        <time>2018-04-17T12:10:39Z</time>
      </trkpt>
      <trkpt lat="-21.22502" lon="55.68555">
        <ele>2357.29</ele>
        <time>2018-04-17T12:10:47Z</time>
      </trkpt>
      <trkpt lat="-21.22504" lon="55.6855">
        <ele>2356.81</ele>
        <time>2018-04-17T12:10:52Z</time>
      </trkpt>
      <trkpt lat="-21.22505" lon="55.68546">
        <ele>2357.77</ele>
        <time>2018-04-17T12:10:56Z</time>
      </trkpt>
      <trkpt lat="-21.22514" lon="55.6853">
        <ele>2358.25</ele>
        <time>2018-04-17T12:11:11Z</time>
      </trkpt>
      <trkpt lat="-21.22521" lon="55.68514">
        <ele>2360.17</ele>
        <time>2018-04-17T12:11:27Z</time>
      </trkpt>
      <trkpt lat="-21.22522" lon="55.68505">
        <ele>2359.21</ele>
        <time>2018-04-17T12:11:36Z</time>
      </trkpt>
      <trkpt lat="-21.22517" lon="55.68497">
        <ele>2358.25</ele>
        <time>2018-04-17T12:11:44Z</time>
      </trkpt>
      <trkpt lat="-21.22504" lon="55.68489">
        <ele>2356.81</ele>
        <time>2018-04-17T12:12:00Z</time>
      </trkpt>
      <trkpt lat="-21.22484" lon="55.68491">
        <ele>2355.37</ele>
        <time>2018-04-17T12:12:16Z</time>
      </trkpt>
      <trkpt lat="-21.22465" lon="55.68495">
        <ele>2354.41</ele>
        <time>2018-04-17T12:12:32Z</time>
      </trkpt>
      <trkpt lat="-21.22446" lon="55.685">
        <ele>2353.44</ele>
        <time>2018-04-17T12:12:49Z</time>
      </trkpt>
      <trkpt lat="-21.22431" lon="55.685">
        <ele>2352.48</ele>
        <time>2018-04-17T12:13:03Z</time>
      </trkpt>
      <trkpt lat="-21.22415" lon="55.68489">
        <ele>2350.08</ele>
        <time>2018-04-17T12:13:19Z</time>
      </trkpt>
      <trkpt lat="-21.22404" lon="55.68472">
        <ele>2347.68</ele>
        <time>2018-04-17T12:13:35Z</time>
      </trkpt>
      <trkpt lat="-21.22396" lon="55.68458">
        <ele>2346.23</ele>
        <time>2018-04-17T12:13:49Z</time>
      </trkpt>
      <trkpt lat="-21.2239" lon="55.68456">
        <ele>2346.72</ele>
        <time>2018-04-17T12:13:55Z</time>
      </trkpt>
      <trkpt lat="-21.22389" lon="55.68463">
        <ele>2344.79</ele>
        <time>2018-04-17T12:14:09Z</time>
      </trkpt>
      <trkpt lat="-21.22389" lon="55.68463">
        <ele>2347.2</ele>
        <time>2018-04-17T12:14:41Z</time>
      </trkpt>
      <trkpt lat="-21.22387" lon="55.68458">
        <ele>2346.72</ele>
        <time>2018-04-17T12:14:46Z</time>
      </trkpt>
      <trkpt lat="-21.22389" lon="55.68448">
        <ele>2346.72</ele>
        <time>2018-04-17T12:14:58Z</time>
      </trkpt>
      <trkpt lat="-21.22393" lon="55.68433">
        <ele>2346.72</ele>
        <time>2018-04-17T12:15:12Z</time>
      </trkpt>
      <trkpt lat="-21.22397" lon="55.68424">
        <ele>2345.75</ele>
        <time>2018-04-17T12:15:25Z</time>
      </trkpt>
      <trkpt lat="-21.22397" lon="55.68423">
        <ele>2346.23</ele>
        <time>2018-04-17T12:15:46Z</time>
      </trkpt>
      <trkpt lat="-21.22396" lon="55.68424">
        <ele>2347.68</ele>
        <time>2018-04-17T12:15:58Z</time>
      </trkpt>
    </trkseg>
  </trk>
</gpx>